Darstellungsparameter: Aktuell verwendete Einstellungen:
Skalierung der Graphiken ... ?
xyx+y,   Skalierungsfaktor:      Skalierung: Modus: x, Faktor: 1
Darstellungszeitraum ... ?
Vom - - bis: - -   Zeitraum: 17.11.2010 - 16.11.2020
Min/Max/Avg-Anzeige ... ?
Zeige MMA aktuell
Zeige MMA Monat
Zeige MMA alles
Zeige --A aktuell
Zeige --A Monat
Zeige --A alles
Keine MMA-Anzeige
MMA:
Average (ber die Originaldaten)
MMA-Basis: 23.02.2003 - 17.11.2020
Quicknavigation für Darstellung... ?
Tage:      1T, 2T, 3T, 5T -1T -2T -3T -5T +1T +2T +3T +5T
Wochen: 1W, 2W, 3W -1W -2W -3W +1W +2W +3W
Monate: 1M, 3M, 6M -1M -3M -6M +1M +3M +6M
Jahre:    1J, 3J, 5J, 10J -1J -3J -5J -10J +1J +3J +5J +10J
Nutze für die Darstellung ... ?
Originaldaten oder ...
Mittelwerte Minima Maxima auf...
Stundenbasis Tagesbasis Wochenbasis
Monatsbasis Jahresbasis      Datenbasis: Mittelwerte auf Stundenbasis
Darstellen als:
Statistik (Auto) Statistik J:M      Darstellung:
Zur Graphik,    zurück zur Übersicht aller Sensoren.
 
Tabellarische Datenbersicht: ?
 
Sensor: Nr:Datum:Temp:Abs-Feuchte:Windchill:Wind:
Aussen-T/F 1 17-11-2010 00:00:00 4.78 C 5.72 g/m*3 4.78 C 0 km/h
2 17-11-2010 01:00:00 5.08 C 5.62 g/m*3 5.08 C 0 km/h
3 17-11-2010 02:00:00 5 C 5.59 g/m*3 5 C 0 km/h
4 17-11-2010 03:00:00 4.92 C 5.66 g/m*3 4.92 C 0 km/h
5 17-11-2010 04:00:00 4.8 C 5.65 g/m*3 4.8 C 0 km/h
6 17-11-2010 05:00:00 4.74 C 5.72 g/m*3 4.74 C 0 km/h
7 17-11-2010 06:00:00 4.7 C 5.73 g/m*3 4.7 C 0 km/h
8 17-11-2010 07:00:00 4.72 C 5.67 g/m*3 4.72 C 0 km/h
9 17-11-2010 08:00:00 5.1 C 4.98 g/m*3 5.1 C 0 km/h
10 17-11-2010 09:00:00 5.56 C 4.64 g/m*3 5.56 C 0 km/h
11 17-11-2010 10:00:00 5.78 C 4.66 g/m*3 5.78 C 0 km/h
12 17-11-2010 11:00:00 6.04 C 4.6 g/m*3 6.04 C 0 km/h
13 17-11-2010 12:00:00 6.28 C 4.6 g/m*3 6.28 C 0 km/h
14 17-11-2010 13:00:00 6.54 C 4.63 g/m*3 6.54 C 0 km/h
15 17-11-2010 14:00:00 6.18 C 4.55 g/m*3 6.18 C 0 km/h
16 17-11-2010 15:00:00 5.86 C 4.67 g/m*3 5.86 C 0 km/h
17 17-11-2010 16:00:00 5.54 C 4.8 g/m*3 5.54 C 0 km/h
18 17-11-2010 17:00:00 5.26 C 4.91 g/m*3 5.26 C 0 km/h
19 17-11-2010 18:00:00 5.2 C 4.97 g/m*3 5.2 C 0 km/h
20 17-11-2010 19:00:00 5.3 C 4.99 g/m*3 5.3 C 0 km/h
21 17-11-2010 20:00:00 5.3 C 5.12 g/m*3 5.3 C 0 km/h
22 17-11-2010 21:00:00 5.26 C 5.21 g/m*3 5.26 C 0 km/h
23 17-11-2010 22:00:00 5.04 C 5.34 g/m*3 5.04 C 0 km/h
24 17-11-2010 23:00:00 4.52 C 5.58 g/m*3 4.52 C 0 km/h
25 18-11-2010 00:00:00 4.56 C 5.74 g/m*3 4.56 C 0 km/h
Sensor: Nr:Datum:Temp:Abs-Feuchte:Windchill:Wind:
Aussen-T/F 26 18-11-2010 01:00:00 4.28 C 5.71 g/m*3 4.28 C 0 km/h
27 18-11-2010 02:00:00 4.28 C 5.77 g/m*3 4.28 C 0 km/h
28 18-11-2010 03:00:00 4.06 C 5.75 g/m*3 4.06 C 0 km/h
29 18-11-2010 04:00:00 4.28 C 5.88 g/m*3 4.28 C 0 km/h
30 18-11-2010 05:00:00 4.28 C 5.89 g/m*3 4.28 C 0 km/h
31 18-11-2010 06:00:00 3.92 C 5.81 g/m*3 3.92 C 0 km/h
32 18-11-2010 07:00:00 3.98 C 5.84 g/m*3 3.98 C 0 km/h
33 18-11-2010 08:00:00 4.22 C 5.94 g/m*3 4.22 C 0 km/h
34 18-11-2010 09:00:00 4.94 C 6.2 g/m*3 4.94 C 0 km/h
35 18-11-2010 10:00:00 5.96 C 6.24 g/m*3 5.96 C 0 km/h
36 18-11-2010 11:00:00 6.9 C 6.02 g/m*3 6.9 C 0 km/h
37 18-11-2010 12:00:00 7.54 C 5.92 g/m*3 7.54 C 0 km/h
38 18-11-2010 13:00:00 8.36 C 5.7 g/m*3 8.36 C 0 km/h
39 18-11-2010 14:00:00 8.14 C 5.32 g/m*3 8.14 C 0 km/h
40 18-11-2010 15:00:00 7.76 C 5.39 g/m*3 7.76 C 0 km/h
41 18-11-2010 16:00:00 6.9 C 5.77 g/m*3 6.9 C 0 km/h
42 18-11-2010 17:00:00 6.12 C 5.87 g/m*3 6.12 C 0 km/h
43 18-11-2010 18:00:00 6.2 C 6.02 g/m*3 6.2 C 0 km/h
44 18-11-2010 19:00:00 5.94 C 6.01 g/m*3 5.94 C 0 km/h
45 18-11-2010 20:00:00 5.58 C 6.23 g/m*3 5.58 C 0 km/h
46 18-11-2010 21:00:00 5.52 C 6.27 g/m*3 5.52 C 0 km/h
47 18-11-2010 22:00:00 5.5 C 6.32 g/m*3 5.5 C 0 km/h
48 18-11-2010 23:00:00 5.64 C 6.42 g/m*3 5.64 C 0 km/h
49 19-11-2010 00:00:00 5.66 C 6.26 g/m*3 5.66 C 0 km/h
50 19-11-2010 01:00:00 5.58 C 6.11 g/m*3 5.58 C 0 km/h
Sensor: Nr:Datum:Temp:Abs-Feuchte:Windchill:Wind:
Aussen-T/F 51 19-11-2010 02:00:00 5.34 C 6.17 g/m*3 5.34 C 0 km/h
52 19-11-2010 03:00:00 5.12 C 6.08 g/m*3 5.12 C 0 km/h
53 19-11-2010 04:00:00 5.04 C 6.05 g/m*3 5.04 C 0 km/h
54 19-11-2010 05:00:00 4.94 C 6.04 g/m*3 4.94 C 0 km/h
55 19-11-2010 06:00:00 4.9 C 6.02 g/m*3 4.9 C 0 km/h
56 19-11-2010 07:00:00 5.14 C 6.1 g/m*3 5.14 C 0 km/h
57 19-11-2010 08:00:00 5.44 C 6.23 g/m*3 5.44 C 0 km/h
58 19-11-2010 09:00:00 6.32 C 6.26 g/m*3 6.32 C 0 km/h
59 19-11-2010 10:00:00 7.62 C 6.28 g/m*3 7.62 C 0 km/h
60 19-11-2010 11:00:00 8.84 C 6.06 g/m*3 8.84 C 0 km/h
61 19-11-2010 12:00:00 9.52 C 5.85 g/m*3 9.52 C 0 km/h
62 19-11-2010 13:00:00 9.74 C 5.82 g/m*3 9.74 C 0 km/h
63 19-11-2010 14:00:00 9.94 C 5.69 g/m*3 9.94 C 0 km/h
64 19-11-2010 15:00:00 8.5 C 5.93 g/m*3 8.5 C 0 km/h
65 19-11-2010 16:00:00 7.04 C 6.23 g/m*3 7.04 C 0 km/h
66 19-11-2010 17:00:00 7.58 C 6.31 g/m*3 7.58 C 0 km/h
67 19-11-2010 18:00:00 7.62 C 6.32 g/m*3 7.62 C 0 km/h
68 19-11-2010 19:00:00 6.96 C 6.23 g/m*3 6.96 C 0 km/h
69 19-11-2010 20:00:00 5.1 C 5.91 g/m*3 5.1 C 0 km/h
70 19-11-2010 21:00:00 3.86 C 5.62 g/m*3 3.86 C 0 km/h
71 19-11-2010 22:00:00 3.92 C 5.74 g/m*3 3.92 C 0 km/h
72 19-11-2010 23:00:00 4.54 C 6.02 g/m*3 4.54 C 0 km/h
73 20-11-2010 00:00:00 4.04 C 5.86 g/m*3 4.04 C 0 km/h
74 20-11-2010 01:00:00 4.18 C 5.92 g/m*3 4.18 C 0 km/h
75 20-11-2010 02:00:00 1.94 C 5.11 g/m*3 1.94 C 0 km/h
Sensor: Nr:Datum:Temp:Abs-Feuchte:Windchill:Wind:
Aussen-T/F 76 20-11-2010 03:00:00 1.34 C 4.91 g/m*3 1.34 C 0 km/h
77 20-11-2010 04:00:00 2.64 C 5.37 g/m*3 2.64 C 0 km/h
78 20-11-2010 05:00:00 3.34 C 5.65 g/m*3 3.34 C 0 km/h
79 20-11-2010 06:00:00 3.76 C 5.82 g/m*3 3.76 C 0 km/h
80 20-11-2010 07:00:00 4.06 C 5.94 g/m*3 4.06 C 0 km/h
81 20-11-2010 08:00:00 4.4 C 6.07 g/m*3 4.4 C 0 km/h
82 20-11-2010 09:00:00 5.04 C 6.32 g/m*3 5.04 C 0 km/h
83 20-11-2010 10:00:00 6.02 C 6.63 g/m*3 6.02 C 0 km/h
84 20-11-2010 11:00:00 7.46 C 6.75 g/m*3 7.46 C 0 km/h
85 20-11-2010 12:00:00 9.1 C 6.67 g/m*3 9.1 C 0 km/h
86 20-11-2010 13:00:00 8.88 C 6.37 g/m*3 8.88 C 0 km/h
87 20-11-2010 14:00:00 8.78 C 6.29 g/m*3 8.78 C 0 km/h
88 20-11-2010 15:00:00 7.76 C 6.19 g/m*3 7.76 C 0 km/h
89 20-11-2010 16:00:00 5.34 C 5.87 g/m*3 5.34 C 0 km/h
90 20-11-2010 17:00:00 4.6 C 5.9 g/m*3 4.6 C 0 km/h
91 20-11-2010 18:00:00 4.4 C 5.9 g/m*3 4.4 C 0 km/h
92 20-11-2010 19:00:00 3.92 C 5.75 g/m*3 3.92 C 0 km/h
93 20-11-2010 20:00:00 3.28 C 5.55 g/m*3 3.28 C 0 km/h
94 20-11-2010 21:00:00 3.26 C 5.57 g/m*3 3.26 C 0 km/h
95 20-11-2010 22:00:00 4.32 C 5.98 g/m*3 4.32 C 0 km/h
96 20-11-2010 23:00:00 4.12 C 5.92 g/m*3 4.12 C 0 km/h
97 21-11-2010 00:00:00 4.32 C 5.96 g/m*3 4.32 C 0 km/h
98 21-11-2010 01:00:00 4.48 C 5.75 g/m*3 4.48 C 0 km/h
99 21-11-2010 02:00:00 4.44 C 5.43 g/m*3 4.44 C 0 km/h
100 21-11-2010 03:00:00 4.5 C 5.28 g/m*3 4.5 C 0 km/h
Sensor: Nr:Datum:Temp:Abs-Feuchte:Windchill:Wind:
Aussen-T/F 101 21-11-2010 04:00:00 4.56 C 5.06 g/m*3 4.56 C 0 km/h
102 21-11-2010 05:00:00 4.5 C 4.94 g/m*3 4.5 C 0 km/h
103 21-11-2010 06:00:00 4.4 C 4.92 g/m*3 4.4 C 0 km/h
104 21-11-2010 07:00:00 4.38 C 5.05 g/m*3 4.38 C 0 km/h
105 21-11-2010 08:00:00 4.7 C 5.14 g/m*3 4.7 C 0 km/h
106 21-11-2010 09:00:00 5 C 4.92 g/m*3 5 C 0 km/h
107 21-11-2010 10:00:00 5.36 C 4.82 g/m*3 5.36 C 0 km/h
108 21-11-2010 11:00:00 5.3 C 4.63 g/m*3 5.3 C 0 km/h
109 21-11-2010 12:00:00 5.1 C 4.53 g/m*3 5.1 C 0 km/h
110 21-11-2010 13:00:00 5.12 C 4.45 g/m*3 5.12 C 0 km/h
111 21-11-2010 14:00:00 4.88 C 4.42 g/m*3 4.88 C 0 km/h
112 21-11-2010 15:00:00 4.44 C 4.28 g/m*3 4.44 C 0 km/h
113 21-11-2010 16:00:00 4.16 C 4.38 g/m*3 4.16 C 0 km/h
114 21-11-2010 17:00:00 3.96 C 4.5 g/m*3 3.96 C 0 km/h
115 21-11-2010 18:00:00 3.96 C 4.57 g/m*3 3.96 C 0 km/h
116 21-11-2010 19:00:00 4.06 C 4.61 g/m*3 4.06 C 0 km/h
117 21-11-2010 20:00:00 4.3 C 4.55 g/m*3 4.3 C 0 km/h
118 21-11-2010 21:00:00 4.16 C 4.5 g/m*3 4.16 C 0 km/h
119 21-11-2010 22:00:00 3.76 C 4.66 g/m*3 3.76 C 0 km/h
120 21-11-2010 23:00:00 3.76 C 4.81 g/m*3 3.76 C 0 km/h
121 22-11-2010 00:00:00 4.06 C 4.93 g/m*3 4.06 C 0 km/h
122 22-11-2010 01:00:00 4.08 C 4.92 g/m*3 4.08 C 0 km/h
123 22-11-2010 02:00:00 4.16 C 4.97 g/m*3 4.16 C 0 km/h
124 22-11-2010 03:00:00 4.46 C 5.06 g/m*3 4.46 C 0 km/h
125 22-11-2010 04:00:00 4.86 C 5.01 g/m*3 4.86 C 0 km/h
Sensor: Nr:Datum:Temp:Abs-Feuchte:Windchill:Wind:
Aussen-T/F 126 22-11-2010 05:00:00 4.88 C 4.95 g/m*3 4.88 C 0 km/h
127 22-11-2010 06:00:00 4.7 C 4.86 g/m*3 4.7 C 0 km/h
128 22-11-2010 07:00:00 4.64 C 4.79 g/m*3 4.64 C 0 km/h
129 22-11-2010 08:00:00 4.64 C 4.8 g/m*3 4.64 C 0 km/h
130 22-11-2010 09:00:00 4.74 C 4.81 g/m*3 4.74 C 0 km/h
131 22-11-2010 10:00:00 4.82 C 4.86 g/m*3 4.82 C 0 km/h
132 22-11-2010 11:00:00 4.48 C 4.95 g/m*3 4.48 C 0 km/h
133 22-11-2010 12:00:00 4.2 C 5.21 g/m*3 4.2 C 0 km/h
134 22-11-2010 13:00:00 4.24 C 5.38 g/m*3 4.24 C 0 km/h
135 22-11-2010 14:00:00 4.78 C 5.25 g/m*3 4.78 C 0 km/h
136 22-11-2010 15:00:00 4.9 C 5.02 g/m*3 4.9 C 0 km/h
137 22-11-2010 16:00:00 4.32 C 4.91 g/m*3 4.32 C 0 km/h
138 22-11-2010 17:00:00 4.04 C 4.99 g/m*3 4.04 C 0 km/h
139 22-11-2010 18:00:00 4.28 C 4.95 g/m*3 4.28 C 0 km/h
140 22-11-2010 19:00:00 4.38 C 4.88 g/m*3 4.38 C 0 km/h
141 22-11-2010 20:00:00 4.42 C 4.8 g/m*3 4.42 C 0 km/h
142 22-11-2010 21:00:00 4.4 C 4.82 g/m*3 4.4 C 0 km/h
143 22-11-2010 22:00:00 4.5 C 4.89 g/m*3 4.5 C 0 km/h
144 22-11-2010 23:00:00 4.4 C 4.94 g/m*3 4.4 C 0 km/h
145 23-11-2010 00:00:00 4.44 C 4.94 g/m*3 4.44 C 0 km/h
146 23-11-2010 01:00:00 4.46 C 4.85 g/m*3 4.46 C 0 km/h
147 23-11-2010 02:00:00 4.26 C 4.62 g/m*3 4.26 C 0 km/h
148 23-11-2010 03:00:00 4.08 C 4.42 g/m*3 4.08 C 0 km/h
149 23-11-2010 04:00:00 3.68 C 4.52 g/m*3 3.68 C 0 km/h
150 23-11-2010 05:00:00 3.2 C 4.65 g/m*3 3.2 C 0 km/h
Sensor: Nr:Datum:Temp:Abs-Feuchte:Windchill:Wind:
Aussen-T/F 151 23-11-2010 06:00:00 2.66 C 5.01 g/m*3 2.66 C 0 km/h
152 23-11-2010 07:00:00 2.96 C 5.08 g/m*3 2.96 C 0 km/h
153 23-11-2010 08:00:00 3.18 C 4.89 g/m*3 3.18 C 0 km/h
154 23-11-2010 09:00:00 3.68 C 4.75 g/m*3 3.68 C 0 km/h
155 23-11-2010 10:00:00 4.26 C 4.58 g/m*3 4.26 C 0 km/h
156 23-11-2010 11:00:00 4.72 C 4.66 g/m*3 4.72 C 0 km/h
157 23-11-2010 12:00:00 5.28 C 4.47 g/m*3 5.28 C 0 km/h
158 23-11-2010 13:00:00 6.04 C 4.37 g/m*3 6.04 C 0 km/h
159 23-11-2010 14:00:00 5.74 C 4.25 g/m*3 5.74 C 0 km/h
160 23-11-2010 15:00:00 5.54 C 4.25 g/m*3 5.54 C 0 km/h
161 23-11-2010 16:00:00 5.38 C 4.47 g/m*3 5.38 C 0 km/h
162 23-11-2010 17:00:00 5.32 C 4.46 g/m*3 5.32 C 0 km/h
163 23-11-2010 18:00:00 5.28 C 4.42 g/m*3 5.28 C 0 km/h
164 23-11-2010 19:00:00 5.2 C 4.5 g/m*3 5.2 C 0 km/h
165 23-11-2010 20:00:00 5.14 C 4.46 g/m*3 5.14 C 0 km/h
166 23-11-2010 21:00:00 4.98 C 4.33 g/m*3 4.98 C 0 km/h
167 23-11-2010 22:00:00 4.95 C 4.33 g/m*3 4.95 C 0 km/h
168 23-11-2010 23:00:00 4.64 C 4.39 g/m*3 4.64 C 0 km/h
169 24-11-2010 00:00:00 4.32 C 4.44 g/m*3 4.32 C 0 km/h
170 24-11-2010 01:00:00 3.96 C 4.46 g/m*3 3.96 C 0 km/h
171 24-11-2010 02:00:00 3.42 C 4.5 g/m*3 3.42 C 0 km/h
172 24-11-2010 03:00:00 3.52 C 4.62 g/m*3 3.52 C 0 km/h
173 24-11-2010 04:00:00 3.46 C 4.72 g/m*3 3.46 C 0 km/h
174 24-11-2010 05:00:00 2.92 C 5 g/m*3 2.92 C 0 km/h
175 24-11-2010 06:00:00 3.2 C 5.07 g/m*3 3.2 C 0 km/h
Sensor: Nr:Datum:Temp:Abs-Feuchte:Windchill:Wind:
Aussen-T/F 176 24-11-2010 07:00:00 3.34 C 5.01 g/m*3 3.34 C 0 km/h
177 24-11-2010 08:00:00 3.42 C 5.08 g/m*3 3.42 C 0 km/h
178 24-11-2010 09:00:00 4.22 C 4.99 g/m*3 4.22 C 0 km/h
179 24-11-2010 10:00:00 5.22 C 4.7 g/m*3 5.22 C 0 km/h
180 24-11-2010 11:00:00 5.22 C 4.78 g/m*3 5.22 C 0 km/h
181 24-11-2010 12:00:00 5.8 C 4.57 g/m*3 5.8 C 0 km/h
182 24-11-2010 13:00:00 5.36 C 4.61 g/m*3 5.36 C 0 km/h
183 24-11-2010 14:00:00 4.48 C 5.08 g/m*3 4.48 C 0 km/h
184 24-11-2010 15:00:00 3.48 C 5.24 g/m*3 3.48 C 0 km/h
185 24-11-2010 16:00:00 3.3 C 5.22 g/m*3 3.3 C 0 km/h
186 24-11-2010 17:00:00 2.28 C 4.88 g/m*3 2.28 C 0 km/h
187 24-11-2010 18:00:00 1.64 C 4.9 g/m*3 1.64 C 0 km/h
188 24-11-2010 19:00:00 2.02 C 5.09 g/m*3 2.02 C 0 km/h
189 24-11-2010 20:00:00 1.42 C 4.91 g/m*3 1.42 C 0 km/h
190 24-11-2010 21:00:00 1.42 C 4.91 g/m*3 1.42 C 0 km/h
191 24-11-2010 22:00:00 2.14 C 5.13 g/m*3 2.14 C 0 km/h
192 24-11-2010 23:00:00 2.4 C 5.06 g/m*3 2.4 C 0 km/h
193 25-11-2010 00:00:00 2.5 C 4.93 g/m*3 2.5 C 0 km/h
194 25-11-2010 01:00:00 2.94 C 4.82 g/m*3 2.94 C 0 km/h
195 25-11-2010 02:00:00 2.76 C 4.55 g/m*3 2.76 C 0 km/h
196 25-11-2010 03:00:00 2.82 C 4.43 g/m*3 2.82 C 0 km/h
197 25-11-2010 04:00:00 2.02 C 4.2 g/m*3 2.02 C 0 km/h
198 25-11-2010 05:00:00 1.3 C 4.08 g/m*3 1.3 C 0 km/h
199 25-11-2010 06:00:00 0.66 C 4.12 g/m*3 0.66 C 0 km/h
200 25-11-2010 07:00:00 0.06 C 4.24 g/m*3 0.06 C 0 km/h
Sensor: Nr:Datum:Temp:Abs-Feuchte:Windchill:Wind:
Aussen-T/F 201 25-11-2010 08:00:00 -0.28 C 4.23 g/m*3 -0.28 C 0 km/h
202 25-11-2010 09:00:00 0.58 C 4.45 g/m*3 0.58 C 0 km/h
203 25-11-2010 10:00:00 0.8 C 4.42 g/m*3 0.8 C 0 km/h
204 25-11-2010 11:00:00 1.76 C 4.53 g/m*3 1.76 C 0 km/h
205 25-11-2010 12:00:00 2 C 4.51 g/m*3 2 C 0 km/h
206 25-11-2010 13:00:00 3.48 C 4.22 g/m*3 3.48 C 0 km/h
207 25-11-2010 14:00:00 3.66 C 4.03 g/m*3 3.66 C 0 km/h
208 25-11-2010 15:00:00 3.28 C 3.96 g/m*3 3.28 C 0 km/h
209 25-11-2010 16:00:00 2.04 C 4.21 g/m*3 2.04 C 0 km/h
210 25-11-2010 17:00:00 2.04 C 4.35 g/m*3 2.04 C 0 km/h
211 25-11-2010 18:00:00 1.74 C 4.42 g/m*3 1.74 C 0 km/h
212 25-11-2010 19:00:00 0.98 C 4.38 g/m*3 0.98 C 0 km/h
213 25-11-2010 20:00:00 0.7 C 4.4 g/m*3 0.7 C 0 km/h
214 25-11-2010 21:00:00 1.24 C 4.5 g/m*3 1.24 C 0 km/h
215 25-11-2010 22:00:00 1.34 C 4.49 g/m*3 1.34 C 0 km/h
216 25-11-2010 23:00:00 1.36 C 4.52 g/m*3 1.36 C 0 km/h
217 26-11-2010 00:00:00 1.4 C 4.51 g/m*3 1.4 C 0 km/h
218 26-11-2010 01:00:00 1.06 C 4.49 g/m*3 1.06 C 0 km/h
219 26-11-2010 02:00:00 1.06 C 4.47 g/m*3 1.06 C 0 km/h
220 26-11-2010 03:00:00 0.74 C 4.37 g/m*3 0.74 C 0 km/h
221 26-11-2010 04:00:00 0.32 C 4.4 g/m*3 0.32 C 0 km/h
222 26-11-2010 05:00:00 0.26 C 4.47 g/m*3 0.26 C 0 km/h
223 26-11-2010 06:00:00 0.22 C 4.49 g/m*3 0.22 C 0 km/h
224 26-11-2010 07:00:00 0 C 4.46 g/m*3 0 C 0 km/h
225 26-11-2010 08:00:00 0.04 C 4.49 g/m*3 0.04 C 0 km/h
Sensor: Nr:Datum:Temp:Abs-Feuchte:Windchill:Wind:
Aussen-T/F 226 26-11-2010 09:00:00 0.14 C 4.55 g/m*3 0.14 C 0 km/h
227 26-11-2010 10:00:00 0.58 C 4.66 g/m*3 0.58 C 0 km/h
228 26-11-2010 11:00:00 1.12 C 4.61 g/m*3 1.12 C 0 km/h
229 26-11-2010 12:00:00 0.84 C 4.41 g/m*3 0.84 C 0 km/h
230 26-11-2010 13:00:00 0.9 C 4.37 g/m*3 0.9 C 0 km/h
231 26-11-2010 14:00:00 1.6 C 4.17 g/m*3 1.6 C 0 km/h
232 26-11-2010 15:00:00 0.8 C 3.8 g/m*3 0.8 C 0 km/h
233 26-11-2010 16:00:00 -1.48 C 3.69 g/m*3 -1.48 C 0 km/h
234 26-11-2010 17:00:00 -2.36 C 3.65 g/m*3 -2.36 C 0 km/h
235 26-11-2010 18:00:00 -1.38 C 4 g/m*3 -1.38 C 0 km/h
236 26-11-2010 19:00:00 -1.54 C 3.96 g/m*3 -1.54 C 0 km/h
237 26-11-2010 20:00:00 -1.96 C 3.85 g/m*3 -1.96 C 0 km/h
238 26-11-2010 21:00:00 -2.34 C 3.75 g/m*3 -2.34 C 0 km/h
239 26-11-2010 22:00:00 -3.24 C 3.5 g/m*3 -3.24 C 0 km/h
240 26-11-2010 23:00:00 -3.76 C 3.35 g/m*3 -3.76 C 0 km/h
241 27-11-2010 00:00:00 -4.08 C 3.27 g/m*3 -4.08 C 0 km/h
242 27-11-2010 01:00:00 -3.54 C 3.39 g/m*3 -3.54 C 0 km/h
243 27-11-2010 02:00:00 -3.94 C 3.25 g/m*3 -3.94 C 0 km/h
244 27-11-2010 03:00:00 -3.16 C 3.46 g/m*3 -3.16 C 0 km/h
245 27-11-2010 04:00:00 -4.12 C 3.19 g/m*3 -4.12 C 0 km/h
246 27-11-2010 05:00:00 -4.28 C 3.15 g/m*3 -4.28 C 0 km/h
247 27-11-2010 06:00:00 -3.52 C 3.35 g/m*3 -3.52 C 0 km/h
248 27-11-2010 07:00:00 -3.54 C 3.33 g/m*3 -3.54 C 0 km/h
249 27-11-2010 08:00:00 -3 C 3.48 g/m*3 -3 C 0 km/h
250 27-11-2010 09:00:00 -1.8 C 3.8 g/m*3 -1.8 C 0 km/h
Sensor: Nr:Datum:Temp:Abs-Feuchte:Windchill:Wind:
Aussen-T/F 251 27-11-2010 10:00:00 -0.84 C 4.06 g/m*3 -0.84 C 0 km/h
252 27-11-2010 11:00:00 -0.2 C 4.19 g/m*3 -0.2 C 0 km/h
253 27-11-2010 12:00:00 0.38 C 4 g/m*3 0.38 C 0 km/h
254 27-11-2010 13:00:00 0.86 C 3.91 g/m*3 0.86 C 0 km/h
255 27-11-2010 14:00:00 1.48 C 3.79 g/m*3 1.48 C 0 km/h
256 27-11-2010 15:00:00 0.76 C 3.8 g/m*3 0.76 C 0 km/h
257 27-11-2010 16:00:00 -0.72 C 3.59 g/m*3 -0.72 C 0 km/h
258 27-11-2010 17:00:00 -0.86 C 3.65 g/m*3 -0.86 C 0 km/h
259 27-11-2010 18:00:00 -1.58 C 3.59 g/m*3 -1.58 C 0 km/h
260 27-11-2010 19:00:00 -0.92 C 3.75 g/m*3 -0.92 C 0 km/h
261 27-11-2010 20:00:00 -1.5 C 3.52 g/m*3 -1.5 C 0 km/h
262 27-11-2010 21:00:00 -3.1 C 3.27 g/m*3 -3.1 C 0 km/h
263 27-11-2010 22:00:00 -3.36 C 3.3 g/m*3 -3.36 C 0 km/h
264 27-11-2010 23:00:00 -3.22 C 3.31 g/m*3 -3.22 C 0 km/h
265 28-11-2010 00:00:00 -3.76 C 3.2 g/m*3 -3.76 C 0 km/h
266 28-11-2010 01:00:00 -2.76 C 3.5 g/m*3 -2.76 C 0 km/h
267 28-11-2010 02:00:00 -2.18 C 3.6 g/m*3 -2.18 C 0 km/h
268 28-11-2010 03:00:00 -3.4 C 3.22 g/m*3 -3.4 C 0 km/h
269 28-11-2010 04:00:00 -2.64 C 3.47 g/m*3 -2.64 C 0 km/h
270 28-11-2010 05:00:00 -2.72 C 3.42 g/m*3 -2.72 C 0 km/h
271 28-11-2010 06:00:00 -2.18 C 3.56 g/m*3 -2.18 C 0 km/h
272 28-11-2010 07:00:00 -1.88 C 3.58 g/m*3 -1.88 C 0 km/h
273 28-11-2010 08:00:00 -1.66 C 3.6 g/m*3 -1.66 C 0 km/h
274 28-11-2010 09:00:00 -1.18 C 3.62 g/m*3 -1.18 C 0 km/h
275 28-11-2010 10:00:00 -0.38 C 3.63 g/m*3 -0.38 C 0 km/h
Sensor: Nr:Datum:Temp:Abs-Feuchte:Windchill:Wind:
Aussen-T/F 276 28-11-2010 11:00:00 -0.18 C 3.55 g/m*3 -0.18 C 0 km/h
277 28-11-2010 12:00:00 0.02 C 3.59 g/m*3 0.02 C 0 km/h
278 28-11-2010 13:00:00 0.14 C 3.63 g/m*3 0.14 C 0 km/h
279 28-11-2010 14:00:00 0.5 C 3.69 g/m*3 0.5 C 0 km/h
280 28-11-2010 15:00:00 0.54 C 3.71 g/m*3 0.54 C 0 km/h
281 28-11-2010 16:00:00 -0.34 C 3.68 g/m*3 -0.34 C 0 km/h
282 28-11-2010 17:00:00 -0.64 C 3.67 g/m*3 -0.64 C 0 km/h
283 28-11-2010 18:00:00 -1.1 C 3.71 g/m*3 -1.1 C 0 km/h
284 28-11-2010 19:00:00 -0.7 C 3.7 g/m*3 -0.7 C 0 km/h
285 28-11-2010 20:00:00 -0.8 C 3.55 g/m*3 -0.8 C 0 km/h
286 28-11-2010 21:00:00 -0.86 C 3.46 g/m*3 -0.86 C 0 km/h
287 28-11-2010 22:00:00 -1.6 C 3.36 g/m*3 -1.6 C 0 km/h
288 28-11-2010 23:00:00 -2.04 C 3.42 g/m*3 -2.04 C 0 km/h
289 29-11-2010 00:00:00 -1.48 C 3.37 g/m*3 -1.48 C 0 km/h
290 29-11-2010 01:00:00 -1.8 C 3.31 g/m*3 -1.8 C 0 km/h
291 29-11-2010 02:00:00 -1.88 C 3.26 g/m*3 -1.88 C 0 km/h
292 29-11-2010 03:00:00 -2 C 3.21 g/m*3 -2 C 0 km/h
293 29-11-2010 04:00:00 -2 C 3.22 g/m*3 -2 C 0 km/h
294 29-11-2010 05:00:00 -1.82 C 3.27 g/m*3 -1.82 C 0 km/h
295 29-11-2010 06:00:00 -1.68 C 3.31 g/m*3 -1.68 C 0 km/h
296 29-11-2010 07:00:00 -1.66 C 3.29 g/m*3 -1.66 C 0 km/h
297 29-11-2010 08:00:00 -1.6 C 3.33 g/m*3 -1.6 C 0 km/h
298 29-11-2010 09:00:00 -1.38 C 3.3 g/m*3 -1.38 C 0 km/h
299 29-11-2010 10:00:00 -1.3 C 3.37 g/m*3 -1.3 C 0 km/h
300 29-11-2010 11:00:00 -1.22 C 3.45 g/m*3 -1.22 C 0 km/h
Sensor: Nr:Datum:Temp:Abs-Feuchte:Windchill:Wind:
Aussen-T/F 301 29-11-2010 12:00:00 -1.14 C 3.52 g/m*3 -1.14 C 0 km/h
302 29-11-2010 13:00:00 -0.84 C 3.57 g/m*3 -0.84 C 0 km/h
303 29-11-2010 14:00:00 -1.02 C 3.67 g/m*3 -1.02 C 0 km/h
304 29-11-2010 15:00:00 -1.3 C 3.72 g/m*3 -1.3 C 0 km/h
305 29-11-2010 16:00:00 -1.46 C 3.73 g/m*3 -1.46 C 0 km/h
306 29-11-2010 17:00:00 -1.68 C 3.71 g/m*3 -1.68 C 0 km/h
307 29-11-2010 18:00:00 -1.68 C 3.75 g/m*3 -1.68 C 0 km/h
308 29-11-2010 19:00:00 -1.7 C 3.75 g/m*3 -1.7 C 0 km/h
309 29-11-2010 20:00:00 -1.64 C 3.8 g/m*3 -1.64 C 0 km/h
310 29-11-2010 21:00:00 -1.66 C 3.8 g/m*3 -1.66 C 0 km/h
311 29-11-2010 22:00:00 -1.78 C 3.77 g/m*3 -1.78 C 0 km/h
312 29-11-2010 23:00:00 -1.68 C 3.83 g/m*3 -1.68 C 0 km/h
313 30-11-2010 00:00:00 -1.78 C 3.81 g/m*3 -1.78 C 0 km/h
314 30-11-2010 01:00:00 -1.96 C 3.76 g/m*3 -1.96 C 0 km/h
315 30-11-2010 02:00:00 -1.68 C 3.84 g/m*3 -1.68 C 0 km/h
316 30-11-2010 03:00:00 -1.7 C 3.82 g/m*3 -1.7 C 0 km/h
317 30-11-2010 04:00:00 -2.36 C 3.62 g/m*3 -2.36 C 0 km/h
318 30-11-2010 05:00:00 -2.4 C 3.62 g/m*3 -2.4 C 0 km/h
319 30-11-2010 06:00:00 -2.26 C 3.66 g/m*3 -2.26 C 0 km/h
320 30-11-2010 07:00:00 -2.28 C 3.66 g/m*3 -2.28 C 0 km/h
321 30-11-2010 08:00:00 -2.08 C 3.66 g/m*3 -2.08 C 0 km/h
322 30-11-2010 09:00:00 -2 C 3.58 g/m*3 -2 C 0 km/h
323 30-11-2010 10:00:00 -1.82 C 3.51 g/m*3 -1.82 C 0 km/h
324 30-11-2010 11:00:00 -1.5 C 3.44 g/m*3 -1.5 C 0 km/h
325 30-11-2010 12:00:00 -1.3 C 3.28 g/m*3 -1.3 C 0 km/h
Sensor: Nr:Datum:Temp:Abs-Feuchte:Windchill:Wind:
Aussen-T/F 326 30-11-2010 13:00:00 -1.08 C 3.25 g/m*3 -1.08 C 0 km/h
327 30-11-2010 14:00:00 -1.32 C 3.2 g/m*3 -1.32 C 0 km/h
328 30-11-2010 15:00:00 -1.48 C 3.23 g/m*3 -1.48 C 0 km/h
329 30-11-2010 16:00:00 -1.5 C 3.23 g/m*3 -1.5 C 0 km/h
330 30-11-2010 17:00:00 -1.92 C 3.21 g/m*3 -1.92 C 0 km/h
331 30-11-2010 18:00:00 -2.1 C 3.18 g/m*3 -2.1 C 0 km/h
332 30-11-2010 19:00:00 -2.1 C 3.17 g/m*3 -2.1 C 0 km/h
333 30-11-2010 20:00:00 -2.26 C 3.11 g/m*3 -2.26 C 0 km/h
334 30-11-2010 21:00:00 -2.4 C 3.05 g/m*3 -2.4 C 0 km/h
335 30-11-2010 22:00:00 -2.58 C 2.94 g/m*3 -2.58 C 0 km/h
336 30-11-2010 23:00:00 -2.76 C 2.83 g/m*3 -2.76 C 0 km/h
337 01-12-2010 00:00:00 -3 C 2.76 g/m*3 -3 C 0 km/h
338 01-12-2010 01:00:00 -3.3 C 2.67 g/m*3 -3.3 C 0 km/h
339 01-12-2010 02:00:00 -3.88 C 2.51 g/m*3 -3.88 C 0 km/h
340 01-12-2010 03:00:00 -4.34 C 2.36 g/m*3 -4.34 C 0 km/h
341 01-12-2010 04:00:00 -5 C 2.23 g/m*3 -5 C 0 km/h
342 01-12-2010 05:00:00 -5.4 C 2.18 g/m*3 -5.4 C 0 km/h
343 01-12-2010 06:00:00 -5.56 C 2.14 g/m*3 -5.56 C 0 km/h
344 01-12-2010 07:00:00 -5.9 C 2.05 g/m*3 -5.9 C 0 km/h
345 01-12-2010 08:00:00 -6.26 C 1.95 g/m*3 -6.26 C 0 km/h
346 01-12-2010 09:00:00 -5.96 C 1.92 g/m*3 -5.96 C 0 km/h
347 01-12-2010 10:00:00 -5.54 C 1.95 g/m*3 -5.54 C 0 km/h
348 01-12-2010 11:00:00 -5.48 C 1.97 g/m*3 -5.48 C 0 km/h
349 01-12-2010 12:00:00 -5.82 C 1.93 g/m*3 -5.82 C 0 km/h
350 01-12-2010 13:00:00 -6.1 C 1.85 g/m*3 -6.1 C 0 km/h
Sensor: Nr:Datum:Temp:Abs-Feuchte:Windchill:Wind:
Aussen-T/F 351 01-12-2010 14:00:00 -6.18 C 1.79 g/m*3 -6.18 C 0 km/h
352 01-12-2010 15:00:00 -6.28 C 1.78 g/m*3 -6.28 C 0 km/h
353 01-12-2010 16:00:00 -6.58 C 1.75 g/m*3 -6.58 C 0 km/h
354 01-12-2010 17:00:00 -6.58 C 1.8 g/m*3 -6.58 C 0 km/h
355 01-12-2010 18:00:00 -6.54 C 1.82 g/m*3 -6.54 C 0 km/h
356 01-12-2010 19:00:00 -6.58 C 1.81 g/m*3 -6.58 C 0 km/h
357 01-12-2010 20:00:00 -6.64 C 1.77 g/m*3 -6.64 C 0 km/h
358 01-12-2010 21:00:00 -6.74 C 1.74 g/m*3 -6.74 C 0 km/h
359 01-12-2010 22:00:00 -6.86 C 1.73 g/m*3 -6.86 C 0 km/h
360 01-12-2010 23:00:00 -7.06 C 1.77 g/m*3 -7.06 C 0 km/h
361 02-12-2010 00:00:00 -7.14 C 1.81 g/m*3 -7.14 C 0 km/h
362 02-12-2010 01:00:00 -7.12 C 1.79 g/m*3 -7.12 C 0 km/h
363 02-12-2010 02:00:00 -7.28 C 1.71 g/m*3 -7.28 C 0 km/h
364 02-12-2010 03:00:00 -7.32 C 1.74 g/m*3 -7.32 C 0 km/h
365 02-12-2010 04:00:00 -7.5 C 1.78 g/m*3 -7.5 C 0 km/h
366 02-12-2010 05:00:00 -7.64 C 1.79 g/m*3 -7.64 C 0 km/h
367 02-12-2010 06:00:00 -7.76 C 1.84 g/m*3 -7.76 C 0 km/h
368 02-12-2010 07:00:00 -7.72 C 1.89 g/m*3 -7.72 C 0 km/h
369 02-12-2010 08:00:00 -7.7 C 1.87 g/m*3 -7.7 C 0 km/h
370 02-12-2010 09:00:00 -7.1 C 1.96 g/m*3 -7.1 C 0 km/h
371 02-12-2010 10:00:00 -6.14 C 1.99 g/m*3 -6.14 C 0 km/h
372 02-12-2010 11:00:00 -5.62 C 2.03 g/m*3 -5.62 C 0 km/h
373 02-12-2010 12:00:00 -6.08 C 2.05 g/m*3 -6.08 C 0 km/h
374 02-12-2010 13:00:00 -5.3 C 2.15 g/m*3 -5.3 C 0 km/h
375 02-12-2010 14:00:00 -5.6 C 2.16 g/m*3 -5.6 C 0 km/h
Sensor: Nr:Datum:Temp:Abs-Feuchte:Windchill:Wind:
Aussen-T/F 376 02-12-2010 15:00:00 -4.74 C 2.28 g/m*3 -4.74 C 0 km/h
377 02-12-2010 16:00:00 -5.12 C 2.3 g/m*3 -5.12 C 0 km/h
378 02-12-2010 17:00:00 -7.36 C 2.12 g/m*3 -7.36 C 0 km/h
379 02-12-2010 18:00:00 -8.02 C 2.2 g/m*3 -8.02 C 0 km/h
380 02-12-2010 19:00:00 -8.42 C 2.16 g/m*3 -8.42 C 0 km/h
381 02-12-2010 20:00:00 -8.04 C 2.25 g/m*3 -8.04 C 0 km/h
382 02-12-2010 21:00:00 -7.54 C 2.33 g/m*3 -7.54 C 0 km/h
383 02-12-2010 22:00:00 -8.54 C 2.13 g/m*3 -8.54 C 0 km/h
384 02-12-2010 23:00:00 -7.96 C 2.23 g/m*3 -7.96 C 0 km/h
385 03-12-2010 00:00:00 -9.88 C 1.86 g/m*3 -9.88 C 0 km/h
386 03-12-2010 01:00:00 -9.66 C 1.91 g/m*3 -9.66 C 0 km/h
387 03-12-2010 02:00:00 -9.12 C 2 g/m*3 -9.12 C 0 km/h
388 03-12-2010 03:00:00 -8.78 C 2.04 g/m*3 -8.78 C 0 km/h
389 03-12-2010 04:00:00 -8.06 C 2.15 g/m*3 -8.06 C 0 km/h
390 03-12-2010 05:00:00 -8.68 C 2.03 g/m*3 -8.68 C 0 km/h
391 03-12-2010 06:00:00 -9.48 C 1.91 g/m*3 -9.48 C 0 km/h
392 03-12-2010 07:00:00 -8.92 C 2.03 g/m*3 -8.92 C 0 km/h
393 03-12-2010 08:00:00 -9.92 C 1.85 g/m*3 -9.92 C 0 km/h
394 03-12-2010 09:00:00 -9.8 C 1.85 g/m*3 -9.8 C 0 km/h
395 03-12-2010 10:00:00 -8.1 C 2.05 g/m*3 -8.1 C 0 km/h
396 03-12-2010 11:00:00 -6.32 C 2.23 g/m*3 -6.32 C 0 km/h
397 03-12-2010 12:00:00 -5.16 C 2.28 g/m*3 -5.16 C 0 km/h
398 03-12-2010 13:00:00 -4.74 C 2.32 g/m*3 -4.74 C 0 km/h
399 03-12-2010 14:00:00 -4.26 C 2.38 g/m*3 -4.26 C 0 km/h
400 03-12-2010 15:00:00 -4.68 C 2.4 g/m*3 -4.68 C 0 km/h
Sensor: Nr:Datum:Temp:Abs-Feuchte:Windchill:Wind:
Aussen-T/F 401 03-12-2010 16:00:00 -6.18 C 2.37 g/m*3 -6.18 C 0 km/h
402 03-12-2010 17:00:00 -6.98 C 2.34 g/m*3 -6.98 C 0 km/h
403 03-12-2010 18:00:00 -7.02 C 2.36 g/m*3 -7.02 C 0 km/h
404 03-12-2010 19:00:00 -5.74 C 2.63 g/m*3 -5.74 C 0 km/h
405 03-12-2010 20:00:00 -5.36 C 2.64 g/m*3 -5.36 C 0 km/h
406 03-12-2010 21:00:00 -5.72 C 2.55 g/m*3 -5.72 C 0 km/h
407 03-12-2010 22:00:00 -6.78 C 2.39 g/m*3 -6.78 C 0 km/h
408 03-12-2010 23:00:00 -7.92 C 2.24 g/m*3 -7.92 C 0 km/h
409 04-12-2010 00:00:00 -8.5 C 2.17 g/m*3 -8.5 C 0 km/h
410 04-12-2010 01:00:00 -9.1 C 2.06 g/m*3 -9.1 C 0 km/h
411 04-12-2010 02:00:00 -9.26 C 2.02 g/m*3 -9.26 C 0 km/h
412 04-12-2010 03:00:00 -9.94 C 1.9 g/m*3 -9.94 C 0 km/h
413 04-12-2010 04:00:00 -7.96 C 2.24 g/m*3 -7.96 C 0 km/h
414 04-12-2010 05:00:00 -5.52 C 2.67 g/m*3 -5.52 C 0 km/h
415 04-12-2010 06:00:00 -4.94 C 2.59 g/m*3 -4.94 C 0 km/h
416 04-12-2010 07:00:00 -5.14 C 2.58 g/m*3 -5.14 C 0 km/h
417 04-12-2010 08:00:00 -3.94 C 2.67 g/m*3 -3.94 C 0 km/h
418 04-12-2010 09:00:00 -3.1 C 2.58 g/m*3 -3.1 C 0 km/h
419 04-12-2010 10:00:00 -2.12 C 2.68 g/m*3 -2.12 C 0 km/h
420 04-12-2010 11:00:00 -1.38 C 2.45 g/m*3 -1.38 C 0 km/h
421 04-12-2010 12:00:00 -0.86 C 2.46 g/m*3 -0.86 C 0 km/h
422 04-12-2010 13:00:00 -1.4 C 2.41 g/m*3 -1.4 C 0 km/h
423 04-12-2010 14:00:00 -1 C 2.47 g/m*3 -1 C 0 km/h
424 04-12-2010 15:00:00 -0.92 C 2.52 g/m*3 -0.92 C 0 km/h
425 04-12-2010 16:00:00 -1.22 C 2.64 g/m*3 -1.22 C 0 km/h
Sensor: Nr:Datum:Temp:Abs-Feuchte:Windchill:Wind:
Aussen-T/F 426 04-12-2010 17:00:00 -1.08 C 2.76 g/m*3 -1.08 C 0 km/h
427 04-12-2010 18:00:00 -0.9 C 2.79 g/m*3 -0.9 C 0 km/h
428 04-12-2010 19:00:00 -0.92 C 2.79 g/m*3 -0.92 C 0 km/h
429 04-12-2010 20:00:00 -0.96 C 2.87 g/m*3 -0.96 C 0 km/h
430 04-12-2010 21:00:00 -1.1 C 3.13 g/m*3 -1.1 C 0 km/h
431 04-12-2010 22:00:00 -1.18 C 3.46 g/m*3 -1.18 C 0 km/h
432 04-12-2010 23:00:00 -1.12 C 3.51 g/m*3 -1.12 C 0 km/h
433 05-12-2010 00:00:00 -0.5 C 3.48 g/m*3 -0.5 C 0 km/h
434 05-12-2010 01:00:00 0.12 C 3.31 g/m*3 0.12 C 0 km/h
435 05-12-2010 02:00:00 0.02 C 3.49 g/m*3 0.02 C 0 km/h
436 05-12-2010 03:00:00 0.12 C 3.53 g/m*3 0.12 C 0 km/h
437 05-12-2010 04:00:00 0.12 C 3.58 g/m*3 0.12 C 0 km/h
438 05-12-2010 05:00:00 0.22 C 3.25 g/m*3 0.22 C 0 km/h
439 05-12-2010 06:00:00 0.22 C 3.02 g/m*3 0.22 C 0 km/h
440 05-12-2010 07:00:00 -0.08 C 2.91 g/m*3 -0.08 C 0 km/h
441 05-12-2010 08:00:00 -0.32 C 2.9 g/m*3 -0.32 C 0 km/h
442 05-12-2010 09:00:00 0.02 C 2.96 g/m*3 0.02 C 0 km/h
443 05-12-2010 10:00:00 1.68 C 2.83 g/m*3 1.68 C 0 km/h
444 05-12-2010 11:00:00 2.54 C 2.77 g/m*3 2.54 C 0 km/h
445 05-12-2010 12:00:00 3.1 C 2.67 g/m*3 3.1 C 0 km/h
446 05-12-2010 13:00:00 3.4 C 2.63 g/m*3 3.4 C 0 km/h
447 05-12-2010 14:00:00 3.24 C 2.6 g/m*3 3.24 C 0 km/h
448 05-12-2010 15:00:00 2.22 C 3.05 g/m*3 2.22 C 0 km/h
449 05-12-2010 16:00:00 1.24 C 3.28 g/m*3 1.24 C 0 km/h
450 05-12-2010 17:00:00 1.38 C 3.4 g/m*3 1.38 C 0 km/h
Sensor: Nr:Datum:Temp:Abs-Feuchte:Windchill:Wind:
Aussen-T/F 451 05-12-2010 18:00:00 0.88 C 3.81 g/m*3 0.88 C 0 km/h
452 05-12-2010 19:00:00 0.86 C 3.97 g/m*3 0.86 C 0 km/h
453 05-12-2010 20:00:00 0.62 C 4.08 g/m*3 0.62 C 0 km/h
454 05-12-2010 21:00:00 0.34 C 4.27 g/m*3 0.34 C 0 km/h
455 05-12-2010 22:00:00 0.36 C 4.35 g/m*3 0.36 C 0 km/h
456 05-12-2010 23:00:00 0.2 C 4.33 g/m*3 0.2 C 0 km/h
457 06-12-2010 00:00:00 0.12 C 4.35 g/m*3 0.12 C 0 km/h
458 06-12-2010 01:00:00 0.12 C 4.38 g/m*3 0.12 C 0 km/h
459 06-12-2010 02:00:00 0.1 C 4.39 g/m*3 0.1 C 0 km/h
460 06-12-2010 03:00:00 0.1 C 4.35 g/m*3 0.1 C 0 km/h
461 06-12-2010 04:00:00 0.14 C 4.38 g/m*3 0.14 C 0 km/h
462 06-12-2010 05:00:00 0.04 C 4.33 g/m*3 0.04 C 0 km/h
463 06-12-2010 06:00:00 0.02 C 4.37 g/m*3 0.02 C 0 km/h
464 06-12-2010 07:00:00 0 C 4.34 g/m*3 0 C 0 km/h
465 06-12-2010 08:00:00 0.06 C 4.31 g/m*3 0.06 C 0 km/h
466 06-12-2010 09:00:00 0.84 C 4.37 g/m*3 0.84 C 0 km/h
467 06-12-2010 10:00:00 1.38 C 4.04 g/m*3 1.38 C 0 km/h
468 06-12-2010 11:00:00 1.88 C 3.94 g/m*3 1.88 C 0 km/h
469 06-12-2010 12:00:00 2.4 C 3.76 g/m*3 2.4 C 0 km/h
470 06-12-2010 13:00:00 2.54 C 3.68 g/m*3 2.54 C 0 km/h
471 06-12-2010 14:00:00 1.9 C 3.59 g/m*3 1.9 C 0 km/h
472 06-12-2010 15:00:00 0.96 C 3.65 g/m*3 0.96 C 0 km/h
473 06-12-2010 16:00:00 -0.26 C 3.69 g/m*3 -0.26 C 0 km/h
474 06-12-2010 17:00:00 -0.68 C 3.73 g/m*3 -0.68 C 0 km/h
475 06-12-2010 18:00:00 -0.9 C 3.76 g/m*3 -0.9 C 0 km/h
Sensor: Nr:Datum:Temp:Abs-Feuchte:Windchill:Wind:
Aussen-T/F 476 06-12-2010 19:00:00 -0.84 C 3.75 g/m*3 -0.84 C 0 km/h
477 06-12-2010 20:00:00 -1.14 C 3.67 g/m*3 -1.14 C 0 km/h
478 06-12-2010 21:00:00 -1.275 C 3.64 g/m*3 -1.27 C 0 km/h
479 06-12-2010 22:00:00 -1.24 C 3.68 g/m*3 -1.24 C 0 km/h
480 06-12-2010 23:00:00 -0.68 C 3.74 g/m*3 -0.68 C 0 km/h
481 07-12-2010 00:00:00 -1.06 C 3.6 g/m*3 -1.06 C 0 km/h
482 07-12-2010 01:00:00 -1.16 C 3.68 g/m*3 -1.16 C 0 km/h
483 07-12-2010 02:00:00 -0.56 C 3.77 g/m*3 -0.56 C 0 km/h
484 07-12-2010 03:00:00 -0.56 C 3.73 g/m*3 -0.56 C 0 km/h
485 07-12-2010 04:00:00 -0.74 C 3.7 g/m*3 -0.74 C 0 km/h
486 07-12-2010 05:00:00 -0.94 C 3.68 g/m*3 -0.94 C 0 km/h
487 07-12-2010 06:00:00 -0.78 C 3.68 g/m*3 -0.78 C 0 km/h
488 07-12-2010 07:00:00 -1 C 3.57 g/m*3 -1 C 0 km/h
489 07-12-2010 08:00:00 -0.84 C 3.6 g/m*3 -0.84 C 0 km/h
490 07-12-2010 09:00:00 -0.4 C 3.61 g/m*3 -0.4 C 0 km/h
491 07-12-2010 10:00:00 0.18 C 3.6 g/m*3 0.18 C 0 km/h
492 07-12-2010 11:00:00 0.56 C 3.61 g/m*3 0.56 C 0 km/h
493 07-12-2010 12:00:00 1.12 C 3.63 g/m*3 1.12 C 0 km/h
494 07-12-2010 13:00:00 1.44 C 3.61 g/m*3 1.44 C 0 km/h
495 07-12-2010 14:00:00 1.06 C 3.67 g/m*3 1.06 C 0 km/h
496 07-12-2010 15:00:00 0.4 C 3.81 g/m*3 0.4 C 0 km/h
497 07-12-2010 16:00:00 -0.22 C 4.06 g/m*3 -0.22 C 0 km/h
498 07-12-2010 17:00:00 -0.3 C 4.2 g/m*3 -0.3 C 0 km/h
499 07-12-2010 18:00:00 -0.26 C 4.26 g/m*3 -0.26 C 0 km/h
500 07-12-2010 19:00:00 -0.2 C 4.31 g/m*3 -0.2 C 0 km/h
Sensor: Nr:Datum:Temp:Abs-Feuchte:Windchill:Wind:
Aussen-T/F 501 07-12-2010 20:00:00 -0.16 C 4.36 g/m*3 -0.16 C 0 km/h
502 07-12-2010 21:00:00 -0.2 C 4.36 g/m*3 -0.2 C 0 km/h
503 07-12-2010 22:00:00 -0.18 C 4.4 g/m*3 -0.18 C 0 km/h
504 07-12-2010 23:00:00 -0.2 C 4.4 g/m*3 -0.2 C 0 km/h
505 08-12-2010 00:00:00 -0.2 C 4.4 g/m*3 -0.2 C 0 km/h
506 08-12-2010 01:00:00 -0.2 C 4.4 g/m*3 -0.2 C 0 km/h
507 08-12-2010 02:00:00 -0.16 C 4.41 g/m*3 -0.16 C 0 km/h
508 08-12-2010 03:00:00 -0.18 C 4.4 g/m*3 -0.18 C 0 km/h
509 08-12-2010 04:00:00 -0.08 C 4.43 g/m*3 -0.08 C 0 km/h
510 08-12-2010 05:00:00 -0.08 C 4.46 g/m*3 -0.08 C 0 km/h
511 08-12-2010 06:00:00 -0.06 C 4.49 g/m*3 -0.06 C 0 km/h
512 08-12-2010 07:00:00 -0.02 C 4.5 g/m*3 -0.02 C 0 km/h
513 08-12-2010 08:00:00 0 C 4.51 g/m*3 0 C 0 km/h
514 08-12-2010 09:00:00 0.08 C 4.53 g/m*3 0.08 C 0 km/h
515 08-12-2010 10:00:00 0.18 C 4.56 g/m*3 0.18 C 0 km/h
516 08-12-2010 11:00:00 0.34 C 4.63 g/m*3 0.34 C 0 km/h
517 08-12-2010 12:00:00 0.56 C 4.67 g/m*3 0.56 C 0 km/h
518 08-12-2010 13:00:00 0.62 C 4.58 g/m*3 0.62 C 0 km/h
519 08-12-2010 14:00:00 0.42 C 4.44 g/m*3 0.42 C 0 km/h
520 08-12-2010 15:00:00 -0.08 C 4.29 g/m*3 -0.08 C 0 km/h
521 08-12-2010 16:00:00 -0.3 C 4.26 g/m*3 -0.3 C 0 km/h
522 08-12-2010 17:00:00 -0.36 C 4.24 g/m*3 -0.36 C 0 km/h
523 08-12-2010 18:00:00 -0.74 C 4.1 g/m*3 -0.74 C 0 km/h
524 08-12-2010 19:00:00 -0.92 C 4.05 g/m*3 -0.92 C 0 km/h
525 08-12-2010 20:00:00 -1.06 C 4.02 g/m*3 -1.06 C 0 km/h
Sensor: Nr:Datum:Temp:Abs-Feuchte:Windchill:Wind:
Aussen-T/F 526 08-12-2010 21:00:00 -1.24 C 3.94 g/m*3 -1.24 C 0 km/h
527 08-12-2010 22:00:00 -1.44 C 3.82 g/m*3 -1.44 C 0 km/h
528 08-12-2010 23:00:00 -1.3 C 3.74 g/m*3 -1.3 C 0 km/h
529 09-12-2010 00:00:00 -1.32 C 3.64 g/m*3 -1.32 C 0 km/h
530 09-12-2010 01:00:00 -1.52 C 3.56 g/m*3 -1.52 C 0 km/h
531 09-12-2010 02:00:00 -1.74 C 3.55 g/m*3 -1.74 C 0 km/h
532 09-12-2010 03:00:00 -1.7 C 3.69 g/m*3 -1.7 C 0 km/h
533 09-12-2010 04:00:00 -1.62 C 3.72 g/m*3 -1.62 C 0 km/h
534 09-12-2010 05:00:00 -1.04 C 3.84 g/m*3 -1.04 C 0 km/h
535 09-12-2010 06:00:00 -0.42 C 3.9 g/m*3 -0.42 C 0 km/h
536 09-12-2010 07:00:00 -0.28 C 3.95 g/m*3 -0.28 C 0 km/h
537 09-12-2010 08:00:00 -0.38 C 3.91 g/m*3 -0.38 C 0 km/h
538 09-12-2010 09:00:00 -0.08 C 3.93 g/m*3 -0.08 C 0 km/h
539 09-12-2010 10:00:00 0.32 C 4 g/m*3 0.32 C 0 km/h
540 09-12-2010 11:00:00 0.8 C 4.06 g/m*3 0.8 C 0 km/h
541 09-12-2010 12:00:00 2.18 C 4.07 g/m*3 2.18 C 0 km/h
542 09-12-2010 13:00:00 1.74 C 4.11 g/m*3 1.74 C 0 km/h
543 09-12-2010 14:00:00 2.12 C 3.92 g/m*3 2.12 C 0 km/h
544 09-12-2010 15:00:00 1.84 C 3.75 g/m*3 1.84 C 0 km/h
545 09-12-2010 16:00:00 1.52 C 3.66 g/m*3 1.52 C 0 km/h
546 09-12-2010 17:00:00 1.5 C 3.89 g/m*3 1.5 C 0 km/h
547 09-12-2010 18:00:00 1.68 C 4.03 g/m*3 1.68 C 0 km/h
548 09-12-2010 19:00:00 2.16 C 3.9 g/m*3 2.16 C 0 km/h
549 09-12-2010 20:00:00 2.44 C 4 g/m*3 2.44 C 0 km/h
550 09-12-2010 21:00:00 2.58 C 4.06 g/m*3 2.58 C 0 km/h
Sensor: Nr:Datum:Temp:Abs-Feuchte:Windchill:Wind:
Aussen-T/F 551 09-12-2010 22:00:00 2.44 C 4.16 g/m*3 2.44 C 0 km/h
552 09-12-2010 23:00:00 1.5 C 4.43 g/m*3 1.5 C 0 km/h
553 10-12-2010 00:00:00 1.9 C 4.42 g/m*3 1.9 C 0 km/h
554 10-12-2010 01:00:00 2.04 C 4.36 g/m*3 2.04 C 0 km/h
555 10-12-2010 02:00:00 1.7 C 4.26 g/m*3 1.7 C 0 km/h
556 10-12-2010 03:00:00 1.24 C 4.52 g/m*3 1.24 C 0 km/h
557 10-12-2010 04:00:00 1.7 C 4.79 g/m*3 1.7 C 0 km/h
558 10-12-2010 05:00:00 2.52 C 4.87 g/m*3 2.52 C 0 km/h
559 10-12-2010 06:00:00 1.84 C 4.73 g/m*3 1.84 C 0 km/h
560 10-12-2010 07:00:00 0.76 C 4.53 g/m*3 0.76 C 0 km/h
561 10-12-2010 08:00:00 -0.32 C 4.28 g/m*3 -0.32 C 0 km/h
562 10-12-2010 09:00:00 -0.4 C 4.3 g/m*3 -0.4 C 0 km/h
563 10-12-2010 10:00:00 0.06 C 4.45 g/m*3 0.06 C 0 km/h
564 10-12-2010 11:00:00 1.38 C 4.82 g/m*3 1.38 C 0 km/h
565 10-12-2010 12:00:00 2.24 C 4.95 g/m*3 2.24 C 0 km/h
566 10-12-2010 13:00:00 2.96 C 4.9 g/m*3 2.96 C 0 km/h
567 10-12-2010 14:00:00 2.82 C 4.65 g/m*3 2.82 C 0 km/h
568 10-12-2010 15:00:00 1.78 C 4.64 g/m*3 1.78 C 0 km/h
569 10-12-2010 16:00:00 1.54 C 4.8 g/m*3 1.54 C 0 km/h
570 10-12-2010 17:00:00 1.84 C 4.95 g/m*3 1.84 C 0 km/h
571 10-12-2010 18:00:00 1.86 C 4.93 g/m*3 1.86 C 0 km/h
572 10-12-2010 19:00:00 2.28 C 4.97 g/m*3 2.28 C 0 km/h
573 10-12-2010 20:00:00 2.6 C 4.93 g/m*3 2.6 C 0 km/h
574 10-12-2010 21:00:00 2.5 C 4.85 g/m*3 2.5 C 0 km/h
575 10-12-2010 22:00:00 2.52 C 4.87 g/m*3 2.52 C 0 km/h
Sensor: Nr:Datum:Temp:Abs-Feuchte:Windchill:Wind:
Aussen-T/F 576 10-12-2010 23:00:00 2.24 C 4.86 g/m*3 2.24 C 0 km/h
577 11-12-2010 00:00:00 2.18 C 4.97 g/m*3 2.18 C 0 km/h
578 11-12-2010 01:00:00 2.46 C 5.08 g/m*3 2.46 C 0 km/h
579 11-12-2010 02:00:00 2.72 C 5.13 g/m*3 2.72 C 0 km/h
580 11-12-2010 03:00:00 2.54 C 5.1 g/m*3 2.54 C 0 km/h
581 11-12-2010 04:00:00 3.26 C 5.24 g/m*3 3.26 C 0 km/h
582 11-12-2010 05:00:00 3.86 C 5.19 g/m*3 3.86 C 0 km/h
583 11-12-2010 06:00:00 3.36 C 5.15 g/m*3 3.36 C 0 km/h
584 11-12-2010 07:00:00 4.14 C 5.21 g/m*3 4.14 C 0 km/h
585 11-12-2010 08:00:00 4.86 C 5.01 g/m*3 4.86 C 0 km/h
586 11-12-2010 09:00:00 4.16 C 5.04 g/m*3 4.16 C 0 km/h
587 11-12-2010 10:00:00 3.9 C 5.38 g/m*3 3.9 C 0 km/h
588 11-12-2010 11:00:00 4.3 C 5.37 g/m*3 4.3 C 0 km/h
589 11-12-2010 12:00:00 4.54 C 5.56 g/m*3 4.54 C 0 km/h
590 11-12-2010 13:00:00 4.86 C 5.39 g/m*3 4.86 C 0 km/h
591 11-12-2010 14:00:00 4.9 C 5.31 g/m*3 4.9 C 0 km/h
592 11-12-2010 15:00:00 5.06 C 5.18 g/m*3 5.06 C 0 km/h
593 11-12-2010 16:00:00 4.9 C 5.24 g/m*3 4.9 C 0 km/h
594 11-12-2010 17:00:00 5.16 C 5.22 g/m*3 5.16 C 0 km/h
595 11-12-2010 18:00:00 4.22 C 5.21 g/m*3 4.22 C 0 km/h
596 11-12-2010 19:00:00 4.26 C 5.2 g/m*3 4.26 C 0 km/h
597 11-12-2010 20:00:00 4.82 C 5.01 g/m*3 4.82 C 0 km/h
598 11-12-2010 21:00:00 4.4 C 5.04 g/m*3 4.4 C 0 km/h
599 11-12-2010 22:00:00 4.3 C 5.03 g/m*3 4.3 C 0 km/h
600 11-12-2010 23:00:00 4.66 C 4.89 g/m*3 4.66 C 0 km/h
Sensor: Nr:Datum:Temp:Abs-Feuchte:Windchill:Wind:
Aussen-T/F 601 12-12-2010 00:00:00 4.26 C 4.97 g/m*3 4.26 C 0 km/h
602 12-12-2010 01:00:00 4.84 C 4.84 g/m*3 4.84 C 0 km/h
603 12-12-2010 02:00:00 4.82 C 4.58 g/m*3 4.82 C 0 km/h
604 12-12-2010 03:00:00 4.2 C 4.66 g/m*3 4.2 C 0 km/h
605 12-12-2010 04:00:00 3.68 C 5.18 g/m*3 3.68 C 0 km/h
606 12-12-2010 05:00:00 3.44 C 5.11 g/m*3 3.44 C 0 km/h
607 12-12-2010 06:00:00 3.04 C 5.07 g/m*3 3.04 C 0 km/h
608 12-12-2010 07:00:00 3.86 C 4.93 g/m*3 3.86 C 0 km/h
609 12-12-2010 08:00:00 3.62 C 4.87 g/m*3 3.62 C 0 km/h
610 12-12-2010 09:00:00 3.7 C 4.96 g/m*3 3.7 C 0 km/h
611 12-12-2010 10:00:00 3.86 C 5.03 g/m*3 3.86 C 0 km/h
612 12-12-2010 11:00:00 4.12 C 5.14 g/m*3 4.12 C 0 km/h
613 12-12-2010 12:00:00 4.5 C 5.34 g/m*3 4.5 C 0 km/h
614 12-12-2010 13:00:00 4.82 C 5.17 g/m*3 4.82 C 0 km/h
615 12-12-2010 14:00:00 3.46 C 4.95 g/m*3 3.46 C 0 km/h
616 12-12-2010 15:00:00 3.1 C 5.21 g/m*3 3.1 C 0 km/h
617 12-12-2010 16:00:00 2.7 C 5.12 g/m*3 2.7 C 0 km/h
618 12-12-2010 17:00:00 2.48 C 4.62 g/m*3 2.48 C 0 km/h
619 12-12-2010 18:00:00 1.86 C 4.15 g/m*3 1.86 C 0 km/h
620 12-12-2010 19:00:00 1.38 C 3.91 g/m*3 1.38 C 0 km/h
621 12-12-2010 20:00:00 1.18 C 3.56 g/m*3 1.18 C 0 km/h
622 12-12-2010 21:00:00 0.76 C 3.35 g/m*3 0.76 C 0 km/h
623 12-12-2010 22:00:00 0.4 C 3.18 g/m*3 0.4 C 0 km/h
624 12-12-2010 23:00:00 -0.04 C 2.73 g/m*3 -0.04 C 0 km/h
625 13-12-2010 00:00:00 -0.52 C 2.5 g/m*3 -0.52 C 0 km/h
Sensor: Nr:Datum:Temp:Abs-Feuchte:Windchill:Wind:
Aussen-T/F 626 13-12-2010 01:00:00 -0.84 C 2.45 g/m*3 -0.84 C 0 km/h
627 13-12-2010 02:00:00 -2.28 C 2.3 g/m*3 -2.28 C 0 km/h
628 13-12-2010 03:00:00 -3.5 C 2.27 g/m*3 -3.5 C 0 km/h
629 13-12-2010 04:00:00 -4.2 C 2.29 g/m*3 -4.2 C 0 km/h
630 13-12-2010 05:00:00 -5.8 C 2.22 g/m*3 -5.8 C 0 km/h
631 13-12-2010 06:00:00 -6.94 C 2.21 g/m*3 -6.94 C 0 km/h
632 13-12-2010 07:00:00 -7.2 C 2.22 g/m*3 -7.2 C 0 km/h
633 13-12-2010 08:00:00 -7.18 C 2.27 g/m*3 -7.18 C 0 km/h
634 13-12-2010 09:00:00 -7.12 C 2.29 g/m*3 -7.12 C 0 km/h
635 13-12-2010 10:00:00 -6.62 C 2.4 g/m*3 -6.62 C 0 km/h
636 13-12-2010 11:00:00 -4 C 2.63 g/m*3 -4 C 0 km/h
637 13-12-2010 12:00:00 -2.78 C 2.52 g/m*3 -2.78 C 0 km/h
638 13-12-2010 13:00:00 -2.32 C 2.5 g/m*3 -2.32 C 0 km/h
639 13-12-2010 14:00:00 -2.2 C 2.39 g/m*3 -2.2 C 0 km/h
640 13-12-2010 15:00:00 -3.66 C 2.47 g/m*3 -3.66 C 0 km/h
641 13-12-2010 16:00:00 -4.98 C 2.58 g/m*3 -4.98 C 0 km/h
642 13-12-2010 17:00:00 -5.88 C 2.5 g/m*3 -5.88 C 0 km/h
643 13-12-2010 18:00:00 -6.2 C 2.48 g/m*3 -6.2 C 0 km/h
644 13-12-2010 19:00:00 -5.44 C 2.72 g/m*3 -5.44 C 0 km/h
645 13-12-2010 20:00:00 -4.86 C 2.8 g/m*3 -4.86 C 0 km/h
646 13-12-2010 21:00:00 -4.22 C 2.82 g/m*3 -4.22 C 0 km/h
647 13-12-2010 22:00:00 -3.92 C 2.86 g/m*3 -3.92 C 0 km/h
648 13-12-2010 23:00:00 -4.1 C 3 g/m*3 -4.1 C 0 km/h
649 14-12-2010 00:00:00 -4.1 C 3.02 g/m*3 -4.1 C 0 km/h
650 14-12-2010 01:00:00 -4.06 C 3.03 g/m*3 -4.06 C 0 km/h
Sensor: Nr:Datum:Temp:Abs-Feuchte:Windchill:Wind:
Aussen-T/F 651 14-12-2010 02:00:00 -3.84 C 3.07 g/m*3 -3.84 C 0 km/h
652 14-12-2010 03:00:00 -3.66 C 3.11 g/m*3 -3.66 C 0 km/h
653 14-12-2010 04:00:00 -3.62 C 3.09 g/m*3 -3.62 C 0 km/h
654 14-12-2010 05:00:00 -3.8 C 3.04 g/m*3 -3.8 C 0 km/h
655 14-12-2010 06:00:00 -4.7 C 2.87 g/m*3 -4.7 C 0 km/h
656 14-12-2010 07:00:00 -6.22 C 2.59 g/m*3 -6.22 C 0 km/h
657 14-12-2010 08:00:00 -6.38 C 2.62 g/m*3 -6.38 C 0 km/h
658 14-12-2010 09:00:00 -6 C 2.69 g/m*3 -6 C 0 km/h
659 14-12-2010 10:00:00 -4.06 C 3 g/m*3 -4.06 C 0 km/h
660 14-12-2010 11:00:00 -3.24 C 2.75 g/m*3 -3.24 C 0 km/h
661 14-12-2010 12:00:00 -2.42 C 2.66 g/m*3 -2.42 C 0 km/h
662 14-12-2010 13:00:00 -2.2 C 2.64 g/m*3 -2.2 C 0 km/h
663 14-12-2010 14:00:00 -2.44 C 2.66 g/m*3 -2.44 C 0 km/h
664 14-12-2010 15:00:00 -2.76 C 2.7 g/m*3 -2.76 C 0 km/h
665 14-12-2010 16:00:00 -2.9 C 2.8 g/m*3 -2.9 C 0 km/h
666 14-12-2010 17:00:00 -2.98 C 2.91 g/m*3 -2.98 C 0 km/h
667 14-12-2010 18:00:00 -3.06 C 2.78 g/m*3 -3.06 C 0 km/h
668 14-12-2010 19:00:00 -2.82 C 2.84 g/m*3 -2.82 C 0 km/h
669 14-12-2010 20:00:00 -3.04 C 2.74 g/m*3 -3.04 C 0 km/h
670 14-12-2010 21:00:00 -3.12 C 2.64 g/m*3 -3.12 C 0 km/h
671 14-12-2010 22:00:00 -3.16 C 2.58 g/m*3 -3.16 C 0 km/h
672 14-12-2010 23:00:00 -3.22 C 2.51 g/m*3 -3.22 C 0 km/h
673 15-12-2010 00:00:00 -3.3 C 2.5 g/m*3 -3.3 C 0 km/h
674 15-12-2010 01:00:00 -3.26 C 2.57 g/m*3 -3.26 C 0 km/h
675 15-12-2010 02:00:00 -4.16 C 2.54 g/m*3 -4.16 C 0 km/h
Sensor: Nr:Datum:Temp:Abs-Feuchte:Windchill:Wind:
Aussen-T/F 676 15-12-2010 03:00:00 -4.9 C 2.5 g/m*3 -4.9 C 0 km/h
677 15-12-2010 04:00:00 -4.86 C 2.54 g/m*3 -4.86 C 0 km/h
678 15-12-2010 05:00:00 -4.72 C 2.63 g/m*3 -4.72 C 0 km/h
679 15-12-2010 06:00:00 -3.78 C 2.71 g/m*3 -3.78 C 0 km/h
680 15-12-2010 07:00:00 -3.42 C 2.81 g/m*3 -3.42 C 0 km/h
681 15-12-2010 08:00:00 -3.3 C 2.88 g/m*3 -3.3 C 0 km/h
682 15-12-2010 09:00:00 -2.56 C 3.02 g/m*3 -2.56 C 0 km/h
683 15-12-2010 10:00:00 -1.76 C 3.22 g/m*3 -1.76 C 0 km/h
684 15-12-2010 11:00:00 -0.68 C 3.51 g/m*3 -0.68 C 0 km/h
685 15-12-2010 12:00:00 -0.48 C 3.47 g/m*3 -0.48 C 0 km/h
686 15-12-2010 13:00:00 -0.38 C 3.56 g/m*3 -0.38 C 0 km/h
687 15-12-2010 14:00:00 -0.12 C 3.36 g/m*3 -0.12 C 0 km/h
688 15-12-2010 15:00:00 -1.44 C 2.8 g/m*3 -1.44 C 0 km/h
689 15-12-2010 16:00:00 -3.2 C 2.7 g/m*3 -3.2 C 0 km/h
690 15-12-2010 17:00:00 -4.34 C 2.74 g/m*3 -4.34 C 0 km/h
691 15-12-2010 18:00:00 -4.86 C 2.77 g/m*3 -4.86 C 0 km/h
692 15-12-2010 19:00:00 -4.42 C 2.86 g/m*3 -4.42 C 0 km/h
693 15-12-2010 20:00:00 -3.62 C 2.83 g/m*3 -3.62 C 0 km/h
694 15-12-2010 21:00:00 -3.18 C 2.77 g/m*3 -3.18 C 0 km/h
695 15-12-2010 22:00:00 -3.78 C 2.76 g/m*3 -3.78 C 0 km/h
696 15-12-2010 23:00:00 -4.54 C 2.76 g/m*3 -4.54 C 0 km/h
697 16-12-2010 00:00:00 -4.68 C 2.85 g/m*3 -4.68 C 0 km/h
698 16-12-2010 01:00:00 -4.84 C 2.87 g/m*3 -4.84 C 0 km/h
699 16-12-2010 02:00:00 -5.3 C 2.73 g/m*3 -5.3 C 0 km/h
700 16-12-2010 03:00:00 -5.36 C 2.75 g/m*3 -5.36 C 0 km/h
Sensor: Nr:Datum:Temp:Abs-Feuchte:Windchill:Wind:
Aussen-T/F 701 16-12-2010 04:00:00 -5.58 C 2.66 g/m*3 -5.58 C 0 km/h
702 16-12-2010 05:00:00 -6.4 C 2.41 g/m*3 -6.4 C 0 km/h
703 16-12-2010 06:00:00 -7.54 C 2.25 g/m*3 -7.54 C 0 km/h
704 16-12-2010 07:00:00 -8.28 C 2.11 g/m*3 -8.28 C 0 km/h
705 16-12-2010 08:00:00 -7.86 C 2.18 g/m*3 -7.86 C 0 km/h
706 16-12-2010 09:00:00 -6.6 C 2.26 g/m*3 -6.6 C 0 km/h
707 16-12-2010 10:00:00 -4.84 C 2.47 g/m*3 -4.84 C 0 km/h
708 16-12-2010 11:00:00 -3.42 C 2.65 g/m*3 -3.42 C 0 km/h
709 16-12-2010 12:00:00 -2.84 C 2.8 g/m*3 -2.84 C 0 km/h
710 16-12-2010 13:00:00 -2.12 C 2.99 g/m*3 -2.12 C 0 km/h
711 16-12-2010 14:00:00 -1.72 C 3.2 g/m*3 -1.72 C 0 km/h
712 16-12-2010 15:00:00 -1.4 C 3.45 g/m*3 -1.4 C 0 km/h
713 16-12-2010 16:00:00 -1.3 C 3.43 g/m*3 -1.3 C 0 km/h
714 16-12-2010 17:00:00 -1.26 C 3.47 g/m*3 -1.26 C 0 km/h
715 16-12-2010 18:00:00 -0.7 C 3.61 g/m*3 -0.7 C 0 km/h
716 16-12-2010 19:00:00 -0.28 C 3.67 g/m*3 -0.28 C 0 km/h
717 16-12-2010 20:00:00 0.02 C 3.69 g/m*3 0.02 C 0 km/h
718 16-12-2010 21:00:00 -0.12 C 3.79 g/m*3 -0.12 C 0 km/h
719 16-12-2010 22:00:00 -0.34 C 3.88 g/m*3 -0.34 C 0 km/h
720 16-12-2010 23:00:00 -0.46 C 3.84 g/m*3 -0.46 C 0 km/h
721 17-12-2010 00:00:00 -0.28 C 3.85 g/m*3 -0.28 C 0 km/h
722 17-12-2010 01:00:00 -0.34 C 3.88 g/m*3 -0.34 C 0 km/h
723 17-12-2010 02:00:00 -0.58 C 3.62 g/m*3 -0.58 C 0 km/h
724 17-12-2010 03:00:00 -1.2 C 3.36 g/m*3 -1.2 C 0 km/h
725 17-12-2010 04:00:00 -1.28 C 3.16 g/m*3 -1.28 C 0 km/h
Sensor: Nr:Datum:Temp:Abs-Feuchte:Windchill:Wind:
Aussen-T/F 726 17-12-2010 05:00:00 -1.62 C 3.26 g/m*3 -1.62 C 0 km/h
727 17-12-2010 06:00:00 -2.24 C 2.97 g/m*3 -2.24 C 0 km/h
728 17-12-2010 07:00:00 -2.28 C 2.65 g/m*3 -2.28 C 0 km/h
729 17-12-2010 08:00:00 -2.22 C 3 g/m*3 -2.22 C 0 km/h
730 17-12-2010 09:00:00 -1.92 C 3.01 g/m*3 -1.92 C 0 km/h
731 17-12-2010 10:00:00 -1.66 C 2.95 g/m*3 -1.66 C 0 km/h
732 17-12-2010 11:00:00 -1.2 C 2.74 g/m*3 -1.2 C 0 km/h
733 17-12-2010 12:00:00 -1.14 C 2.52 g/m*3 -1.14 C 0 km/h
734 17-12-2010 13:00:00 -1.22 C 2.43 g/m*3 -1.22 C 0 km/h
735 17-12-2010 14:00:00 -1.4 C 2.66 g/m*3 -1.4 C 0 km/h
736 17-12-2010 15:00:00 -1.82 C 2.98 g/m*3 -1.82 C 0 km/h
737 17-12-2010 16:00:00 -2.08 C 3 g/m*3 -2.08 C 0 km/h
738 17-12-2010 17:00:00 -4.06 C 2.8 g/m*3 -4.06 C 0 km/h
739 17-12-2010 18:00:00 -5.22 C 2.69 g/m*3 -5.22 C 0 km/h
740 17-12-2010 19:00:00 -6.48 C 2.51 g/m*3 -6.48 C 0 km/h
741 17-12-2010 20:00:00 -6.58 C 2.52 g/m*3 -6.58 C 0 km/h
742 17-12-2010 21:00:00 -6.94 C 2.44 g/m*3 -6.94 C 0 km/h
743 17-12-2010 22:00:00 -6.92 C 2.44 g/m*3 -6.92 C 0 km/h
744 17-12-2010 23:00:00 -5.9 C 2.66 g/m*3 -5.9 C 0 km/h
745 18-12-2010 00:00:00 -4.74 C 2.93 g/m*3 -4.74 C 0 km/h
746 18-12-2010 01:00:00 -4.44 C 2.9 g/m*3 -4.44 C 0 km/h
747 18-12-2010 02:00:00 -5.28 C 2.7 g/m*3 -5.28 C 0 km/h
748 18-12-2010 03:00:00 -4.36 C 2.87 g/m*3 -4.36 C 0 km/h
749 18-12-2010 04:00:00 -4.36 C 2.94 g/m*3 -4.36 C 0 km/h
750 18-12-2010 05:00:00 -4.44 C 2.98 g/m*3 -4.44 C 0 km/h
Sensor: Nr:Datum:Temp:Abs-Feuchte:Windchill:Wind:
Aussen-T/F 751 18-12-2010 06:00:00 -4.34 C 3.01 g/m*3 -4.34 C 0 km/h
752 18-12-2010 07:00:00 -5.26 C 2.81 g/m*3 -5.26 C 0 km/h
753 18-12-2010 08:00:00 -5.34 C 2.8 g/m*3 -5.34 C 0 km/h
754 18-12-2010 09:00:00 -4.84 C 2.73 g/m*3 -4.84 C 0 km/h
755 18-12-2010 10:00:00 -3.82 C 2.68 g/m*3 -3.82 C 0 km/h
756 18-12-2010 11:00:00 -3.48 C 2.59 g/m*3 -3.48 C 0 km/h
757 18-12-2010 12:00:00 -3.28 C 2.46 g/m*3 -3.28 C 0 km/h
758 18-12-2010 13:00:00 -2.96 C 2.36 g/m*3 -2.96 C 0 km/h
759 18-12-2010 14:00:00 -3.84 C 2.29 g/m*3 -3.84 C 0 km/h
760 18-12-2010 15:00:00 -5.48 C 2.31 g/m*3 -5.48 C 0 km/h
761 18-12-2010 16:00:00 -7.06 C 2.27 g/m*3 -7.06 C 0 km/h
762 18-12-2010 17:00:00 -7.56 C 2.29 g/m*3 -7.56 C 0 km/h
763 18-12-2010 18:00:00 -6.74 C 2.48 g/m*3 -6.74 C 0 km/h
764 18-12-2010 19:00:00 -5.34 C 2.79 g/m*3 -5.34 C 0 km/h
765 18-12-2010 20:00:00 -4.36 C 2.97 g/m*3 -4.36 C 0 km/h
766 18-12-2010 21:00:00 -3.98 C 3.05 g/m*3 -3.98 C 0 km/h
767 18-12-2010 22:00:00 -3.42 C 3.2 g/m*3 -3.42 C 0 km/h
768 18-12-2010 23:00:00 -3.08 C 3.28 g/m*3 -3.08 C 0 km/h
769 19-12-2010 00:00:00 -2.56 C 3.41 g/m*3 -2.56 C 0 km/h
770 19-12-2010 01:00:00 -2.44 C 3.53 g/m*3 -2.44 C 0 km/h
771 19-12-2010 02:00:00 -2.5 C 3.54 g/m*3 -2.5 C 0 km/h
772 19-12-2010 03:00:00 -2.7 C 3.49 g/m*3 -2.7 C 0 km/h
773 19-12-2010 04:00:00 -2.46 C 3.55 g/m*3 -2.46 C 0 km/h
774 19-12-2010 05:00:00 -1.02 C 3.67 g/m*3 -1.02 C 0 km/h
775 19-12-2010 06:00:00 -1.64 C 3.24 g/m*3 -1.64 C 0 km/h
Sensor: Nr:Datum:Temp:Abs-Feuchte:Windchill:Wind:
Aussen-T/F 776 19-12-2010 07:00:00 -2.58 C 3.19 g/m*3 -2.58 C 0 km/h
777 19-12-2010 08:00:00 -2.5 C 3.2 g/m*3 -2.5 C 0 km/h
778 19-12-2010 09:00:00 -2.04 C 3.37 g/m*3 -2.04 C 0 km/h
779 19-12-2010 10:00:00 -0.94 C 3.41 g/m*3 -0.94 C 0 km/h
780 19-12-2010 11:00:00 -0.38 C 3.56 g/m*3 -0.38 C 0 km/h
781 19-12-2010 12:00:00 0.3 C 3.6 g/m*3 0.3 C 0 km/h
782 19-12-2010 13:00:00 0.14 C 3.71 g/m*3 0.14 C 0 km/h
783 19-12-2010 14:00:00 -0.18 C 3.94 g/m*3 -0.18 C 0 km/h
784 19-12-2010 15:00:00 -0.4 C 4.08 g/m*3 -0.4 C 0 km/h
785 19-12-2010 16:00:00 -0.3 C 4.23 g/m*3 -0.3 C 0 km/h
786 19-12-2010 17:00:00 -0.2 C 4.33 g/m*3 -0.2 C 0 km/h
787 19-12-2010 18:00:00 -0.18 C 4.36 g/m*3 -0.18 C 0 km/h
788 19-12-2010 19:00:00 -0.04 C 4.45 g/m*3 -0.04 C 0 km/h
789 19-12-2010 20:00:00 0.08 C 4.49 g/m*3 0.08 C 0 km/h
790 19-12-2010 21:00:00 1.1 C 4.84 g/m*3 1.1 C 0 km/h
791 19-12-2010 22:00:00 1.92 C 5.06 g/m*3 1.92 C 0 km/h
792 19-12-2010 23:00:00 4.42 C 5.05 g/m*3 4.42 C 0 km/h
793 20-12-2010 00:00:00 4.02 C 4.62 g/m*3 4.02 C 0 km/h
794 20-12-2010 01:00:00 1.68 C 4.43 g/m*3 1.68 C 0 km/h
795 20-12-2010 02:00:00 0.42 C 3.7 g/m*3 0.42 C 0 km/h
796 20-12-2010 03:00:00 -0.08 C 3.63 g/m*3 -0.08 C 0 km/h
797 20-12-2010 04:00:00 -0.44 C 3.67 g/m*3 -0.44 C 0 km/h
798 20-12-2010 05:00:00 -1.02 C 3.56 g/m*3 -1.02 C 0 km/h
799 20-12-2010 06:00:00 -1.66 C 3.46 g/m*3 -1.66 C 0 km/h
800 20-12-2010 07:00:00 -2.6 C 3.38 g/m*3 -2.6 C 0 km/h
Sensor: Nr:Datum:Temp:Abs-Feuchte:Windchill:Wind:
Aussen-T/F 801 20-12-2010 08:00:00 -2.42 C 3.54 g/m*3 -2.42 C 0 km/h
802 20-12-2010 09:00:00 -1.8 C 3.59 g/m*3 -1.8 C 0 km/h
803 20-12-2010 10:00:00 -1.22 C 3.33 g/m*3 -1.22 C 0 km/h
804 20-12-2010 11:00:00 -0.8 C 3.28 g/m*3 -0.8 C 0 km/h
805 20-12-2010 12:00:00 -1.06 C 3.27 g/m*3 -1.06 C 0 km/h
806 20-12-2010 13:00:00 -0.92 C 3.28 g/m*3 -0.92 C 0 km/h
807 20-12-2010 14:00:00 -0.98 C 3.26 g/m*3 -0.98 C 0 km/h
808 20-12-2010 15:00:00 -1.08 C 3.26 g/m*3 -1.08 C 0 km/h
809 20-12-2010 16:00:00 -3.04 C 3.05 g/m*3 -3.04 C 0 km/h
810 20-12-2010 17:00:00 -3.52 C 3.23 g/m*3 -3.52 C 0 km/h
811 20-12-2010 18:00:00 -3.04 C 3.42 g/m*3 -3.04 C 0 km/h
812 20-12-2010 19:00:00 -3 C 3.45 g/m*3 -3 C 0 km/h
813 20-12-2010 20:00:00 -2.92 C 3.48 g/m*3 -2.92 C 0 km/h
814 20-12-2010 21:00:00 -3.64 C 3.26 g/m*3 -3.64 C 0 km/h
815 20-12-2010 22:00:00 -4.3 C 3.11 g/m*3 -4.3 C 0 km/h
816 20-12-2010 23:00:00 -3.46 C 3.37 g/m*3 -3.46 C 0 km/h
817 21-12-2010 00:00:00 -3.62 C 3.33 g/m*3 -3.62 C 0 km/h
818 21-12-2010 01:00:00 -2.88 C 3.53 g/m*3 -2.88 C 0 km/h
819 21-12-2010 02:00:00 -2.6 C 3.6 g/m*3 -2.6 C 0 km/h
820 21-12-2010 03:00:00 -2.54 C 3.57 g/m*3 -2.54 C 0 km/h
821 21-12-2010 04:00:00 -2.14 C 3.67 g/m*3 -2.14 C 0 km/h
822 21-12-2010 05:00:00 -1.88 C 3.76 g/m*3 -1.88 C 0 km/h
823 21-12-2010 06:00:00 -1.78 C 3.81 g/m*3 -1.78 C 0 km/h
824 21-12-2010 07:00:00 -1.7 C 3.83 g/m*3 -1.7 C 0 km/h
825 21-12-2010 08:00:00 -1.64 C 3.85 g/m*3 -1.64 C 0 km/h
Sensor: Nr:Datum:Temp:Abs-Feuchte:Windchill:Wind:
Aussen-T/F 826 21-12-2010 09:00:00 -1.24 C 3.91 g/m*3 -1.24 C 0 km/h
827 21-12-2010 10:00:00 -0.6 C 3.91 g/m*3 -0.6 C 0 km/h
828 21-12-2010 11:00:00 0.5 C 3.98 g/m*3 0.5 C 0 km/h
829 21-12-2010 12:00:00 1.14 C 3.97 g/m*3 1.14 C 0 km/h
830 21-12-2010 13:00:00 1.44 C 4.12 g/m*3 1.44 C 0 km/h
831 21-12-2010 14:00:00 1.24 C 4.06 g/m*3 1.24 C 0 km/h
832 21-12-2010 15:00:00 1.18 C 4.18 g/m*3 1.18 C 0 km/h
833 21-12-2010 16:00:00 0.58 C 4.2 g/m*3 0.58 C 0 km/h
834 21-12-2010 17:00:00 0.16 C 4.28 g/m*3 0.16 C 0 km/h
835 21-12-2010 18:00:00 0.18 C 4.38 g/m*3 0.18 C 0 km/h
836 21-12-2010 19:00:00 0.12 C 4.4 g/m*3 0.12 C 0 km/h
837 21-12-2010 20:00:00 0.12 C 4.4 g/m*3 0.12 C 0 km/h
838 21-12-2010 21:00:00 0.12 C 4.45 g/m*3 0.12 C 0 km/h
839 21-12-2010 22:00:00 0.15 C 4.45 g/m*3 0.15 C 0 km/h
840 21-12-2010 23:00:00 0.12 C 4.45 g/m*3 0.12 C 0 km/h
841 22-12-2010 00:00:00 0.1 C 4.48 g/m*3 0.1 C 0 km/h
842 22-12-2010 01:00:00 0.16 C 4.51 g/m*3 0.16 C 0 km/h
843 22-12-2010 02:00:00 0.2 C 4.52 g/m*3 0.2 C 0 km/h
844 22-12-2010 03:00:00 0.16 C 4.51 g/m*3 0.16 C 0 km/h
845 22-12-2010 04:00:00 0.28 C 4.54 g/m*3 0.28 C 0 km/h
846 22-12-2010 05:00:00 0.3 C 4.55 g/m*3 0.3 C 0 km/h
847 22-12-2010 06:00:00 0.3 C 4.55 g/m*3 0.3 C 0 km/h
848 22-12-2010 07:00:00 0.3 C 4.57 g/m*3 0.3 C 0 km/h
849 22-12-2010 08:00:00 0.34 C 4.61 g/m*3 0.34 C 0 km/h
850 22-12-2010 09:00:00 0.7 C 4.73 g/m*3 0.7 C 0 km/h
Sensor: Nr:Datum:Temp:Abs-Feuchte:Windchill:Wind:
Aussen-T/F 851 22-12-2010 10:00:00 1.38 C 4.9 g/m*3 1.38 C 0 km/h
852 22-12-2010 11:00:00 2.3 C 5.02 g/m*3 2.3 C 0 km/h
853 22-12-2010 12:00:00 2.76 C 4.89 g/m*3 2.76 C 0 km/h
854 22-12-2010 13:00:00 2.38 C 4.73 g/m*3 2.38 C 0 km/h
855 22-12-2010 14:00:00 2.4 C 4.76 g/m*3 2.4 C 0 km/h
856 22-12-2010 15:00:00 1.66 C 4.59 g/m*3 1.66 C 0 km/h
857 22-12-2010 16:00:00 1.16 C 4.6 g/m*3 1.16 C 0 km/h
858 22-12-2010 17:00:00 0.8 C 4.6 g/m*3 0.8 C 0 km/h
859 22-12-2010 18:00:00 0.7 C 4.63 g/m*3 0.7 C 0 km/h
860 22-12-2010 19:00:00 0.78 C 4.7 g/m*3 0.78 C 0 km/h
861 22-12-2010 20:00:00 0.78 C 4.7 g/m*3 0.78 C 0 km/h
862 22-12-2010 21:00:00 0.8 C 4.71 g/m*3 0.8 C 0 km/h
863 22-12-2010 22:00:00 0.7 C 4.68 g/m*3 0.7 C 0 km/h
864 22-12-2010 23:00:00 0.7 C 4.68 g/m*3 0.7 C 0 km/h
865 23-12-2010 00:00:00 0.76 C 4.74 g/m*3 0.76 C 0 km/h
866 23-12-2010 01:00:00 0.7 C 4.73 g/m*3 0.7 C 0 km/h
867 23-12-2010 02:00:00 0.7 C 4.73 g/m*3 0.7 C 0 km/h
868 23-12-2010 03:00:00 0.7 C 4.73 g/m*3 0.7 C 0 km/h
869 23-12-2010 04:00:00 0.66 C 4.72 g/m*3 0.66 C 0 km/h
870 23-12-2010 05:00:00 0.48 C 4.66 g/m*3 0.48 C 0 km/h
871 23-12-2010 06:00:00 0.34 C 4.61 g/m*3 0.34 C 0 km/h
872 23-12-2010 07:00:00 0 C 4.51 g/m*3 0 C 0 km/h
873 23-12-2010 08:00:00 -0.32 C 4.39 g/m*3 -0.32 C 0 km/h
874 23-12-2010 09:00:00 -0.5 C 4.31 g/m*3 -0.5 C 0 km/h
875 23-12-2010 10:00:00 -0.54 C 4.27 g/m*3 -0.54 C 0 km/h
Sensor: Nr:Datum:Temp:Abs-Feuchte:Windchill:Wind:
Aussen-T/F 876 23-12-2010 11:00:00 -0.58 C 4.19 g/m*3 -0.58 C 0 km/h
877 23-12-2010 12:00:00 -0.68 C 4.06 g/m*3 -0.68 C 0 km/h
878 23-12-2010 13:00:00 -0.66 C 4 g/m*3 -0.66 C 0 km/h
879 23-12-2010 14:00:00 -0.62 C 3.99 g/m*3 -0.62 C 0 km/h
880 23-12-2010 15:00:00 -0.86 C 3.93 g/m*3 -0.86 C 0 km/h
881 23-12-2010 16:00:00 -0.9 C 3.96 g/m*3 -0.9 C 0 km/h
882 23-12-2010 17:00:00 -1.02 C 3.93 g/m*3 -1.02 C 0 km/h
883 23-12-2010 18:00:00 -1.14 C 3.89 g/m*3 -1.14 C 0 km/h
884 23-12-2010 19:00:00 -1.26 C 3.84 g/m*3 -1.26 C 0 km/h
885 23-12-2010 20:00:00 -1.26 C 3.84 g/m*3 -1.26 C 0 km/h
886 23-12-2010 21:00:00 -1.1 C 3.86 g/m*3 -1.1 C 0 km/h
887 23-12-2010 22:00:00 -0.94 C 3.92 g/m*3 -0.94 C 0 km/h
888 23-12-2010 23:00:00 -0.8 C 3.98 g/m*3 -0.8 C 0 km/h
889 24-12-2010 00:00:00 -0.9 C 3.91 g/m*3 -0.9 C 0 km/h
890 24-12-2010 01:00:00 -0.74 C 3.98 g/m*3 -0.74 C 0 km/h
891 24-12-2010 02:00:00 -0.5 C 4.03 g/m*3 -0.5 C 0 km/h
892 24-12-2010 03:00:00 -0.48 C 4.03 g/m*3 -0.48 C 0 km/h
893 24-12-2010 04:00:00 -0.5 C 4.03 g/m*3 -0.5 C 0 km/h
894 24-12-2010 05:00:00 -0.74 C 3.91 g/m*3 -0.74 C 0 km/h
895 24-12-2010 06:00:00 -0.96 C 3.79 g/m*3 -0.96 C 0 km/h
896 24-12-2010 07:00:00 -1.2 C 3.64 g/m*3 -1.2 C 0 km/h
897 24-12-2010 08:00:00 -1.48 C 3.64 g/m*3 -1.48 C 0 km/h
898 24-12-2010 09:00:00 -1.7 C 3.66 g/m*3 -1.7 C 0 km/h
899 24-12-2010 10:00:00 -1.54 C 3.68 g/m*3 -1.54 C 0 km/h
900 24-12-2010 11:00:00 -1.32 C 3.67 g/m*3 -1.32 C 0 km/h
Sensor: Nr:Datum:Temp:Abs-Feuchte:Windchill:Wind:
Aussen-T/F 901 24-12-2010 12:00:00 -1.34 C 3.58 g/m*3 -1.34 C 0 km/h
902 24-12-2010 13:00:00 -1.38 C 3.52 g/m*3 -1.38 C 0 km/h
903 24-12-2010 14:00:00 -1.4 C 3.52 g/m*3 -1.4 C 0 km/h
904 24-12-2010 15:00:00 -1.84 C 3.46 g/m*3 -1.84 C 0 km/h
905 24-12-2010 16:00:00 -2.42 C 3.35 g/m*3 -2.42 C 0 km/h
906 24-12-2010 17:00:00 -2.56 C 3.22 g/m*3 -2.56 C 0 km/h
907 24-12-2010 18:00:00 -2.8 C 3.23 g/m*3 -2.8 C 0 km/h
908 24-12-2010 19:00:00 -2.94 C 3.13 g/m*3 -2.94 C 0 km/h
909 24-12-2010 20:00:00 -3.02 C 3.11 g/m*3 -3.02 C 0 km/h
910 24-12-2010 21:00:00 -3.23333 C 3.06 g/m*3 -3.23 C 0 km/h
911 24-12-2010 22:00:00 -3.56 C 3.02 g/m*3 -3.56 C 0 km/h
912 24-12-2010 23:00:00 -3.74 C 2.98 g/m*3 -3.74 C 0 km/h
913 25-12-2010 00:00:00 -3.82 C 2.94 g/m*3 -3.82 C 0 km/h
914 25-12-2010 01:00:00 -3.92 C 2.88 g/m*3 -3.92 C 0 km/h
915 25-12-2010 02:00:00 -4.08 C 2.87 g/m*3 -4.08 C 0 km/h
916 25-12-2010 03:00:00 -4.16 C 2.81 g/m*3 -4.16 C 0 km/h
917 25-12-2010 04:00:00 -4.26 C 2.68 g/m*3 -4.26 C 0 km/h
918 25-12-2010 05:00:00 -4.46 C 2.58 g/m*3 -4.46 C 0 km/h
919 25-12-2010 06:00:00 -4.62 C 2.51 g/m*3 -4.62 C 0 km/h
920 25-12-2010 07:00:00 -4.72 C 2.45 g/m*3 -4.72 C 0 km/h
921 25-12-2010 08:00:00 -4.8 C 2.47 g/m*3 -4.8 C 0 km/h
922 25-12-2010 09:00:00 -4.82 C 2.44 g/m*3 -4.82 C 0 km/h
923 25-12-2010 10:00:00 -4.58 C 2.36 g/m*3 -4.58 C 0 km/h
924 25-12-2010 11:00:00 -4.5 C 2.18 g/m*3 -4.5 C 0 km/h
925 25-12-2010 12:00:00 -4.98 C 2.07 g/m*3 -4.98 C 0 km/h
Sensor: Nr:Datum:Temp:Abs-Feuchte:Windchill:Wind:
Aussen-T/F 926 25-12-2010 13:00:00 -4.72 C 2.18 g/m*3 -4.72 C 0 km/h
927 25-12-2010 14:00:00 -4.92 C 2.1 g/m*3 -4.92 C 0 km/h
928 25-12-2010 15:00:00 -5.54 C 2.09 g/m*3 -5.54 C 0 km/h
929 25-12-2010 16:00:00 -6.82 C 2.12 g/m*3 -6.82 C 0 km/h
930 25-12-2010 17:00:00 -7.52 C 2.13 g/m*3 -7.52 C 0 km/h
931 25-12-2010 18:00:00 -7.46 C 2.17 g/m*3 -7.46 C 0 km/h
932 25-12-2010 19:00:00 -7.4 C 2.17 g/m*3 -7.4 C 0 km/h
933 25-12-2010 20:00:00 -8.34 C 2.11 g/m*3 -8.34 C 0 km/h
934 25-12-2010 21:00:00 -7.4 C 2.32 g/m*3 -7.4 C 0 km/h
935 25-12-2010 22:00:00 -6.8 C 2.31 g/m*3 -6.8 C 0 km/h
936 25-12-2010 23:00:00 -6.82 C 2.18 g/m*3 -6.82 C 0 km/h
937 26-12-2010 00:00:00 -7.08 C 2.12 g/m*3 -7.08 C 0 km/h
938 26-12-2010 01:00:00 -8 C 1.99 g/m*3 -8 C 0 km/h
939 26-12-2010 02:00:00 -8.78 C 1.88 g/m*3 -8.78 C 0 km/h
940 26-12-2010 03:00:00 -9.04 C 1.82 g/m*3 -9.04 C 0 km/h
941 26-12-2010 04:00:00 -9.04 C 1.85 g/m*3 -9.04 C 0 km/h
942 26-12-2010 05:00:00 -8.44 C 1.94 g/m*3 -8.44 C 0 km/h
943 26-12-2010 06:00:00 -7.24 C 2.11 g/m*3 -7.24 C 0 km/h
944 26-12-2010 07:00:00 -6.34 C 2.24 g/m*3 -6.34 C 0 km/h
945 26-12-2010 08:00:00 -5.84 C 2.36 g/m*3 -5.84 C 0 km/h
946 26-12-2010 09:00:00 -4.88 C 2.6 g/m*3 -4.88 C 0 km/h
947 26-12-2010 10:00:00 -4.24 C 2.68 g/m*3 -4.24 C 0 km/h
948 26-12-2010 11:00:00 -3.52 C 2.69 g/m*3 -3.52 C 0 km/h
949 26-12-2010 12:00:00 -3.14 C 2.78 g/m*3 -3.14 C 0 km/h
950 26-12-2010 13:00:00 -2.72 C 2.85 g/m*3 -2.72 C 0 km/h
Sensor: Nr:Datum:Temp:Abs-Feuchte:Windchill:Wind:
Aussen-T/F 951 26-12-2010 14:00:00 -2.66 C 3 g/m*3 -2.66 C 0 km/h
952 26-12-2010 15:00:00 -2.72 C 3.13 g/m*3 -2.72 C 0 km/h
953 26-12-2010 16:00:00 -2.86 C 3.16 g/m*3 -2.86 C 0 km/h
954 26-12-2010 17:00:00 -2.82 C 3.17 g/m*3 -2.82 C 0 km/h
955 26-12-2010 18:00:00 -2.9 C 3.17 g/m*3 -2.9 C 0 km/h
956 26-12-2010 19:00:00 -2.72 C 3.18 g/m*3 -2.72 C 0 km/h
957 26-12-2010 20:00:00 -3.04 C 3.16 g/m*3 -3.04 C 0 km/h
958 26-12-2010 21:00:00 -3.3 C 3.08 g/m*3 -3.3 C 0 km/h
959 26-12-2010 22:00:00 -3.04 C 3.13 g/m*3 -3.04 C 0 km/h
960 26-12-2010 23:00:00 -2.72 C 3.18 g/m*3 -2.72 C 0 km/h
961 27-12-2010 00:00:00 -2.64 C 3.22 g/m*3 -2.64 C 0 km/h
962 27-12-2010 01:00:00 -1.92 C 3.31 g/m*3 -1.92 C 0 km/h
963 27-12-2010 02:00:00 -1.6 C 3.35 g/m*3 -1.6 C 0 km/h
964 27-12-2010 03:00:00 -1.38 C 3.41 g/m*3 -1.38 C 0 km/h
965 27-12-2010 04:00:00 -1.3 C 3.36 g/m*3 -1.3 C 0 km/h
966 27-12-2010 05:00:00 -1.32 C 3.37 g/m*3 -1.32 C 0 km/h
967 27-12-2010 06:00:00 -1.44 C 3.38 g/m*3 -1.44 C 0 km/h
968 27-12-2010 07:00:00 -1.62 C 3.33 g/m*3 -1.62 C 0 km/h
969 27-12-2010 08:00:00 -1.86 C 3.29 g/m*3 -1.86 C 0 km/h
970 27-12-2010 09:00:00 -1.78 C 3.24 g/m*3 -1.78 C 0 km/h
971 27-12-2010 10:00:00 -1.42 C 3.27 g/m*3 -1.42 C 0 km/h
972 27-12-2010 11:00:00 -1.16 C 3.26 g/m*3 -1.16 C 0 km/h
973 27-12-2010 12:00:00 -1.02 C 3.22 g/m*3 -1.02 C 0 km/h
974 27-12-2010 13:00:00 -0.88 C 3.29 g/m*3 -0.88 C 0 km/h
975 27-12-2010 14:00:00 -1.04 C 3.27 g/m*3 -1.04 C 0 km/h
Sensor: Nr:Datum:Temp:Abs-Feuchte:Windchill:Wind:
Aussen-T/F 976 27-12-2010 15:00:00 -1.3 C 3.33 g/m*3 -1.3 C 0 km/h
977 27-12-2010 16:00:00 -2.3 C 3.25 g/m*3 -2.3 C 0 km/h
978 27-12-2010 17:00:00 -3.16 C 3.25 g/m*3 -3.16 C 0 km/h
979 27-12-2010 18:00:00 -3.18 C 3.34 g/m*3 -3.18 C 0 km/h
980 27-12-2010 19:00:00 -3.74 C 3.21 g/m*3 -3.74 C 0 km/h
981 27-12-2010 20:00:00 -4.3 C 3.12 g/m*3 -4.3 C 0 km/h
982 27-12-2010 21:00:00 -4.4 C 3.1 g/m*3 -4.4 C 0 km/h
983 27-12-2010 22:00:00 -4.14 C 3.16 g/m*3 -4.14 C 0 km/h
984 27-12-2010 23:00:00 -4.34 C 3.11 g/m*3 -4.34 C 0 km/h
985 28-12-2010 00:00:00 -4.46 C 3.08 g/m*3 -4.46 C 0 km/h
986 28-12-2010 01:00:00 -4.3 C 3.12 g/m*3 -4.3 C 0 km/h
987 28-12-2010 02:00:00 -4.16 C 3.15 g/m*3 -4.16 C 0 km/h
988 28-12-2010 03:00:00 -4.36 C 3.08 g/m*3 -4.36 C 0 km/h
989 28-12-2010 04:00:00 -4.16 C 3.15 g/m*3 -4.16 C 0 km/h
990 28-12-2010 05:00:00 -3.78 C 3.23 g/m*3 -3.78 C 0 km/h
991 28-12-2010 06:00:00 -3.74 C 3.24 g/m*3 -3.74 C 0 km/h
992 28-12-2010 07:00:00 -3.72 C 3.22 g/m*3 -3.72 C 0 km/h
993 28-12-2010 08:00:00 -3.56 C 3.25 g/m*3 -3.56 C 0 km/h
994 28-12-2010 09:00:00 -2.68 C 3.44 g/m*3 -2.68 C 0 km/h
995 28-12-2010 10:00:00 -1.12 C 3.61 g/m*3 -1.12 C 0 km/h
996 28-12-2010 11:00:00 -0.54 C 3.46 g/m*3 -0.54 C 0 km/h
997 28-12-2010 12:00:00 0.3 C 3.31 g/m*3 0.3 C 0 km/h
998 28-12-2010 13:00:00 0.36 C 3.32 g/m*3 0.36 C 0 km/h
999 28-12-2010 14:00:00 0 C 3.33 g/m*3 0 C 0 km/h
1000 28-12-2010 15:00:00 -0.54 C 3.42 g/m*3 -0.54 C 0 km/h
Sensor: Nr:Datum:Temp:Abs-Feuchte:Windchill:Wind:
Aussen-T/F 1001 28-12-2010 16:00:00 -0.68 C 3.39 g/m*3 -0.68 C 0 km/h
1002 28-12-2010 17:00:00 -0.7 C 3.42 g/m*3 -0.7 C 0 km/h
1003 28-12-2010 18:00:00 -0.88 C 3.38 g/m*3 -0.88 C 0 km/h
1004 28-12-2010 19:00:00 -1.2 C 3.45 g/m*3 -1.2 C 0 km/h
1005 28-12-2010 20:00:00 -1.4 C 3.43 g/m*3 -1.4 C 0 km/h
1006 28-12-2010 21:00:00 -1.86 C 3.4 g/m*3 -1.86 C 0 km/h
1007 28-12-2010 22:00:00 -1.275 C 3.59 g/m*3 -1.27 C 0 km/h
1008 28-12-2010 23:00:00 -1.28 C 3.58 g/m*3 -1.28 C 0 km/h
1009 29-12-2010 00:00:00 -1.32 C 3.56 g/m*3 -1.32 C 0 km/h
1010 29-12-2010 01:00:00 -1.3 C 3.62 g/m*3 -1.3 C 0 km/h
1011 29-12-2010 02:00:00 -1.3 C 3.64 g/m*3 -1.3 C 0 km/h
1012 29-12-2010 03:00:00 -1.22 C 3.68 g/m*3 -1.22 C 0 km/h
1013 29-12-2010 04:00:00 -1.28 C 3.66 g/m*3 -1.28 C 0 km/h
1014 29-12-2010 05:00:00 -1.3 C 3.67 g/m*3 -1.3 C 0 km/h
1015 29-12-2010 06:00:00 -1.2 C 3.73 g/m*3 -1.2 C 0 km/h
1016 29-12-2010 07:00:00 -1.1 C 3.79 g/m*3 -1.1 C 0 km/h
1017 29-12-2010 08:00:00 -1.1 C 3.83 g/m*3 -1.1 C 0 km/h
1018 29-12-2010 09:00:00 -0.74 C 3.88 g/m*3 -0.74 C 0 km/h
1019 29-12-2010 10:00:00 0.14 C 3.75 g/m*3 0.14 C 0 km/h
1020 29-12-2010 11:00:00 0.58 C 3.6 g/m*3 0.58 C 0 km/h
1021 29-12-2010 12:00:00 0.88 C 3.58 g/m*3 0.88 C 0 km/h
1022 29-12-2010 13:00:00 1.34 C 3.61 g/m*3 1.34 C 0 km/h
1023 29-12-2010 14:00:00 1.76 C 3.66 g/m*3 1.76 C 0 km/h
1024 29-12-2010 15:00:00 1.18 C 3.73 g/m*3 1.18 C 0 km/h
1025 29-12-2010 16:00:00 0.62 C 3.85 g/m*3 0.62 C 0 km/h
Sensor: Nr:Datum:Temp:Abs-Feuchte:Windchill:Wind:
Aussen-T/F 1026 29-12-2010 17:00:00 0.28 C 3.85 g/m*3 0.28 C 0 km/h
1027 29-12-2010 18:00:00 0.14 C 3.89 g/m*3 0.14 C 0 km/h
1028 29-12-2010 19:00:00 0.06 C 3.97 g/m*3 0.06 C 0 km/h
1029 29-12-2010 20:00:00 -0.04 C 3.96 g/m*3 -0.04 C 0 km/h
1030 29-12-2010 21:00:00 -0.18 C 3.92 g/m*3 -0.18 C 0 km/h
1031 29-12-2010 22:00:00 -0.32 C 3.84 g/m*3 -0.32 C 0 km/h
1032 29-12-2010 23:00:00 -0.7 C 3.79 g/m*3 -0.7 C 0 km/h
1033 30-12-2010 00:00:00 -0.925 C 3.79 g/m*3 -0.93 C 0 km/h
1034 30-12-2010 01:00:00 -1.32 C 3.7 g/m*3 -1.32 C 0 km/h
1035 30-12-2010 02:00:00 -1.46 C 3.75 g/m*3 -1.46 C 0 km/h
1036 30-12-2010 03:00:00 -1.14 C 3.85 g/m*3 -1.14 C 0 km/h
1037 30-12-2010 04:00:00 -1.14 C 3.76 g/m*3 -1.14 C 0 km/h
1038 30-12-2010 05:00:00 -2.82 C 3.25 g/m*3 -2.82 C 0 km/h
1039 30-12-2010 06:00:00 -1.24 C 3.53 g/m*3 -1.24 C 0 km/h
1040 30-12-2010 07:00:00 -1.34 C 3.44 g/m*3 -1.34 C 0 km/h
1041 30-12-2010 08:00:00 -1.4 C 3.45 g/m*3 -1.4 C 0 km/h
1042 30-12-2010 09:00:00 -1.1 C 3.47 g/m*3 -1.1 C 0 km/h
1043 30-12-2010 10:00:00 -0.45 C 3.46 g/m*3 -0.45 C 0 km/h
1044 30-12-2010 11:00:00 0.08 C 3.53 g/m*3 0.08 C 0 km/h
1045 30-12-2010 12:00:00 0.6 C 3.59 g/m*3 0.6 C 0 km/h
1046 30-12-2010 13:00:00 1.2 C 3.59 g/m*3 1.2 C 0 km/h
1047 30-12-2010 14:00:00 1.32 C 3.61 g/m*3 1.32 C 0 km/h
1048 30-12-2010 15:00:00 0.98 C 3.67 g/m*3 0.98 C 0 km/h
1049 30-12-2010 16:00:00 0.3 C 3.73 g/m*3 0.3 C 0 km/h
1050 30-12-2010 17:00:00 0.04 C 3.74 g/m*3 0.04 C 0 km/h
Sensor: Nr:Datum:Temp:Abs-Feuchte:Windchill:Wind:
Aussen-T/F 1051 30-12-2010 18:00:00 -0.3 C 3.68 g/m*3 -0.3 C 0 km/h
1052 30-12-2010 19:00:00 -0.44 C 3.75 g/m*3 -0.44 C 0 km/h
1053 30-12-2010 20:00:00 -0.48 C 3.71 g/m*3 -0.48 C 0 km/h
1054 30-12-2010 21:00:00 -0.6 C 3.63 g/m*3 -0.6 C 0 km/h
1055 30-12-2010 22:00:00 -0.78 C 3.59 g/m*3 -0.78 C 0 km/h
1056 30-12-2010 23:00:00 -0.96 C 3.51 g/m*3 -0.96 C 0 km/h
1057 31-12-2010 00:00:00 -1.1 C 3.49 g/m*3 -1.1 C 0 km/h
1058 31-12-2010 01:00:00 -1.14 C 3.54 g/m*3 -1.14 C 0 km/h
1059 31-12-2010 02:00:00 -1.34 C 3.49 g/m*3 -1.34 C 0 km/h
1060 31-12-2010 03:00:00 -1.76 C 3.4 g/m*3 -1.76 C 0 km/h
1061 31-12-2010 04:00:00 -1.98 C 3.38 g/m*3 -1.98 C 0 km/h
1062 31-12-2010 05:00:00 -2.12 C 3.34 g/m*3 -2.12 C 0 km/h
1063 31-12-2010 06:00:00 -2.26 C 3.29 g/m*3 -2.26 C 0 km/h
1064 31-12-2010 07:00:00 -2.12 C 3.36 g/m*3 -2.12 C 0 km/h
1065 31-12-2010 08:00:00 -2.12 C 3.39 g/m*3 -2.12 C 0 km/h
1066 31-12-2010 09:00:00 -2.18 C 3.35 g/m*3 -2.18 C 0 km/h
1067 31-12-2010 10:00:00 -1.9 C 3.35 g/m*3 -1.9 C 0 km/h
1068 31-12-2010 11:00:00 -1.22 C 3.38 g/m*3 -1.22 C 0 km/h
1069 31-12-2010 12:00:00 -0.92 C 3.41 g/m*3 -0.92 C 0 km/h
1070 31-12-2010 13:00:00 -0.18 C 3.46 g/m*3 -0.18 C 0 km/h
1071 31-12-2010 14:00:00 0.24 C 3.37 g/m*3 0.24 C 0 km/h
1072 31-12-2010 15:00:00 -0.34 C 3.43 g/m*3 -0.34 C 0 km/h
1073 31-12-2010 16:00:00 -0.56 C 3.52 g/m*3 -0.56 C 0 km/h
1074 31-12-2010 17:00:00 -0.6 C 3.63 g/m*3 -0.6 C 0 km/h
1075 31-12-2010 18:00:00 -0.54 C 3.76 g/m*3 -0.54 C 0 km/h
Sensor: Nr:Datum:Temp:Abs-Feuchte:Windchill:Wind:
Aussen-T/F 1076 31-12-2010 19:00:00 -0.6 C 3.82 g/m*3 -0.6 C 0 km/h
1077 31-12-2010 20:00:00 -0.64 C 3.94 g/m*3 -0.64 C 0 km/h
1078 31-12-2010 21:00:00 -0.58 C 4.02 g/m*3 -0.58 C 0 km/h
1079 31-12-2010 22:00:00 -0.38 C 4.11 g/m*3 -0.38 C 0 km/h
1080 31-12-2010 23:00:00 -0.325 C 4.12 g/m*3 -0.33 C 0 km/h
1081 01-01-2011 00:00:00 -0.32 C 4.12 g/m*3 -0.32 C 0 km/h
1082 01-01-2011 01:00:00 -0.28 C 4.18 g/m*3 -0.28 C 0 km/h
1083 01-01-2011 02:00:00 -0.14 C 4.22 g/m*3 -0.14 C 0 km/h
1084 01-01-2011 03:00:00 -0.13333 C 4.22 g/m*3 -0.13 C 0 km/h
1085 01-01-2011 04:00:00 -0.2 C 4.21 g/m*3 -0.2 C 0 km/h
1086 01-01-2011 05:00:00 -0.02 C 4.3 g/m*3 -0.02 C 0 km/h
1087 01-01-2011 06:00:00 0.36 C 4.29 g/m*3 0.36 C 0 km/h
1088 01-01-2011 07:00:00 0.5 C 4.25 g/m*3 0.5 C 0 km/h
1089 01-01-2011 08:00:00 0.82 C 4.3 g/m*3 0.82 C 0 km/h
1090 01-01-2011 09:00:00 1.08 C 4.38 g/m*3 1.08 C 0 km/h
1091 01-01-2011 10:00:00 1.36 C 4.59 g/m*3 1.36 C 0 km/h
1092 01-01-2011 11:00:00 1.94 C 4.68 g/m*3 1.94 C 0 km/h
1093 01-01-2011 12:00:00 2.44 C 4.63 g/m*3 2.44 C 0 km/h
1094 01-01-2011 13:00:00 2.92 C 4.62 g/m*3 2.92 C 0 km/h
1095 01-01-2011 14:00:00 2.54 C 4.63 g/m*3 2.54 C 0 km/h
1096 01-01-2011 15:00:00 2.02 C 4.64 g/m*3 2.02 C 0 km/h
1097 01-01-2011 16:00:00 1.58 C 4.73 g/m*3 1.58 C 0 km/h
1098 01-01-2011 17:00:00 1.34 C 4.75 g/m*3 1.34 C 0 km/h
1099 01-01-2011 18:00:00 1.46 C 4.87 g/m*3 1.46 C 0 km/h
1100 01-01-2011 19:00:00 1.96 C 5.05 g/m*3 1.96 C 0 km/h
Sensor: Nr:Datum:Temp:Abs-Feuchte:Windchill:Wind:
Aussen-T/F 1101 01-01-2011 20:00:00 1.72 C 4.93 g/m*3 1.72 C 0 km/h
1102 01-01-2011 21:00:00 1.18 C 4.73 g/m*3 1.18 C 0 km/h
1103 01-01-2011 22:00:00 1.06 C 4.73 g/m*3 1.06 C 0 km/h
1104 01-01-2011 23:00:00 0.3 C 4.5 g/m*3 0.3 C 0 km/h
1105 02-01-2011 00:00:00 0.18 C 4.5 g/m*3 0.18 C 0 km/h
1106 02-01-2011 01:00:00 0.32 C 4.57 g/m*3 0.32 C 0 km/h
1107 02-01-2011 02:00:00 0.36 C 4.61 g/m*3 0.36 C 0 km/h
1108 02-01-2011 03:00:00 0.44 C 4.64 g/m*3 0.44 C 0 km/h
1109 02-01-2011 04:00:00 0.5 C 4.65 g/m*3 0.5 C 0 km/h
1110 02-01-2011 05:00:00 0.28 C 4.54 g/m*3 0.28 C 0 km/h
1111 02-01-2011 06:00:00 0.3 C 4.54 g/m*3 0.3 C 0 km/h
1112 02-01-2011 07:00:00 0.3 C 4.47 g/m*3 0.3 C 0 km/h
1113 02-01-2011 08:00:00 0.12 C 4.34 g/m*3 0.12 C 0 km/h
1114 02-01-2011 09:00:00 0.54 C 4.48 g/m*3 0.54 C 0 km/h
1115 02-01-2011 10:00:00 1.42 C 4.47 g/m*3 1.42 C 0 km/h
1116 02-01-2011 11:00:00 1.8 C 4.16 g/m*3 1.8 C 0 km/h
1117 02-01-2011 12:00:00 2.06 C 4.16 g/m*3 2.06 C 0 km/h
1118 02-01-2011 13:00:00 2.5 C 4.14 g/m*3 2.5 C 0 km/h
1119 02-01-2011 14:00:00 2.22 C 4.07 g/m*3 2.22 C 0 km/h
1120 02-01-2011 15:00:00 1.7 C 4.03 g/m*3 1.7 C 0 km/h
1121 02-01-2011 16:00:00 1.44 C 4.19 g/m*3 1.44 C 0 km/h
1122 02-01-2011 17:00:00 0.66 C 4.36 g/m*3 0.66 C 0 km/h
1123 02-01-2011 18:00:00 0.62 C 4.45 g/m*3 0.62 C 0 km/h
1124 02-01-2011 19:00:00 0.58 C 4.44 g/m*3 0.58 C 0 km/h
1125 02-01-2011 20:00:00 0.42 C 4.36 g/m*3 0.42 C 0 km/h
Sensor: Nr:Datum:Temp:Abs-Feuchte:Windchill:Wind:
Aussen-T/F 1126 02-01-2011 21:00:00 0.18 C 4.32 g/m*3 0.18 C 0 km/h
1127 02-01-2011 22:00:00 0.2 C 4.29 g/m*3 0.2 C 0 km/h
1128 02-01-2011 23:00:00 0.12 C 4.3 g/m*3 0.12 C 0 km/h
1129 03-01-2011 00:00:00 0.12 C 4.34 g/m*3 0.12 C 0 km/h
1130 03-01-2011 01:00:00 0.06 C 4.28 g/m*3 0.06 C 0 km/h
1131 03-01-2011 02:00:00 -0.16 C 4.22 g/m*3 -0.16 C 0 km/h
1132 03-01-2011 03:00:00 -0.3 C 4.12 g/m*3 -0.3 C 0 km/h
1133 03-01-2011 04:00:00 -0.88 C 3.85 g/m*3 -0.88 C 0 km/h
1134 03-01-2011 05:00:00 -1.04 C 3.84 g/m*3 -1.04 C 0 km/h
1135 03-01-2011 06:00:00 -1.12 C 3.88 g/m*3 -1.12 C 0 km/h
1136 03-01-2011 07:00:00 -1.08 C 3.99 g/m*3 -1.08 C 0 km/h
1137 03-01-2011 08:00:00 -1.3 C 3.9 g/m*3 -1.3 C 0 km/h
1138 03-01-2011 09:00:00 -1.22 C 3.93 g/m*3 -1.22 C 0 km/h
1139 03-01-2011 10:00:00 -1.02 C 3.86 g/m*3 -1.02 C 0 km/h
1140 03-01-2011 11:00:00 -0.3 C 3.73 g/m*3 -0.3 C 0 km/h
1141 03-01-2011 12:00:00 0.26 C 3.73 g/m*3 0.26 C 0 km/h
1142 03-01-2011 13:00:00 0.92 C 3.81 g/m*3 0.92 C 0 km/h
1143 03-01-2011 14:00:00 0.86 C 3.86 g/m*3 0.86 C 0 km/h
1144 03-01-2011 15:00:00 -0.08 C 3.74 g/m*3 -0.08 C 0 km/h
1145 03-01-2011 16:00:00 -1.54 C 3.65 g/m*3 -1.54 C 0 km/h
1146 03-01-2011 17:00:00 -2.46 C 3.53 g/m*3 -2.46 C 0 km/h
1147 03-01-2011 18:00:00 -1.3 C 3.93 g/m*3 -1.3 C 0 km/h
1148 03-01-2011 19:00:00 -1.22 C 3.98 g/m*3 -1.22 C 0 km/h
1149 03-01-2011 20:00:00 -2 C 3.76 g/m*3 -2 C 0 km/h
1150 03-01-2011 21:00:00 -2.5 C 3.63 g/m*3 -2.5 C 0 km/h
Sensor: Nr:Datum:Temp:Abs-Feuchte:Windchill:Wind:
Aussen-T/F 1151 03-01-2011 22:00:00 -1.6 C 3.9 g/m*3 -1.6 C 0 km/h
1152 03-01-2011 23:00:00 -3 C 3.53 g/m*3 -3 C 0 km/h
1153 04-01-2011 00:00:00 -3.64 C 3.38 g/m*3 -3.64 C 0 km/h
1154 04-01-2011 01:00:00 -3.94 C 3.29 g/m*3 -3.94 C 0 km/h
1155 04-01-2011 02:00:00 -3.3 C 3.46 g/m*3 -3.3 C 0 km/h
1156 04-01-2011 03:00:00 -3.18 C 3.47 g/m*3 -3.18 C 0 km/h
1157 04-01-2011 04:00:00 -3.44 C 3.4 g/m*3 -3.44 C 0 km/h
1158 04-01-2011 05:00:00 -3.74 C 3.3 g/m*3 -3.74 C 0 km/h
1159 04-01-2011 06:00:00 -3.84 C 3.27 g/m*3 -3.84 C 0 km/h
1160 04-01-2011 07:00:00 -2.72 C 3.57 g/m*3 -2.72 C 0 km/h
1161 04-01-2011 08:00:00 -2.14 C 3.76 g/m*3 -2.14 C 0 km/h
1162 04-01-2011 09:00:00 -1.88 C 3.83 g/m*3 -1.88 C 0 km/h
1163 04-01-2011 10:00:00 -1.02 C 4.06 g/m*3 -1.02 C 0 km/h
1164 04-01-2011 11:00:00 -0.42 C 4.05 g/m*3 -0.42 C 0 km/h
1165 04-01-2011 12:00:00 -0.26 C 3.46 g/m*3 -0.26 C 0 km/h
1166 04-01-2011 13:00:00 0.1 C 3.4 g/m*3 0.1 C 0 km/h
1167 04-01-2011 14:00:00 0.06 C 3.33 g/m*3 0.06 C 0 km/h
1168 04-01-2011 15:00:00 -0.92 C 3.25 g/m*3 -0.92 C 0 km/h
1169 04-01-2011 16:00:00 -1.18 C 3.26 g/m*3 -1.18 C 0 km/h
1170 04-01-2011 17:00:00 -2 C 3.21 g/m*3 -2 C 0 km/h
1171 04-01-2011 18:00:00 -2.22 C 3.18 g/m*3 -2.22 C 0 km/h
1172 04-01-2011 19:00:00 -3.56 C 2.94 g/m*3 -3.56 C 0 km/h
1173 04-01-2011 20:00:00 -4.2 C 2.89 g/m*3 -4.2 C 0 km/h
1174 04-01-2011 21:00:00 -3.72 C 2.98 g/m*3 -3.72 C 0 km/h
1175 04-01-2011 22:00:00 -2.82 C 2.86 g/m*3 -2.82 C 0 km/h
Sensor: Nr:Datum:Temp:Abs-Feuchte:Windchill:Wind:
Aussen-T/F 1176 04-01-2011 23:00:00 -2.82 C 2.83 g/m*3 -2.82 C 0 km/h
1177 05-01-2011 00:00:00 -2.88 C 2.88 g/m*3 -2.88 C 0 km/h
1178 05-01-2011 01:00:00 -2.98 C 2.74 g/m*3 -2.98 C 0 km/h
1179 05-01-2011 02:00:00 -2.92 C 2.75 g/m*3 -2.92 C 0 km/h
1180 05-01-2011 03:00:00 -2.96 C 2.76 g/m*3 -2.96 C 0 km/h
1181 05-01-2011 04:00:00 -3.56 C 2.54 g/m*3 -3.56 C 0 km/h
1182 05-01-2011 05:00:00 -4.06 C 2.5 g/m*3 -4.06 C 0 km/h
1183 05-01-2011 06:00:00 -4.88 C 2.36 g/m*3 -4.88 C 0 km/h
1184 05-01-2011 07:00:00 -6.04 C 2.24 g/m*3 -6.04 C 0 km/h
1185 05-01-2011 08:00:00 -7.46 C 2.16 g/m*3 -7.46 C 0 km/h
1186 05-01-2011 09:00:00 -6.64 C 2.35 g/m*3 -6.64 C 0 km/h
1187 05-01-2011 10:00:00 -4.26 C 2.44 g/m*3 -4.26 C 0 km/h
1188 05-01-2011 11:00:00 -3.2 C 2.38 g/m*3 -3.2 C 0 km/h
1189 05-01-2011 12:00:00 -3.68 C 2.34 g/m*3 -3.68 C 0 km/h
1190 05-01-2011 13:00:00 -3.76 C 2.43 g/m*3 -3.76 C 0 km/h
1191 05-01-2011 14:00:00 -3.38 C 2.52 g/m*3 -3.38 C 0 km/h
1192 05-01-2011 15:00:00 -3.74 C 2.56 g/m*3 -3.74 C 0 km/h
1193 05-01-2011 16:00:00 -4.44 C 2.56 g/m*3 -4.44 C 0 km/h
1194 05-01-2011 17:00:00 -5.7 C 2.52 g/m*3 -5.7 C 0 km/h
1195 05-01-2011 18:00:00 -5.7 C 2.6 g/m*3 -5.7 C 0 km/h
1196 05-01-2011 19:00:00 -3.86 C 2.93 g/m*3 -3.86 C 0 km/h
1197 05-01-2011 20:00:00 -2.66 C 3.07 g/m*3 -2.66 C 0 km/h
1198 05-01-2011 21:00:00 -1.68 C 3.21 g/m*3 -1.68 C 0 km/h
1199 05-01-2011 22:00:00 -1.06 C 3.5 g/m*3 -1.06 C 0 km/h
1200 05-01-2011 23:00:00 -0.56 C 3.76 g/m*3 -0.56 C 0 km/h
Sensor: Nr:Datum:Temp:Abs-Feuchte:Windchill:Wind:
Aussen-T/F 1201 06-01-2011 00:00:00 -0.58 C 3.83 g/m*3 -0.58 C 0 km/h
1202 06-01-2011 01:00:00 -0.22 C 3.97 g/m*3 -0.22 C 0 km/h
1203 06-01-2011 02:00:00 0.3 C 4.29 g/m*3 0.3 C 0 km/h
1204 06-01-2011 03:00:00 0.64 C 4.54 g/m*3 0.64 C 0 km/h
1205 06-01-2011 04:00:00 0.88 C 4.68 g/m*3 0.88 C 0 km/h
1206 06-01-2011 05:00:00 1.04 C 4.74 g/m*3 1.04 C 0 km/h
1207 06-01-2011 06:00:00 1.26 C 4.86 g/m*3 1.26 C 0 km/h
1208 06-01-2011 07:00:00 1.38 C 4.9 g/m*3 1.38 C 0 km/h
1209 06-01-2011 08:00:00 1.54 C 4.97 g/m*3 1.54 C 0 km/h
1210 06-01-2011 09:00:00 2.54 C 5.3 g/m*3 2.54 C 0 km/h
1211 06-01-2011 10:00:00 4.5 C 6.03 g/m*3 4.5 C 0 km/h
1212 06-01-2011 11:00:00 6.08 C 6.27 g/m*3 6.08 C 0 km/h
1213 06-01-2011 12:00:00 5.34 C 5.8 g/m*3 5.34 C 0 km/h
1214 06-01-2011 13:00:00 4.5 C 5.69 g/m*3 4.5 C 0 km/h
1215 06-01-2011 14:00:00 4.12 C 5.59 g/m*3 4.12 C 0 km/h
1216 06-01-2011 15:00:00 3.94 C 5.62 g/m*3 3.94 C 0 km/h
1217 06-01-2011 16:00:00 3.92 C 5.65 g/m*3 3.92 C 0 km/h
1218 06-01-2011 17:00:00 4.14 C 5.79 g/m*3 4.14 C 0 km/h
1219 06-01-2011 18:00:00 4.6 C 6.02 g/m*3 4.6 C 0 km/h
1220 06-01-2011 19:00:00 5.02 C 6.23 g/m*3 5.02 C 0 km/h
1221 06-01-2011 20:00:00 7.36 C 7.14 g/m*3 7.36 C 0 km/h
1222 06-01-2011 21:00:00 8.56 C 7.35 g/m*3 8.56 C 0 km/h
1223 06-01-2011 22:00:00 9.5 C 7.14 g/m*3 9.5 C 0 km/h
1224 06-01-2011 23:00:00 9.08 C 7 g/m*3 9.08 C 0 km/h
1225 07-01-2011 00:00:00 7.38 C 6.64 g/m*3 7.38 C 0 km/h
Sensor: Nr:Datum:Temp:Abs-Feuchte:Windchill:Wind:
Aussen-T/F 1226 07-01-2011 01:00:00 6.64 C 6.66 g/m*3 6.64 C 0 km/h
1227 07-01-2011 02:00:00 5.82 C 6.46 g/m*3 5.82 C 0 km/h
1228 07-01-2011 03:00:00 5.62 C 6.44 g/m*3 5.62 C 0 km/h
1229 07-01-2011 04:00:00 5.36 C 6.33 g/m*3 5.36 C 0 km/h
1230 07-01-2011 05:00:00 5.28 C 6.34 g/m*3 5.28 C 0 km/h
1231 07-01-2011 06:00:00 4.9 C 6.18 g/m*3 4.9 C 0 km/h
1232 07-01-2011 07:00:00 5.04 C 6.27 g/m*3 5.04 C 0 km/h
1233 07-01-2011 08:00:00 4.88 C 6.2 g/m*3 4.88 C 0 km/h
1234 07-01-2011 09:00:00 4.9 C 6.21 g/m*3 4.9 C 0 km/h
1235 07-01-2011 10:00:00 5.5 C 6.43 g/m*3 5.5 C 0 km/h
1236 07-01-2011 11:00:00 6.76 C 6.94 g/m*3 6.76 C 0 km/h
1237 07-01-2011 12:00:00 7.28 C 7.12 g/m*3 7.28 C 0 km/h
1238 07-01-2011 13:00:00 7.38 C 7.12 g/m*3 7.38 C 0 km/h
1239 07-01-2011 14:00:00 7.42 C 7.13 g/m*3 7.42 C 0 km/h
1240 07-01-2011 15:00:00 7.18 C 7.06 g/m*3 7.18 C 0 km/h
1241 07-01-2011 16:00:00 7.06 C 7.02 g/m*3 7.06 C 0 km/h
1242 07-01-2011 17:00:00 7.52 C 7.29 g/m*3 7.52 C 0 km/h
1243 07-01-2011 18:00:00 9.32 C 8.08 g/m*3 9.32 C 0 km/h
1244 07-01-2011 19:00:00 9.44 C 7.83 g/m*3 9.44 C 0 km/h
1245 07-01-2011 20:00:00 8.9 C 7.78 g/m*3 8.9 C 0 km/h
1246 07-01-2011 21:00:00 9 C 7.86 g/m*3 9 C 0 km/h
1247 07-01-2011 22:00:00 8.7 C 7.66 g/m*3 8.7 C 0 km/h
1248 07-01-2011 23:00:00 8.76 C 7.71 g/m*3 8.76 C 0 km/h
1249 08-01-2011 00:00:00 8.64 C 7.5 g/m*3 8.64 C 0 km/h
1250 08-01-2011 01:00:00 7.46 C 7.09 g/m*3 7.46 C 0 km/h
Sensor: Nr:Datum:Temp:Abs-Feuchte:Windchill:Wind:
Aussen-T/F 1251 08-01-2011 02:00:00 6.72 C 6.89 g/m*3 6.72 C 0 km/h
1252 08-01-2011 03:00:00 7.92 C 7.5 g/m*3 7.92 C 0 km/h
1253 08-01-2011 04:00:00 7.88 C 7.51 g/m*3 7.88 C 0 km/h
1254 08-01-2011 05:00:00 7.94 C 7.56 g/m*3 7.94 C 0 km/h
1255 08-01-2011 06:00:00 7.98 C 7.63 g/m*3 7.98 C 0 km/h
1256 08-01-2011 07:00:00 8.16 C 7.7 g/m*3 8.16 C 0 km/h
1257 08-01-2011 08:00:00 8.34 C 7.81 g/m*3 8.34 C 0 km/h
1258 08-01-2011 09:00:00 8.7 C 7.94 g/m*3 8.7 C 0 km/h
1259 08-01-2011 10:00:00 7.78 C 7.48 g/m*3 7.78 C 0 km/h
1260 08-01-2011 11:00:00 10.2 C 7.88 g/m*3 10.2 C 0 km/h
1261 08-01-2011 12:00:00 13.1 C 6.6 g/m*3 13.1 C 0 km/h
1262 08-01-2011 13:00:00 14.18 C 6.07 g/m*3 14.18 C 0 km/h
1263 08-01-2011 14:00:00 14.4 C 5.86 g/m*3 14.4 C 0 km/h
1264 08-01-2011 15:00:00 14.12 C 5.86 g/m*3 14.12 C 0 km/h
1265 08-01-2011 16:00:00 13.6 C 5.86 g/m*3 13.6 C 0 km/h
1266 08-01-2011 17:00:00 13.28 C 5.91 g/m*3 13.28 C 0 km/h
1267 08-01-2011 18:00:00 13.44 C 5.87 g/m*3 13.44 C 0 km/h
1268 08-01-2011 19:00:00 13.16 C 5.93 g/m*3 13.16 C 0 km/h
1269 08-01-2011 20:00:00 12.32 C 6.35 g/m*3 12.32 C 0 km/h
1270 08-01-2011 21:00:00 12.04 C 6.6 g/m*3 12.04 C 0 km/h
1271 08-01-2011 22:00:00 11.94 C 6.56 g/m*3 11.94 C 0 km/h
1272 08-01-2011 23:00:00 10.32 C 7.13 g/m*3 10.32 C 0 km/h
1273 09-01-2011 00:00:00 9.64 C 7.66 g/m*3 9.64 C 0 km/h
1274 09-01-2011 01:00:00 9.62 C 7.98 g/m*3 9.62 C 0 km/h
1275 09-01-2011 02:00:00 9.78 C 7.93 g/m*3 9.78 C 0 km/h
Sensor: Nr:Datum:Temp:Abs-Feuchte:Windchill:Wind:
Aussen-T/F 1276 09-01-2011 03:00:00 9.32 C 7.77 g/m*3 9.32 C 0 km/h
1277 09-01-2011 04:00:00 10.92 C 7.59 g/m*3 10.92 C 0 km/h
1278 09-01-2011 05:00:00 11.08 C 7.1 g/m*3 11.08 C 0 km/h
1279 09-01-2011 06:00:00 7.3 C 6.54 g/m*3 7.3 C 0 km/h
1280 09-01-2011 07:00:00 6.12 C 6.39 g/m*3 6.12 C 0 km/h
1281 09-01-2011 08:00:00 5.16 C 6.04 g/m*3 5.16 C 0 km/h
1282 09-01-2011 09:00:00 3.98 C 5.5 g/m*3 3.98 C 0 km/h
1283 09-01-2011 10:00:00 3.02 C 5.18 g/m*3 3.02 C 0 km/h
1284 09-01-2011 11:00:00 4.1 C 5.47 g/m*3 4.1 C 0 km/h
1285 09-01-2011 12:00:00 4.56 C 5.39 g/m*3 4.56 C 0 km/h
1286 09-01-2011 13:00:00 5.08 C 5.33 g/m*3 5.08 C 0 km/h
1287 09-01-2011 14:00:00 5.24 C 5.26 g/m*3 5.24 C 0 km/h
1288 09-01-2011 15:00:00 4.58 C 5.43 g/m*3 4.58 C 0 km/h
1289 09-01-2011 16:00:00 3.26 C 5.29 g/m*3 3.26 C 0 km/h
1290 09-01-2011 17:00:00 2.78 C 5.24 g/m*3 2.78 C 0 km/h
1291 09-01-2011 18:00:00 1.76 C 4.96 g/m*3 1.76 C 0 km/h
1292 09-01-2011 19:00:00 1.8 C 5.04 g/m*3 1.8 C 0 km/h
1293 09-01-2011 20:00:00 1.24 C 4.84 g/m*3 1.24 C 0 km/h
1294 09-01-2011 21:00:00 0.64 C 4.68 g/m*3 0.64 C 0 km/h
1295 09-01-2011 22:00:00 0.075 C 4.49 g/m*3 0.08 C 0 km/h
1296 09-01-2011 23:00:00 0.02 C 4.51 g/m*3 0.02 C 0 km/h
1297 10-01-2011 00:00:00 0.16 C 4.56 g/m*3 0.16 C 0 km/h
1298 10-01-2011 01:00:00 0.28 C 4.61 g/m*3 0.28 C 0 km/h
1299 10-01-2011 02:00:00 0.02 C 4.55 g/m*3 0.02 C 0 km/h
1300 10-01-2011 03:00:00 0.2 C 4.62 g/m*3 0.2 C 0 km/h
Sensor: Nr:Datum:Temp:Abs-Feuchte:Windchill:Wind:
Aussen-T/F 1301 10-01-2011 04:00:00 0.38 C 4.68 g/m*3 0.38 C 0 km/h
1302 10-01-2011 05:00:00 0.26 C 4.63 g/m*3 0.26 C 0 km/h
1303 10-01-2011 06:00:00 0.2 C 4.57 g/m*3 0.2 C 0 km/h
1304 10-01-2011 07:00:00 0.1 C 4.54 g/m*3 0.1 C 0 km/h
1305 10-01-2011 08:00:00 0.18 C 4.5 g/m*3 0.18 C 0 km/h
1306 10-01-2011 09:00:00 0.32 C 4.45 g/m*3 0.32 C 0 km/h
1307 10-01-2011 10:00:00 0.54 C 4.37 g/m*3 0.54 C 0 km/h
1308 10-01-2011 11:00:00 0.88 C 4.22 g/m*3 0.88 C 0 km/h
1309 10-01-2011 12:00:00 1.78 C 4.3 g/m*3 1.78 C 0 km/h
1310 10-01-2011 13:00:00 2.1 C 4.39 g/m*3 2.1 C 0 km/h
1311 10-01-2011 14:00:00 2.26 C 4.42 g/m*3 2.26 C 0 km/h
1312 10-01-2011 15:00:00 2.1 C 4.36 g/m*3 2.1 C 0 km/h
1313 10-01-2011 16:00:00 1.86 C 4.33 g/m*3 1.86 C 0 km/h
1314 10-01-2011 17:00:00 0.84 C 4.24 g/m*3 0.84 C 0 km/h
1315 10-01-2011 18:00:00 0.22 C 4.16 g/m*3 0.22 C 0 km/h
1316 10-01-2011 19:00:00 0.26 C 4.32 g/m*3 0.26 C 0 km/h
1317 10-01-2011 20:00:00 0.68 C 4.35 g/m*3 0.68 C 0 km/h
1318 10-01-2011 21:00:00 0.56 C 4.04 g/m*3 0.56 C 0 km/h
1319 10-01-2011 22:00:00 0.5 C 4.05 g/m*3 0.5 C 0 km/h
1320 10-01-2011 23:00:00 0.54 C 4.04 g/m*3 0.54 C 0 km/h
1321 11-01-2011 00:00:00 0.16 C 3.93 g/m*3 0.16 C 0 km/h
1322 11-01-2011 01:00:00 -0.12 C 4.08 g/m*3 -0.12 C 0 km/h
1323 11-01-2011 02:00:00 0.78 C 4.17 g/m*3 0.78 C 0 km/h
1324 11-01-2011 03:00:00 0.72 C 4.05 g/m*3 0.72 C 0 km/h
1325 11-01-2011 04:00:00 0.42 C 4.05 g/m*3 0.42 C 0 km/h
Sensor: Nr:Datum:Temp:Abs-Feuchte:Windchill:Wind:
Aussen-T/F 1326 11-01-2011 05:00:00 1.1 C 4.13 g/m*3 1.1 C 0 km/h
1327 11-01-2011 06:00:00 1.26 C 4.2 g/m*3 1.26 C 0 km/h
1328 11-01-2011 07:00:00 1.42 C 4.33 g/m*3 1.42 C 0 km/h
1329 11-01-2011 08:00:00 1.5 C 4.45 g/m*3 1.5 C 0 km/h
1330 11-01-2011 09:00:00 2.06 C 4.66 g/m*3 2.06 C 0 km/h
1331 11-01-2011 10:00:00 3.04 C 4.63 g/m*3 3.04 C 0 km/h
1332 11-01-2011 11:00:00 3.28 C 4.9 g/m*3 3.28 C 0 km/h
1333 11-01-2011 12:00:00 5.5 C 4.62 g/m*3 5.5 C 0 km/h
1334 11-01-2011 13:00:00 5.3 C 4.75 g/m*3 5.3 C 0 km/h
1335 11-01-2011 14:00:00 5.3 C 4.89 g/m*3 5.3 C 0 km/h
1336 11-01-2011 15:00:00 5.36 C 5.07 g/m*3 5.36 C 0 km/h
1337 11-01-2011 16:00:00 4.58 C 5.42 g/m*3 4.58 C 0 km/h
1338 11-01-2011 17:00:00 5.1 C 5.46 g/m*3 5.1 C 0 km/h
1339 11-01-2011 18:00:00 5.48 C 5.51 g/m*3 5.48 C 0 km/h
1340 11-01-2011 19:00:00 5.98 C 5.57 g/m*3 5.98 C 0 km/h
1341 11-01-2011 20:00:00 6.14 C 5.6 g/m*3 6.14 C 0 km/h
1342 11-01-2011 21:00:00 6.16 C 5.66 g/m*3 6.16 C 0 km/h
1343 11-01-2011 22:00:00 5.96 C 5.91 g/m*3 5.96 C 0 km/h
1344 11-01-2011 23:00:00 6 C 6.01 g/m*3 6 C 0 km/h
1345 12-01-2011 00:00:00 6.14 C 5.46 g/m*3 6.14 C 0 km/h
1346 12-01-2011 01:00:00 5.96 C 5.23 g/m*3 5.96 C 0 km/h
1347 12-01-2011 02:00:00 5.9 C 5.06 g/m*3 5.9 C 0 km/h
1348 12-01-2011 03:00:00 4.92 C 5.18 g/m*3 4.92 C 0 km/h
1349 12-01-2011 04:00:00 4.08 C 5.34 g/m*3 4.08 C 0 km/h
1350 12-01-2011 05:00:00 3.76 C 5.24 g/m*3 3.76 C 0 km/h
Sensor: Nr:Datum:Temp:Abs-Feuchte:Windchill:Wind:
Aussen-T/F 1351 12-01-2011 06:00:00 3.56 C 5.12 g/m*3 3.56 C 0 km/h
1352 12-01-2011 07:00:00 3.32 C 5.02 g/m*3 3.32 C 0 km/h
1353 12-01-2011 08:00:00 2.98 C 4.99 g/m*3 2.98 C 0 km/h
1354 12-01-2011 09:00:00 3.84 C 5.04 g/m*3 3.84 C 0 km/h
1355 12-01-2011 10:00:00 4.82 C 4.87 g/m*3 4.82 C 0 km/h
1356 12-01-2011 11:00:00 5.26 C 4.85 g/m*3 5.26 C 0 km/h
1357 12-01-2011 12:00:00 4.88 C 5.08 g/m*3 4.88 C 0 km/h
1358 12-01-2011 13:00:00 4.9 C 5.37 g/m*3 4.9 C 0 km/h
1359 12-01-2011 14:00:00 5.12 C 5.52 g/m*3 5.12 C 0 km/h
1360 12-01-2011 15:00:00 5.42 C 5.51 g/m*3 5.42 C 0 km/h
1361 12-01-2011 16:00:00 6.04 C 5.47 g/m*3 6.04 C 0 km/h
1362 12-01-2011 17:00:00 6.2 C 5.6 g/m*3 6.2 C 0 km/h
1363 12-01-2011 18:00:00 6.12 C 5.91 g/m*3 6.12 C 0 km/h
1364 12-01-2011 19:00:00 6.3 C 6.17 g/m*3 6.3 C 0 km/h
1365 12-01-2011 20:00:00 6.98 C 6.28 g/m*3 6.98 C 0 km/h
1366 12-01-2011 21:00:00 7.34 C 6.51 g/m*3 7.34 C 0 km/h
1367 12-01-2011 22:00:00 7.96 C 6.71 g/m*3 7.96 C 0 km/h
1368 12-01-2011 23:00:00 8.76 C 6.82 g/m*3 8.76 C 0 km/h
1369 13-01-2011 00:00:00 9.3 C 6.99 g/m*3 9.3 C 0 km/h
1370 13-01-2011 01:00:00 9.98 C 7.26 g/m*3 9.98 C 0 km/h
1371 13-01-2011 02:00:00 10.6 C 7.55 g/m*3 10.6 C 0 km/h
1372 13-01-2011 03:00:00 10.32 C 7.84 g/m*3 10.32 C 0 km/h
1373 13-01-2011 04:00:00 10.7 C 8.05 g/m*3 10.7 C 0 km/h
1374 13-01-2011 05:00:00 10.84 C 8.13 g/m*3 10.84 C 0 km/h
1375 13-01-2011 06:00:00 10.58 C 8.31 g/m*3 10.58 C 0 km/h
Sensor: Nr:Datum:Temp:Abs-Feuchte:Windchill:Wind:
Aussen-T/F 1376 13-01-2011 07:00:00 10.66 C 8.46 g/m*3 10.66 C 0 km/h
1377 13-01-2011 08:00:00 10.84 C 8.46 g/m*3 10.84 C 0 km/h
1378 13-01-2011 09:00:00 11.26 C 8.44 g/m*3 11.26 C 0 km/h
1379 13-01-2011 10:00:00 11.94 C 8.32 g/m*3 11.94 C 0 km/h
1380 13-01-2011 11:00:00 12.52 C 8.26 g/m*3 12.52 C 0 km/h
1381 13-01-2011 12:00:00 12.46 C 8.31 g/m*3 12.46 C 0 km/h
1382 13-01-2011 13:00:00 12.54 C 8.4 g/m*3 12.54 C 0 km/h
1383 13-01-2011 14:00:00 13.18 C 8.28 g/m*3 13.18 C 0 km/h
1384 13-01-2011 15:00:00 13.06 C 8.26 g/m*3 13.06 C 0 km/h
1385 13-01-2011 16:00:00 12.9 C 8.48 g/m*3 12.9 C 0 km/h
1386 13-01-2011 17:00:00 12.86 C 8.5 g/m*3 12.86 C 0 km/h
1387 13-01-2011 18:00:00 12.84 C 8.42 g/m*3 12.84 C 0 km/h
1388 13-01-2011 19:00:00 12.82 C 8.5 g/m*3 12.82 C 0 km/h
1389 13-01-2011 20:00:00 12.7 C 8.53 g/m*3 12.7 C 0 km/h
1390 13-01-2011 21:00:00 12.82 C 8.46 g/m*3 12.82 C 0 km/h
1391 13-01-2011 22:00:00 12.82 C 8.34 g/m*3 12.82 C 0 km/h
1392 13-01-2011 23:00:00 12.74 C 8.26 g/m*3 12.74 C 0 km/h
1393 14-01-2011 00:00:00 12.56 C 8.14 g/m*3 12.56 C 0 km/h
1394 14-01-2011 01:00:00 12.5 C 8.09 g/m*3 12.5 C 0 km/h
1395 14-01-2011 02:00:00 12.34 C 7.95 g/m*3 12.34 C 0 km/h
1396 14-01-2011 03:00:00 12.24 C 7.83 g/m*3 12.24 C 0 km/h
1397 14-01-2011 04:00:00 12.24 C 7.81 g/m*3 12.24 C 0 km/h
1398 14-01-2011 05:00:00 12.26 C 7.8 g/m*3 12.26 C 0 km/h
1399 14-01-2011 06:00:00 12.56 C 7.61 g/m*3 12.56 C 0 km/h
1400 14-01-2011 07:00:00 12.3 C 7.36 g/m*3 12.3 C 0 km/h
Sensor: Nr:Datum:Temp:Abs-Feuchte:Windchill:Wind:
Aussen-T/F 1401 14-01-2011 08:00:00 11.66 C 6.99 g/m*3 11.66 C 0 km/h
1402 14-01-2011 09:00:00 11.46 C 6.84 g/m*3 11.46 C 0 km/h
1403 14-01-2011 10:00:00 11.74 C 6.71 g/m*3 11.74 C 0 km/h
1404 14-01-2011 11:00:00 12.02 C 6.62 g/m*3 12.02 C 0 km/h
1405 14-01-2011 12:00:00 12.14 C 6.54 g/m*3 12.14 C 0 km/h
1406 14-01-2011 13:00:00 12 C 6.63 g/m*3 12 C 0 km/h
1407 14-01-2011 14:00:00 11.64 C 6.81 g/m*3 11.64 C 0 km/h
1408 14-01-2011 15:00:00 12.12 C 6.55 g/m*3 12.12 C 0 km/h
1409 14-01-2011 16:00:00 11.96 C 6.4 g/m*3 11.96 C 0 km/h
1410 14-01-2011 17:00:00 11.52 C 6.33 g/m*3 11.52 C 0 km/h
1411 14-01-2011 18:00:00 11.04 C 6.32 g/m*3 11.04 C 0 km/h
1412 14-01-2011 19:00:00 11.14 C 6.24 g/m*3 11.14 C 0 km/h
1413 14-01-2011 20:00:00 11.68 C 6.08 g/m*3 11.68 C 0 km/h
1414 14-01-2011 21:00:00 11.4 C 6.01 g/m*3 11.4 C 0 km/h
1415 14-01-2011 22:00:00 10.82 C 6.25 g/m*3 10.82 C 0 km/h
1416 14-01-2011 23:00:00 9.24 C 6.77 g/m*3 9.24 C 0 km/h
1417 15-01-2011 00:00:00 8.22 C 6.64 g/m*3 8.22 C 0 km/h
1418 15-01-2011 01:00:00 8.22 C 6.41 g/m*3 8.22 C 0 km/h
1419 15-01-2011 02:00:00 8.04 C 6.43 g/m*3 8.04 C 0 km/h
1420 15-01-2011 03:00:00 8.12 C 6.47 g/m*3 8.12 C 0 km/h
1421 15-01-2011 04:00:00 8.22 C 6.41 g/m*3 8.22 C 0 km/h
1422 15-01-2011 05:00:00 7.96 C 6.14 g/m*3 7.96 C 0 km/h
1423 15-01-2011 06:00:00 7.44 C 6.22 g/m*3 7.44 C 0 km/h
1424 15-01-2011 07:00:00 7.08 C 6.14 g/m*3 7.08 C 0 km/h
1425 15-01-2011 08:00:00 7.68 C 6.14 g/m*3 7.68 C 0 km/h
Sensor: Nr:Datum:Temp:Abs-Feuchte:Windchill:Wind:
Aussen-T/F 1426 15-01-2011 09:00:00 8.3 C 5.98 g/m*3 8.3 C 0 km/h
1427 15-01-2011 10:00:00 9.06 C 5.91 g/m*3 9.06 C 0 km/h
1428 15-01-2011 11:00:00 9.86 C 5.89 g/m*3 9.86 C 0 km/h
1429 15-01-2011 12:00:00 10.2 C 5.73 g/m*3 10.2 C 0 km/h
1430 15-01-2011 13:00:00 10.04 C 5.58 g/m*3 10.04 C 0 km/h
1431 15-01-2011 14:00:00 10.04 C 5.54 g/m*3 10.04 C 0 km/h
1432 15-01-2011 15:00:00 9.62 C 5.52 g/m*3 9.62 C 0 km/h
1433 15-01-2011 16:00:00 8.9 C 5.71 g/m*3 8.9 C 0 km/h
1434 15-01-2011 17:00:00 9.02 C 5.65 g/m*3 9.02 C 0 km/h
1435 15-01-2011 18:00:00 8.98 C 5.78 g/m*3 8.98 C 0 km/h
1436 15-01-2011 19:00:00 9.18 C 5.69 g/m*3 9.18 C 0 km/h
1437 15-01-2011 20:00:00 8.92 C 5.68 g/m*3 8.92 C 0 km/h
1438 15-01-2011 21:00:00 8.04 C 5.62 g/m*3 8.04 C 0 km/h
1439 15-01-2011 22:00:00 8.6 C 5.89 g/m*3 8.6 C 0 km/h
1440 15-01-2011 23:00:00 8.62 C 5.89 g/m*3 8.62 C 0 km/h
1441 16-01-2011 00:00:00 8.9 C 5.83 g/m*3 8.9 C 0 km/h
1442 16-01-2011 01:00:00 8.24 C 5.69 g/m*3 8.24 C 0 km/h
1443 16-01-2011 02:00:00 7.96 C 5.77 g/m*3 7.96 C 0 km/h
1444 16-01-2011 03:00:00 8.14 C 5.71 g/m*3 8.14 C 0 km/h
1445 16-01-2011 04:00:00 8.22 C 5.75 g/m*3 8.22 C 0 km/h
1446 16-01-2011 05:00:00 7.16 C 5.98 g/m*3 7.16 C 0 km/h
1447 16-01-2011 06:00:00 7.06 C 6.08 g/m*3 7.06 C 0 km/h
1448 16-01-2011 07:00:00 7.88 C 6.07 g/m*3 7.88 C 0 km/h
1449 16-01-2011 08:00:00 8.22 C 5.87 g/m*3 8.22 C 0 km/h
1450 16-01-2011 09:00:00 8.04 C 5.9 g/m*3 8.04 C 0 km/h
Sensor: Nr:Datum:Temp:Abs-Feuchte:Windchill:Wind:
Aussen-T/F 1451 16-01-2011 10:00:00 7.98 C 5.91 g/m*3 7.98 C 0 km/h
1452 16-01-2011 11:00:00 8.36 C 5.99 g/m*3 8.36 C 0 km/h
1453 16-01-2011 12:00:00 8.64 C 6.15 g/m*3 8.64 C 0 km/h
1454 16-01-2011 13:00:00 8.82 C 6.19 g/m*3 8.82 C 0 km/h
1455 16-01-2011 14:00:00 8.46 C 6.27 g/m*3 8.46 C 0 km/h
1456 16-01-2011 15:00:00 9.92 C 6.23 g/m*3 9.92 C 0 km/h
1457 16-01-2011 16:00:00 8.04 C 6.35 g/m*3 8.04 C 0 km/h
1458 16-01-2011 17:00:00 5.92 C 6.14 g/m*3 5.92 C 0 km/h
1459 16-01-2011 18:00:00 4.84 C 5.92 g/m*3 4.84 C 0 km/h
1460 16-01-2011 19:00:00 4.22 C 5.77 g/m*3 4.22 C 0 km/h
1461 16-01-2011 20:00:00 3.26 C 5.47 g/m*3 3.26 C 0 km/h
1462 16-01-2011 21:00:00 2.4 C 5.2 g/m*3 2.4 C 0 km/h
1463 16-01-2011 22:00:00 2.16 C 5.16 g/m*3 2.16 C 0 km/h
1464 16-01-2011 23:00:00 1.36 C 4.89 g/m*3 1.36 C 0 km/h
1465 17-01-2011 00:00:00 1.4 C 4.93 g/m*3 1.4 C 0 km/h
1466 17-01-2011 01:00:00 1.18 C 4.88 g/m*3 1.18 C 0 km/h
1467 17-01-2011 02:00:00 1.12 C 4.87 g/m*3 1.12 C 0 km/h
1468 17-01-2011 03:00:00 1.04 C 4.87 g/m*3 1.04 C 0 km/h
1469 17-01-2011 04:00:00 -0.04 C 4.49 g/m*3 -0.04 C 0 km/h
1470 17-01-2011 05:00:00 0.08 C 4.55 g/m*3 0.08 C 0 km/h
1471 17-01-2011 06:00:00 -0.62 C 4.32 g/m*3 -0.62 C 0 km/h
1472 17-01-2011 07:00:00 -0.4 C 4.4 g/m*3 -0.4 C 0 km/h
1473 17-01-2011 08:00:00 -0.66 C 4.32 g/m*3 -0.66 C 0 km/h
1474 17-01-2011 09:00:00 0.72 C 4.79 g/m*3 0.72 C 0 km/h
1475 17-01-2011 10:00:00 0.68 C 4.77 g/m*3 0.68 C 0 km/h
Sensor: Nr:Datum:Temp:Abs-Feuchte:Windchill:Wind:
Aussen-T/F 1476 17-01-2011 11:00:00 2.14 C 5.26 g/m*3 2.14 C 0 km/h
1477 17-01-2011 12:00:00 5.42 C 6.5 g/m*3 5.42 C 0 km/h
1478 17-01-2011 13:00:00 6.06 C 6.54 g/m*3 6.06 C 0 km/h
1479 17-01-2011 14:00:00 6.4 C 6.08 g/m*3 6.4 C 0 km/h
1480 17-01-2011 15:00:00 6.18 C 5.9 g/m*3 6.18 C 0 km/h
1481 17-01-2011 16:00:00 6.18 C 5.96 g/m*3 6.18 C 0 km/h
1482 17-01-2011 17:00:00 6.2 C 5.82 g/m*3 6.2 C 0 km/h
1483 17-01-2011 18:00:00 5.98 C 6.05 g/m*3 5.98 C 0 km/h
1484 17-01-2011 19:00:00 6.22 C 6.1 g/m*3 6.22 C 0 km/h
1485 17-01-2011 20:00:00 6.94 C 6.19 g/m*3 6.94 C 0 km/h
1486 17-01-2011 21:00:00 8.04 C 6.23 g/m*3 8.04 C 0 km/h
1487 17-01-2011 22:00:00 8.28 C 6.13 g/m*3 8.28 C 0 km/h
1488 17-01-2011 23:00:00 8.56 C 6.24 g/m*3 8.56 C 0 km/h
1489 18-01-2011 00:00:00 7.64 C 6.14 g/m*3 7.64 C 0 km/h
1490 18-01-2011 01:00:00 6.84 C 6.13 g/m*3 6.84 C 0 km/h
1491 18-01-2011 02:00:00 5.24 C 5.94 g/m*3 5.24 C 0 km/h
1492 18-01-2011 03:00:00 7.1 C 6.1 g/m*3 7.1 C 0 km/h
1493 18-01-2011 04:00:00 7.06 C 5.96 g/m*3 7.06 C 0 km/h
1494 18-01-2011 05:00:00 7.68 C 5.94 g/m*3 7.68 C 0 km/h
1495 18-01-2011 06:00:00 7.26 C 5.97 g/m*3 7.26 C 0 km/h
1496 18-01-2011 07:00:00 7.14 C 6.04 g/m*3 7.14 C 0 km/h
1497 18-01-2011 08:00:00 7.3 C 5.97 g/m*3 7.3 C 0 km/h
1498 18-01-2011 09:00:00 8.44 C 6.04 g/m*3 8.44 C 0 km/h
1499 18-01-2011 10:00:00 8.84 C 6.09 g/m*3 8.84 C 0 km/h
1500 18-01-2011 11:00:00 8.74 C 6.05 g/m*3 8.74 C 0 km/h
Sensor: Nr:Datum:Temp:Abs-Feuchte:Windchill:Wind:
Aussen-T/F 1501 18-01-2011 12:00:00 9.7 C 6.07 g/m*3 9.7 C 0 km/h
1502 18-01-2011 13:00:00 9.7 C 6.05 g/m*3 9.7 C 0 km/h
1503 18-01-2011 14:00:00 9.72 C 5.94 g/m*3 9.72 C 0 km/h
1504 18-01-2011 15:00:00 9.42 C 5.67 g/m*3 9.42 C 0 km/h
1505 18-01-2011 16:00:00 8.38 C 5.78 g/m*3 8.38 C 0 km/h
1506 18-01-2011 17:00:00 6.54 C 6.42 g/m*3 6.54 C 0 km/h
1507 18-01-2011 18:00:00 6.16 C 6.31 g/m*3 6.16 C 0 km/h
1508 18-01-2011 19:00:00 5.86 C 6.26 g/m*3 5.86 C 0 km/h
1509 18-01-2011 20:00:00 5.74 C 6.04 g/m*3 5.74 C 0 km/h
1510 18-01-2011 21:00:00 5.1 C 5.62 g/m*3 5.1 C 0 km/h
1511 18-01-2011 22:00:00 4.64 C 5.48 g/m*3 4.64 C 0 km/h
1512 18-01-2011 23:00:00 4.68 C 5.47 g/m*3 4.68 C 0 km/h
1513 19-01-2011 00:00:00 4.36 C 5.2 g/m*3 4.36 C 0 km/h
1514 19-01-2011 01:00:00 3.88 C 4.77 g/m*3 3.88 C 0 km/h
1515 19-01-2011 02:00:00 3.42 C 4.67 g/m*3 3.42 C 0 km/h
1516 19-01-2011 03:00:00 2.92 C 4.8 g/m*3 2.92 C 0 km/h
1517 19-01-2011 04:00:00 2.8 C 4.89 g/m*3 2.8 C 0 km/h
1518 19-01-2011 05:00:00 2.56 C 4.99 g/m*3 2.56 C 0 km/h
1519 19-01-2011 06:00:00 2.64 C 4.99 g/m*3 2.64 C 0 km/h
1520 19-01-2011 07:00:00 2.8 C 4.85 g/m*3 2.8 C 0 km/h
1521 19-01-2011 08:00:00 2.4 C 4.86 g/m*3 2.4 C 0 km/h
1522 19-01-2011 09:00:00 2.7 C 4.81 g/m*3 2.7 C 0 km/h
1523 19-01-2011 10:00:00 2.4 C 4.68 g/m*3 2.4 C 0 km/h
1524 19-01-2011 11:00:00 3.64 C 4.84 g/m*3 3.64 C 0 km/h
1525 19-01-2011 12:00:00 4.44 C 4.64 g/m*3 4.44 C 0 km/h
Sensor: Nr:Datum:Temp:Abs-Feuchte:Windchill:Wind:
Aussen-T/F 1526 19-01-2011 13:00:00 4.94 C 4.35 g/m*3 4.94 C 0 km/h
1527 19-01-2011 14:00:00 5.36 C 4.24 g/m*3 5.36 C 0 km/h
1528 19-01-2011 15:00:00 4.94 C 4.13 g/m*3 4.94 C 0 km/h
1529 19-01-2011 16:00:00 4.18 C 4.38 g/m*3 4.18 C 0 km/h
1530 19-01-2011 17:00:00 3.34 C 4.54 g/m*3 3.34 C 0 km/h
1531 19-01-2011 18:00:00 2.94 C 4.7 g/m*3 2.94 C 0 km/h
1532 19-01-2011 19:00:00 3.2 C 4.46 g/m*3 3.2 C 0 km/h
1533 19-01-2011 20:00:00 2.36 C 4.69 g/m*3 2.36 C 0 km/h
1534 19-01-2011 21:00:00 2.5 C 4.78 g/m*3 2.5 C 0 km/h
1535 19-01-2011 22:00:00 2.4 C 4.73 g/m*3 2.4 C 0 km/h
1536 19-01-2011 23:00:00 2.28 C 4.69 g/m*3 2.28 C 0 km/h
1537 20-01-2011 00:00:00 1.72 C 4.73 g/m*3 1.72 C 0 km/h
1538 20-01-2011 01:00:00 1.82 C 4.87 g/m*3 1.82 C 0 km/h
1539 20-01-2011 02:00:00 1.22 C 4.71 g/m*3 1.22 C 0 km/h
1540 20-01-2011 03:00:00 1.34 C 4.82 g/m*3 1.34 C 0 km/h
1541 20-01-2011 04:00:00 1.16 C 4.78 g/m*3 1.16 C 0 km/h
1542 20-01-2011 05:00:00 1.36 C 4.87 g/m*3 1.36 C 0 km/h
1543 20-01-2011 06:00:00 1.28 C 4.85 g/m*3 1.28 C 0 km/h
1544 20-01-2011 07:00:00 1.02 C 4.73 g/m*3 1.02 C 0 km/h
1545 20-01-2011 08:00:00 1.2 C 4.75 g/m*3 1.2 C 0 km/h
1546 20-01-2011 09:00:00 1.44 C 4.7 g/m*3 1.44 C 0 km/h
1547 20-01-2011 10:00:00 2.02 C 4.61 g/m*3 2.02 C 0 km/h
1548 20-01-2011 11:00:00 2.72 C 4.53 g/m*3 2.72 C 0 km/h
1549 20-01-2011 12:00:00 3.26 C 4.44 g/m*3 3.26 C 0 km/h
1550 20-01-2011 13:00:00 3.88 C 4.35 g/m*3 3.88 C 0 km/h
Sensor: Nr:Datum:Temp:Abs-Feuchte:Windchill:Wind:
Aussen-T/F 1551 20-01-2011 14:00:00 4.1 C 4.29 g/m*3 4.1 C 0 km/h
1552 20-01-2011 15:00:00 3.26 C 4.1 g/m*3 3.26 C 0 km/h
1553 20-01-2011 16:00:00 2.48 C 3.98 g/m*3 2.48 C 0 km/h
1554 20-01-2011 17:00:00 1.98 C 3.95 g/m*3 1.98 C 0 km/h
1555 20-01-2011 18:00:00 1.7 C 3.97 g/m*3 1.7 C 0 km/h
1556 20-01-2011 19:00:00 1.3 C 3.89 g/m*3 1.3 C 0 km/h
1557 20-01-2011 20:00:00 0.9 C 3.72 g/m*3 0.9 C 0 km/h
1558 20-01-2011 21:00:00 -0.16 C 3.59 g/m*3 -0.16 C 0 km/h
1559 20-01-2011 22:00:00 -0.28 C 3.55 g/m*3 -0.28 C 0 km/h
1560 20-01-2011 23:00:00 0.08 C 3.64 g/m*3 0.08 C 0 km/h
1561 21-01-2011 00:00:00 0.34 C 3.13 g/m*3 0.34 C 0 km/h
1562 21-01-2011 01:00:00 0.18 C 3.08 g/m*3 0.18 C 0 km/h
1563 21-01-2011 02:00:00 0.04 C 3.11 g/m*3 0.04 C 0 km/h
1564 21-01-2011 03:00:00 -0.36 C 2.8 g/m*3 -0.36 C 0 km/h
1565 21-01-2011 04:00:00 -0.38 C 2.67 g/m*3 -0.38 C 0 km/h
1566 21-01-2011 05:00:00 -0.46 C 2.75 g/m*3 -0.46 C 0 km/h
1567 21-01-2011 06:00:00 -0.74 C 2.81 g/m*3 -0.74 C 0 km/h
1568 21-01-2011 07:00:00 -0.6 C 2.67 g/m*3 -0.6 C 0 km/h
1569 21-01-2011 08:00:00 -0.5 C 2.69 g/m*3 -0.5 C 0 km/h
1570 21-01-2011 09:00:00 -0.14 C 2.75 g/m*3 -0.14 C 0 km/h
1571 21-01-2011 10:00:00 0.14 C 2.74 g/m*3 0.14 C 0 km/h
1572 21-01-2011 11:00:00 0.02 C 2.82 g/m*3 0.02 C 0 km/h
1573 21-01-2011 12:00:00 0.32 C 2.9 g/m*3 0.32 C 0 km/h
1574 21-01-2011 13:00:00 1.06 C 2.95 g/m*3 1.06 C 0 km/h
1575 21-01-2011 14:00:00 1.28 C 3.01 g/m*3 1.28 C 0 km/h
Sensor: Nr:Datum:Temp:Abs-Feuchte:Windchill:Wind:
Aussen-T/F 1576 21-01-2011 15:00:00 1.02 C 3.01 g/m*3 1.02 C 0 km/h
1577 21-01-2011 16:00:00 0.18 C 3.13 g/m*3 0.18 C 0 km/h
1578 21-01-2011 17:00:00 -0.22 C 3.25 g/m*3 -0.22 C 0 km/h
1579 21-01-2011 18:00:00 -0.14 C 3.26 g/m*3 -0.14 C 0 km/h
1580 21-01-2011 19:00:00 -0.4 C 3.25 g/m*3 -0.4 C 0 km/h
1581 21-01-2011 20:00:00 -0.42 C 3.4 g/m*3 -0.42 C 0 km/h
1582 21-01-2011 21:00:00 -0.78 C 3.61 g/m*3 -0.78 C 0 km/h
1583 21-01-2011 22:00:00 -0.58 C 3.7 g/m*3 -0.58 C 0 km/h
1584 21-01-2011 23:00:00 -0.48 C 3.8 g/m*3 -0.48 C 0 km/h
1585 22-01-2011 00:00:00 -0.4 C 3.86 g/m*3 -0.4 C 0 km/h
1586 22-01-2011 01:00:00 -0.4 C 3.86 g/m*3 -0.4 C 0 km/h
1587 22-01-2011 02:00:00 -0.4 C 3.86 g/m*3 -0.4 C 0 km/h
1588 22-01-2011 03:00:00 -0.4 C 3.86 g/m*3 -0.4 C 0 km/h
1589 22-01-2011 04:00:00 -0.4 C 3.86 g/m*3 -0.4 C 0 km/h
1590 22-01-2011 05:00:00 -0.4 C 3.86 g/m*3 -0.4 C 0 km/h
1591 22-01-2011 06:00:00 -0.4 C 3.86 g/m*3 -0.4 C 0 km/h
1592 22-01-2011 07:00:00 -0.4 C 3.86 g/m*3 -0.4 C 0 km/h
1593 22-01-2011 08:00:00 -0.32 C 3.89 g/m*3 -0.32 C 0 km/h
1594 22-01-2011 09:00:00 0 C 3.97 g/m*3 0 C 0 km/h
1595 22-01-2011 10:00:00 0.92 C 3.86 g/m*3 0.92 C 0 km/h
1596 22-01-2011 11:00:00 1.4 C 3.72 g/m*3 1.4 C 0 km/h
1597 22-01-2011 12:00:00 1.72 C 3.69 g/m*3 1.72 C 0 km/h
1598 22-01-2011 13:00:00 1.72 C 3.73 g/m*3 1.72 C 0 km/h
1599 22-01-2011 14:00:00 1.84 C 3.98 g/m*3 1.84 C 0 km/h
1600 22-01-2011 15:00:00 1.56 C 3.92 g/m*3 1.56 C 0 km/h
Sensor: Nr:Datum:Temp:Abs-Feuchte:Windchill:Wind:
Aussen-T/F 1601 22-01-2011 16:00:00 1.28 C 3.86 g/m*3 1.28 C 0 km/h
1602 22-01-2011 17:00:00 0.72 C 3.9 g/m*3 0.72 C 0 km/h
1603 22-01-2011 18:00:00 0.56 C 3.93 g/m*3 0.56 C 0 km/h
1604 22-01-2011 19:00:00 0.34 C 4.05 g/m*3 0.34 C 0 km/h
1605 22-01-2011 20:00:00 0.38 C 4.01 g/m*3 0.38 C 0 km/h
1606 22-01-2011 21:00:00 0.32 C 4.03 g/m*3 0.32 C 0 km/h
1607 22-01-2011 22:00:00 0.25 C 4.04 g/m*3 0.25 C 0 km/h
1608 22-01-2011 23:00:00 0 C 3.97 g/m*3 0 C 0 km/h
1609 23-01-2011 00:00:00 0.22 C 4.03 g/m*3 0.22 C 0 km/h
1610 23-01-2011 01:00:00 0.22 C 4.03 g/m*3 0.22 C 0 km/h
1611 23-01-2011 02:00:00 0.28 C 4.05 g/m*3 0.28 C 0 km/h
1612 23-01-2011 03:00:00 0.44 C 4.05 g/m*3 0.44 C 0 km/h
1613 23-01-2011 04:00:00 0.4 C 4.05 g/m*3 0.4 C 0 km/h
1614 23-01-2011 05:00:00 0.22 C 4.21 g/m*3 0.22 C 0 km/h
1615 23-01-2011 06:00:00 0.42 C 4.4 g/m*3 0.42 C 0 km/h
1616 23-01-2011 07:00:00 0.66 C 4.51 g/m*3 0.66 C 0 km/h
1617 23-01-2011 08:00:00 0.94 C 4.61 g/m*3 0.94 C 0 km/h
1618 23-01-2011 09:00:00 1.46 C 4.71 g/m*3 1.46 C 0 km/h
1619 23-01-2011 10:00:00 1.92 C 4.55 g/m*3 1.92 C 0 km/h
1620 23-01-2011 11:00:00 2.02 C 4.54 g/m*3 2.02 C 0 km/h
1621 23-01-2011 12:00:00 2.16 C 4.62 g/m*3 2.16 C 0 km/h
1622 23-01-2011 13:00:00 2.22 C 4.76 g/m*3 2.22 C 0 km/h
1623 23-01-2011 14:00:00 2.4 C 4.88 g/m*3 2.4 C 0 km/h
1624 23-01-2011 15:00:00 2.3 C 4.9 g/m*3 2.3 C 0 km/h
1625 23-01-2011 16:00:00 2.2 C 4.97 g/m*3 2.2 C 0 km/h
Sensor: Nr:Datum:Temp:Abs-Feuchte:Windchill:Wind:
Aussen-T/F 1626 23-01-2011 17:00:00 2.16 C 5.03 g/m*3 2.16 C 0 km/h
1627 23-01-2011 18:00:00 2.12 C 5.06 g/m*3 2.12 C 0 km/h
1628 23-01-2011 19:00:00 2.18 C 5.12 g/m*3 2.18 C 0 km/h
1629 23-01-2011 20:00:00 2.22 C 5.14 g/m*3 2.22 C 0 km/h
1630 23-01-2011 21:00:00 2.24 C 5.2 g/m*3 2.24 C 0 km/h
1631 23-01-2011 22:00:00 2.28 C 5.21 g/m*3 2.28 C 0 km/h
1632 23-01-2011 23:00:00 2.36 C 5.24 g/m*3 2.36 C 0 km/h
1633 24-01-2011 00:00:00 2.42 C 5.26 g/m*3 2.42 C 0 km/h
1634 24-01-2011 01:00:00 2.58 C 5.35 g/m*3 2.58 C 0 km/h
1635 24-01-2011 02:00:00 2.56 C 5.37 g/m*3 2.56 C 0 km/h
1636 24-01-2011 03:00:00 2.02 C 5.13 g/m*3 2.02 C 0 km/h
1637 24-01-2011 04:00:00 2.12 C 5.2 g/m*3 2.12 C 0 km/h
1638 24-01-2011 05:00:00 2.48 C 5.34 g/m*3 2.48 C 0 km/h
1639 24-01-2011 06:00:00 2.5 C 5.35 g/m*3 2.5 C 0 km/h
1640 24-01-2011 07:00:00 2.78 C 5.33 g/m*3 2.78 C 0 km/h
1641 24-01-2011 08:00:00 2.76 C 5.07 g/m*3 2.76 C 0 km/h
1642 24-01-2011 09:00:00 2.92 C 4.75 g/m*3 2.92 C 0 km/h
1643 24-01-2011 10:00:00 3.12 C 4.6 g/m*3 3.12 C 0 km/h
1644 24-01-2011 11:00:00 3.46 C 4.57 g/m*3 3.46 C 0 km/h
1645 24-01-2011 12:00:00 4.04 C 4.6 g/m*3 4.04 C 0 km/h
1646 24-01-2011 13:00:00 4.36 C 4.7 g/m*3 4.36 C 0 km/h
1647 24-01-2011 14:00:00 4.2 C 4.7 g/m*3 4.2 C 0 km/h
1648 24-01-2011 15:00:00 3.98 C 4.79 g/m*3 3.98 C 0 km/h
1649 24-01-2011 16:00:00 3.78 C 4.96 g/m*3 3.78 C 0 km/h
1650 24-01-2011 17:00:00 3.6 C 4.96 g/m*3 3.6 C 0 km/h
Sensor: Nr:Datum:Temp:Abs-Feuchte:Windchill:Wind:
Aussen-T/F 1651 24-01-2011 18:00:00 3.44 C 5.03 g/m*3 3.44 C 0 km/h
1652 24-01-2011 19:00:00 3.18 C 5.1 g/m*3 3.18 C 0 km/h
1653 24-01-2011 20:00:00 3.16 C 5.24 g/m*3 3.16 C 0 km/h
1654 24-01-2011 21:00:00 3.08 C 5.24 g/m*3 3.08 C 0 km/h
1655 24-01-2011 22:00:00 3.08 C 5.33 g/m*3 3.08 C 0 km/h
1656 24-01-2011 23:00:00 2.82 C 5.29 g/m*3 2.82 C 0 km/h
1657 25-01-2011 00:00:00 2.74 C 5.19 g/m*3 2.74 C 0 km/h
1658 25-01-2011 01:00:00 2.66 C 4.76 g/m*3 2.66 C 0 km/h
1659 25-01-2011 02:00:00 1.88 C 4.72 g/m*3 1.88 C 0 km/h
1660 25-01-2011 03:00:00 1.98 C 4.66 g/m*3 1.98 C 0 km/h
1661 25-01-2011 04:00:00 2.64 C 4.43 g/m*3 2.64 C 0 km/h
1662 25-01-2011 05:00:00 3.12 C 4.29 g/m*3 3.12 C 0 km/h
1663 25-01-2011 06:00:00 3.34 C 4.19 g/m*3 3.34 C 0 km/h
1664 25-01-2011 07:00:00 2.98 C 4.18 g/m*3 2.98 C 0 km/h
1665 25-01-2011 08:00:00 2.52 C 4.28 g/m*3 2.52 C 0 km/h
1666 25-01-2011 09:00:00 2.92 C 4.27 g/m*3 2.92 C 0 km/h
1667 25-01-2011 10:00:00 2.92 C 4.38 g/m*3 2.92 C 0 km/h
1668 25-01-2011 11:00:00 2.96 C 4.58 g/m*3 2.96 C 0 km/h
1669 25-01-2011 12:00:00 3.38 C 4.75 g/m*3 3.38 C 0 km/h
1670 25-01-2011 13:00:00 3.94 C 4.67 g/m*3 3.94 C 0 km/h
1671 25-01-2011 14:00:00 3.98 C 4.72 g/m*3 3.98 C 0 km/h
1672 25-01-2011 15:00:00 2.3 C 4.72 g/m*3 2.3 C 0 km/h
1673 25-01-2011 16:00:00 2.52 C 4.88 g/m*3 2.52 C 0 km/h
1674 25-01-2011 17:00:00 2.42 C 4.77 g/m*3 2.42 C 0 km/h
1675 25-01-2011 18:00:00 2.36 C 4.74 g/m*3 2.36 C 0 km/h
Sensor: Nr:Datum:Temp:Abs-Feuchte:Windchill:Wind:
Aussen-T/F 1676 25-01-2011 19:00:00 1.5 C 4.62 g/m*3 1.5 C 0 km/h
1677 25-01-2011 20:00:00 0.84 C 4.46 g/m*3 0.84 C 0 km/h
1678 25-01-2011 21:00:00 1.08 C 4.47 g/m*3 1.08 C 0 km/h
1679 25-01-2011 22:00:00 1.84 C 4.35 g/m*3 1.84 C 0 km/h
1680 25-01-2011 23:00:00 1.14 C 4.32 g/m*3 1.14 C 0 km/h
1681 26-01-2011 00:00:00 0.64 C 4.31 g/m*3 0.64 C 0 km/h
1682 26-01-2011 01:00:00 -0.58 C 4.07 g/m*3 -0.58 C 0 km/h
1683 26-01-2011 02:00:00 -0.62 C 4.13 g/m*3 -0.62 C 0 km/h
1684 26-01-2011 03:00:00 -0.52 C 4.21 g/m*3 -0.52 C 0 km/h
1685 26-01-2011 04:00:00 -0.46 C 4.24 g/m*3 -0.46 C 0 km/h
1686 26-01-2011 05:00:00 -0.2 C 4.35 g/m*3 -0.2 C 0 km/h
1687 26-01-2011 06:00:00 -0.16 C 4.36 g/m*3 -0.16 C 0 km/h
1688 26-01-2011 07:00:00 -0.22 C 4.34 g/m*3 -0.22 C 0 km/h
1689 26-01-2011 08:00:00 0.04 C 4.43 g/m*3 0.04 C 0 km/h
1690 26-01-2011 09:00:00 0.66 C 4.65 g/m*3 0.66 C 0 km/h
1691 26-01-2011 10:00:00 1.6 C 4.81 g/m*3 1.6 C 0 km/h
1692 26-01-2011 11:00:00 2.48 C 4.55 g/m*3 2.48 C 0 km/h
1693 26-01-2011 12:00:00 3.56 C 4.1 g/m*3 3.56 C 0 km/h
1694 26-01-2011 13:00:00 3.24 C 4 g/m*3 3.24 C 0 km/h
1695 26-01-2011 14:00:00 3.34 C 3.91 g/m*3 3.34 C 0 km/h
1696 26-01-2011 15:00:00 3.32 C 3.84 g/m*3 3.32 C 0 km/h
1697 26-01-2011 16:00:00 2.24 C 4.04 g/m*3 2.24 C 0 km/h
1698 26-01-2011 17:00:00 0.76 C 4.28 g/m*3 0.76 C 0 km/h
1699 26-01-2011 18:00:00 0.64 C 4.29 g/m*3 0.64 C 0 km/h
1700 26-01-2011 19:00:00 0.44 C 4.24 g/m*3 0.44 C 0 km/h
Sensor: Nr:Datum:Temp:Abs-Feuchte:Windchill:Wind:
Aussen-T/F 1701 26-01-2011 20:00:00 0.5 C 4.31 g/m*3 0.5 C 0 km/h
1702 26-01-2011 21:00:00 0.52 C 4.26 g/m*3 0.52 C 0 km/h
1703 26-01-2011 22:00:00 -0.16 C 4.01 g/m*3 -0.16 C 0 km/h
1704 26-01-2011 23:00:00 -0.88 C 3.86 g/m*3 -0.88 C 0 km/h
1705 27-01-2011 00:00:00 -1.24 C 3.81 g/m*3 -1.24 C 0 km/h
1706 27-01-2011 01:00:00 -1.76 C 3.69 g/m*3 -1.76 C 0 km/h
1707 27-01-2011 02:00:00 -2.52 C 3.5 g/m*3 -2.52 C 0 km/h
1708 27-01-2011 03:00:00 -3.36 C 3.32 g/m*3 -3.36 C 0 km/h
1709 27-01-2011 04:00:00 -2.2 C 3.68 g/m*3 -2.2 C 0 km/h
1710 27-01-2011 05:00:00 -1.56 C 3.9 g/m*3 -1.56 C 0 km/h
1711 27-01-2011 06:00:00 -1.38 C 3.96 g/m*3 -1.38 C 0 km/h
1712 27-01-2011 07:00:00 -1.32 C 3.98 g/m*3 -1.32 C 0 km/h
1713 27-01-2011 08:00:00 -1.18 C 4.04 g/m*3 -1.18 C 0 km/h
1714 27-01-2011 09:00:00 -0.24 C 4.33 g/m*3 -0.24 C 0 km/h
1715 27-01-2011 10:00:00 0.86 C 4.29 g/m*3 0.86 C 0 km/h
1716 27-01-2011 11:00:00 1.86 C 3.63 g/m*3 1.86 C 0 km/h
1717 27-01-2011 12:00:00 2.44 C 3.33 g/m*3 2.44 C 0 km/h
1718 27-01-2011 13:00:00 2.64 C 3.1 g/m*3 2.64 C 0 km/h
1719 27-01-2011 14:00:00 2.4 C 2.95 g/m*3 2.4 C 0 km/h
1720 27-01-2011 15:00:00 1.88 C 2.81 g/m*3 1.88 C 0 km/h
1721 27-01-2011 16:00:00 1.18 C 2.74 g/m*3 1.18 C 0 km/h
1722 27-01-2011 17:00:00 0.26 C 2.75 g/m*3 0.26 C 0 km/h
1723 27-01-2011 18:00:00 0 C 2.77 g/m*3 0 C 0 km/h
1724 27-01-2011 19:00:00 -0.16 C 2.82 g/m*3 -0.16 C 0 km/h
1725 27-01-2011 20:00:00 -0.34 C 2.86 g/m*3 -0.34 C 0 km/h
Sensor: Nr:Datum:Temp:Abs-Feuchte:Windchill:Wind:
Aussen-T/F 1726 27-01-2011 21:00:00 -0.92 C 2.84 g/m*3 -0.92 C 0 km/h
1727 27-01-2011 22:00:00 -1.2 C 2.84 g/m*3 -1.2 C 0 km/h
1728 27-01-2011 23:00:00 -1 C 2.78 g/m*3 -1 C 0 km/h
1729 28-01-2011 00:00:00 -1.34 C 2.76 g/m*3 -1.34 C 0 km/h
1730 28-01-2011 01:00:00 -1.24 C 2.67 g/m*3 -1.24 C 0 km/h
1731 28-01-2011 02:00:00 -1.42 C 2.69 g/m*3 -1.42 C 0 km/h
1732 28-01-2011 03:00:00 -1.18 C 2.79 g/m*3 -1.18 C 0 km/h
1733 28-01-2011 04:00:00 -1.04 C 2.82 g/m*3 -1.04 C 0 km/h
1734 28-01-2011 05:00:00 -0.98 C 2.83 g/m*3 -0.98 C 0 km/h
1735 28-01-2011 06:00:00 -0.98 C 2.77 g/m*3 -0.98 C 0 km/h
1736 28-01-2011 07:00:00 -1.06 C 2.79 g/m*3 -1.06 C 0 km/h
1737 28-01-2011 08:00:00 -2.1 C 2.72 g/m*3 -2.1 C 0 km/h
1738 28-01-2011 09:00:00 -1.4 C 2.8 g/m*3 -1.4 C 0 km/h
1739 28-01-2011 10:00:00 -0.6 C 2.69 g/m*3 -0.6 C 0 km/h
1740 28-01-2011 11:00:00 0.14 C 2.7 g/m*3 0.14 C 0 km/h
1741 28-01-2011 12:00:00 0.72 C 2.7 g/m*3 0.72 C 0 km/h
1742 28-01-2011 13:00:00 0.96 C 2.72 g/m*3 0.96 C 0 km/h
1743 28-01-2011 14:00:00 1.22 C 2.75 g/m*3 1.22 C 0 km/h
1744 28-01-2011 15:00:00 1.26 C 2.8 g/m*3 1.26 C 0 km/h
1745 28-01-2011 16:00:00 0.44 C 2.86 g/m*3 0.44 C 0 km/h
1746 28-01-2011 17:00:00 -1.38 C 2.96 g/m*3 -1.38 C 0 km/h
1747 28-01-2011 18:00:00 -2.44 C 3.09 g/m*3 -2.44 C 0 km/h
1748 28-01-2011 19:00:00 -2.68 C 3.08 g/m*3 -2.68 C 0 km/h
1749 28-01-2011 20:00:00 -3.52 C 3.01 g/m*3 -3.52 C 0 km/h
1750 28-01-2011 21:00:00 -3.84 C 3.02 g/m*3 -3.84 C 0 km/h
Sensor: Nr:Datum:Temp:Abs-Feuchte:Windchill:Wind:
Aussen-T/F 1751 28-01-2011 22:00:00 -4.18 C 3 g/m*3 -4.18 C 0 km/h
1752 28-01-2011 23:00:00 -3.86 C 3.07 g/m*3 -3.86 C 0 km/h
1753 29-01-2011 00:00:00 -4.68 C 2.87 g/m*3 -4.68 C 0 km/h
1754 29-01-2011 01:00:00 -5.04 C 2.8 g/m*3 -5.04 C 0 km/h
1755 29-01-2011 02:00:00 -5.52 C 2.71 g/m*3 -5.52 C 0 km/h
1756 29-01-2011 03:00:00 -5.52 C 2.74 g/m*3 -5.52 C 0 km/h
1757 29-01-2011 04:00:00 -5.48 C 2.74 g/m*3 -5.48 C 0 km/h
1758 29-01-2011 05:00:00 -5.88 C 2.65 g/m*3 -5.88 C 0 km/h
1759 29-01-2011 06:00:00 -6.52 C 2.5 g/m*3 -6.52 C 0 km/h
1760 29-01-2011 07:00:00 -6.5 C 2.5 g/m*3 -6.5 C 0 km/h
1761 29-01-2011 08:00:00 -6.28 C 2.55 g/m*3 -6.28 C 0 km/h
1762 29-01-2011 09:00:00 -6.44 C 2.5 g/m*3 -6.44 C 0 km/h
1763 29-01-2011 10:00:00 -5.78 C 2.62 g/m*3 -5.78 C 0 km/h
1764 29-01-2011 11:00:00 -4.86 C 2.82 g/m*3 -4.86 C 0 km/h
1765 29-01-2011 12:00:00 -4 C 2.99 g/m*3 -4 C 0 km/h
1766 29-01-2011 13:00:00 -3.26 C 3.03 g/m*3 -3.26 C 0 km/h
1767 29-01-2011 14:00:00 -2.42 C 3.09 g/m*3 -2.42 C 0 km/h
1768 29-01-2011 15:00:00 -1.6 C 3.16 g/m*3 -1.6 C 0 km/h
1769 29-01-2011 16:00:00 -2.3 C 2.9 g/m*3 -2.3 C 0 km/h
1770 29-01-2011 17:00:00 -3.32 C 2.6 g/m*3 -3.32 C 0 km/h
1771 29-01-2011 18:00:00 -4.22 C 2.51 g/m*3 -4.22 C 0 km/h
1772 29-01-2011 19:00:00 -4.52 C 2.57 g/m*3 -4.52 C 0 km/h
1773 29-01-2011 20:00:00 -5.08 C 2.55 g/m*3 -5.08 C 0 km/h
1774 29-01-2011 21:00:00 -5.96 C 2.45 g/m*3 -5.96 C 0 km/h
1775 29-01-2011 22:00:00 -6.2 C 2.43 g/m*3 -6.2 C 0 km/h
Sensor: Nr:Datum:Temp:Abs-Feuchte:Windchill:Wind:
Aussen-T/F 1776 29-01-2011 23:00:00 -6.22 C 2.46 g/m*3 -6.22 C 0 km/h
1777 30-01-2011 00:00:00 -6.72 C 2.39 g/m*3 -6.72 C 0 km/h
1778 30-01-2011 01:00:00 -7.12 C 2.32 g/m*3 -7.12 C 0 km/h
1779 30-01-2011 02:00:00 -7.7 C 2.18 g/m*3 -7.7 C 0 km/h
1780 30-01-2011 03:00:00 -7.74 C 2.21 g/m*3 -7.74 C 0 km/h
1781 30-01-2011 04:00:00 -7.78 C 2.21 g/m*3 -7.78 C 0 km/h
1782 30-01-2011 05:00:00 -8.24 C 2.14 g/m*3 -8.24 C 0 km/h
1783 30-01-2011 06:00:00 -8.72 C 2.06 g/m*3 -8.72 C 0 km/h
1784 30-01-2011 07:00:00 -7.8 C 2.23 g/m*3 -7.8 C 0 km/h
1785 30-01-2011 08:00:00 -8.86 C 2.01 g/m*3 -8.86 C 0 km/h
1786 30-01-2011 09:00:00 -8.06 C 2.13 g/m*3 -8.06 C 0 km/h
1787 30-01-2011 10:00:00 -6.54 C 2.43 g/m*3 -6.54 C 0 km/h
1788 30-01-2011 11:00:00 -5.94 C 2.53 g/m*3 -5.94 C 0 km/h
1789 30-01-2011 12:00:00 -5.36 C 2.68 g/m*3 -5.36 C 0 km/h
1790 30-01-2011 13:00:00 -4.42 C 2.85 g/m*3 -4.42 C 0 km/h
1791 30-01-2011 14:00:00 -3.38 C 3.01 g/m*3 -3.38 C 0 km/h
1792 30-01-2011 15:00:00 -2.32 C 3.06 g/m*3 -2.32 C 0 km/h
1793 30-01-2011 16:00:00 -2.98 C 2.95 g/m*3 -2.98 C 0 km/h
1794 30-01-2011 17:00:00 -3.96 C 2.9 g/m*3 -3.96 C 0 km/h
1795 30-01-2011 18:00:00 -4.44 C 2.83 g/m*3 -4.44 C 0 km/h
1796 30-01-2011 19:00:00 -5.12 C 2.74 g/m*3 -5.12 C 0 km/h
1797 30-01-2011 20:00:00 -5.16 C 2.76 g/m*3 -5.16 C 0 km/h
1798 30-01-2011 21:00:00 -5.86 C 2.63 g/m*3 -5.86 C 0 km/h
1799 30-01-2011 22:00:00 -7.14 C 2.38 g/m*3 -7.14 C 0 km/h
1800 30-01-2011 23:00:00 -7.66 C 2.26 g/m*3 -7.66 C 0 km/h
Sensor: Nr:Datum:Temp:Abs-Feuchte:Windchill:Wind:
Aussen-T/F 1801 31-01-2011 00:00:00 -7.5 C 2.29 g/m*3 -7.5 C 0 km/h
1802 31-01-2011 01:00:00 -8.24 C 2.14 g/m*3 -8.24 C 0 km/h
1803 31-01-2011 02:00:00 -8.58 C 2.05 g/m*3 -8.58 C 0 km/h
1804 31-01-2011 03:00:00 -8.18 C 2.14 g/m*3 -8.18 C 0 km/h
1805 31-01-2011 04:00:00 -9.08 C 1.97 g/m*3 -9.08 C 0 km/h
1806 31-01-2011 05:00:00 -8.26 C 2.12 g/m*3 -8.26 C 0 km/h
1807 31-01-2011 06:00:00 -7.14 C 2.37 g/m*3 -7.14 C 0 km/h
1808 31-01-2011 07:00:00 -7.1 C 2.4 g/m*3 -7.1 C 0 km/h
1809 31-01-2011 08:00:00 -6.98 C 2.44 g/m*3 -6.98 C 0 km/h
1810 31-01-2011 09:00:00 -6.72 C 2.49 g/m*3 -6.72 C 0 km/h
1811 31-01-2011 10:00:00 -5.96 C 2.62 g/m*3 -5.96 C 0 km/h
1812 31-01-2011 11:00:00 -5.32 C 2.73 g/m*3 -5.32 C 0 km/h
1813 31-01-2011 12:00:00 -4.68 C 2.84 g/m*3 -4.68 C 0 km/h
1814 31-01-2011 13:00:00 -4.06 C 2.9 g/m*3 -4.06 C 0 km/h
1815 31-01-2011 14:00:00 -3.72 C 2.87 g/m*3 -3.72 C 0 km/h
1816 31-01-2011 15:00:00 -3.6 C 2.89 g/m*3 -3.6 C 0 km/h
1817 31-01-2011 16:00:00 -3.98 C 2.86 g/m*3 -3.98 C 0 km/h
1818 31-01-2011 17:00:00 -4.12 C 2.92 g/m*3 -4.12 C 0 km/h
1819 31-01-2011 18:00:00 -3.9 C 3.01 g/m*3 -3.9 C 0 km/h
1820 31-01-2011 19:00:00 -3.7 C 3.05 g/m*3 -3.7 C 0 km/h
1821 31-01-2011 20:00:00 -3.96 C 2.94 g/m*3 -3.96 C 0 km/h
1822 31-01-2011 21:00:00 -4.14 C 2.9 g/m*3 -4.14 C 0 km/h
1823 31-01-2011 22:00:00 -4.32 C 2.86 g/m*3 -4.32 C 0 km/h
1824 31-01-2011 23:00:00 -4.48 C 2.83 g/m*3 -4.48 C 0 km/h
1825 01-02-2011 00:00:00 -4.44 C 2.84 g/m*3 -4.44 C 0 km/h
Sensor: Nr:Datum:Temp:Abs-Feuchte:Windchill:Wind:
Aussen-T/F 1826 01-02-2011 01:00:00 -4.52 C 2.81 g/m*3 -4.52 C 0 km/h
1827 01-02-2011 02:00:00 -4.74 C 2.71 g/m*3 -4.74 C 0 km/h
1828 01-02-2011 03:00:00 -4.78 C 2.64 g/m*3 -4.78 C 0 km/h
1829 01-02-2011 04:00:00 -4.9 C 2.61 g/m*3 -4.9 C 0 km/h
1830 01-02-2011 05:00:00 -5.1 C 2.53 g/m*3 -5.1 C 0 km/h
1831 01-02-2011 06:00:00 -5.2 C 2.51 g/m*3 -5.2 C 0 km/h
1832 01-02-2011 07:00:00 -5.3 C 2.49 g/m*3 -5.3 C 0 km/h
1833 01-02-2011 08:00:00 -5.2 C 2.52 g/m*3 -5.2 C 0 km/h
1834 01-02-2011 09:00:00 -4.84 C 2.56 g/m*3 -4.84 C 0 km/h
1835 01-02-2011 10:00:00 -4.5 C 2.56 g/m*3 -4.5 C 0 km/h
1836 01-02-2011 11:00:00 -3.98 C 2.56 g/m*3 -3.98 C 0 km/h
1837 01-02-2011 12:00:00 -3 C 2.62 g/m*3 -3 C 0 km/h
1838 01-02-2011 13:00:00 -2.5 C 2.69 g/m*3 -2.5 C 0 km/h
1839 01-02-2011 14:00:00 -2.4 C 2.74 g/m*3 -2.4 C 0 km/h
1840 01-02-2011 15:00:00 -2.66 C 2.7 g/m*3 -2.66 C 0 km/h
1841 01-02-2011 16:00:00 -3.62 C 2.62 g/m*3 -3.62 C 0 km/h
1842 01-02-2011 17:00:00 -4.1 C 2.68 g/m*3 -4.1 C 0 km/h
1843 01-02-2011 18:00:00 -3.6 C 2.77 g/m*3 -3.6 C 0 km/h
1844 01-02-2011 19:00:00 -3.38 C 2.75 g/m*3 -3.38 C 0 km/h
1845 01-02-2011 20:00:00 -3.3 C 2.76 g/m*3 -3.3 C 0 km/h
1846 01-02-2011 21:00:00 -3.56 C 2.63 g/m*3 -3.56 C 0 km/h
1847 01-02-2011 22:00:00 -3.6 C 2.61 g/m*3 -3.6 C 0 km/h
1848 01-02-2011 23:00:00 -3.72 C 2.89 g/m*3 -3.72 C 0 km/h
1849 02-02-2011 00:00:00 -3.84 C 3.02 g/m*3 -3.84 C 0 km/h
1850 02-02-2011 01:00:00 -3.66 C 3.05 g/m*3 -3.66 C 0 km/h
Sensor: Nr:Datum:Temp:Abs-Feuchte:Windchill:Wind:
Aussen-T/F 1851 02-02-2011 02:00:00 -3.38 C 3.02 g/m*3 -3.38 C 0 km/h
1852 02-02-2011 03:00:00 -3.28 C 3.04 g/m*3 -3.28 C 0 km/h
1853 02-02-2011 04:00:00 -3.12 C 3.09 g/m*3 -3.12 C 0 km/h
1854 02-02-2011 05:00:00 -2.98 C 3.15 g/m*3 -2.98 C 0 km/h
1855 02-02-2011 06:00:00 -2.84 C 3.18 g/m*3 -2.84 C 0 km/h
1856 02-02-2011 07:00:00 -2.68 C 3.21 g/m*3 -2.68 C 0 km/h
1857 02-02-2011 08:00:00 -2.28 C 3.3 g/m*3 -2.28 C 0 km/h
1858 02-02-2011 09:00:00 -1.54 C 3.33 g/m*3 -1.54 C 0 km/h
1859 02-02-2011 10:00:00 -0.94 C 3.33 g/m*3 -0.94 C 0 km/h
1860 02-02-2011 11:00:00 -0.46 C 3.38 g/m*3 -0.46 C 0 km/h
1861 02-02-2011 12:00:00 1.26 C 3.51 g/m*3 1.26 C 0 km/h
1862 02-02-2011 13:00:00 1.94 C 3.65 g/m*3 1.94 C 0 km/h
1863 02-02-2011 14:00:00 1.92 C 3.79 g/m*3 1.92 C 0 km/h
1864 02-02-2011 15:00:00 1.42 C 3.79 g/m*3 1.42 C 0 km/h
1865 02-02-2011 16:00:00 1.16 C 3.8 g/m*3 1.16 C 0 km/h
1866 02-02-2011 17:00:00 0.64 C 3.84 g/m*3 0.64 C 0 km/h
1867 02-02-2011 18:00:00 0.52 C 3.81 g/m*3 0.52 C 0 km/h
1868 02-02-2011 19:00:00 0.32 C 3.81 g/m*3 0.32 C 0 km/h
1869 02-02-2011 20:00:00 0.28 C 3.81 g/m*3 0.28 C 0 km/h
1870 02-02-2011 21:00:00 0.26 C 3.8 g/m*3 0.26 C 0 km/h
1871 02-02-2011 22:00:00 0.2 C 3.78 g/m*3 0.2 C 0 km/h
1872 02-02-2011 23:00:00 0.32 C 3.81 g/m*3 0.32 C 0 km/h
1873 03-02-2011 00:00:00 0.34 C 3.78 g/m*3 0.34 C 0 km/h
1874 03-02-2011 01:00:00 0.48 C 3.82 g/m*3 0.48 C 0 km/h
1875 03-02-2011 02:00:00 0.64 C 3.99 g/m*3 0.64 C 0 km/h
Sensor: Nr:Datum:Temp:Abs-Feuchte:Windchill:Wind:
Aussen-T/F 1876 03-02-2011 03:00:00 0.44 C 4.2 g/m*3 0.44 C 0 km/h
1877 03-02-2011 04:00:00 0.6 C 4.42 g/m*3 0.6 C 0 km/h
1878 03-02-2011 05:00:00 0.9 C 4.56 g/m*3 0.9 C 0 km/h
1879 03-02-2011 06:00:00 1.16 C 4.6 g/m*3 1.16 C 0 km/h
1880 03-02-2011 07:00:00 1.4 C 4.66 g/m*3 1.4 C 0 km/h
1881 03-02-2011 08:00:00 1.52 C 4.68 g/m*3 1.52 C 0 km/h
1882 03-02-2011 09:00:00 1.88 C 4.67 g/m*3 1.88 C 0 km/h
1883 03-02-2011 10:00:00 2.3 C 4.64 g/m*3 2.3 C 0 km/h
1884 03-02-2011 11:00:00 2.82 C 4.64 g/m*3 2.82 C 0 km/h
1885 03-02-2011 12:00:00 3.38 C 4.66 g/m*3 3.38 C 0 km/h
1886 03-02-2011 13:00:00 3.52 C 4.68 g/m*3 3.52 C 0 km/h
1887 03-02-2011 14:00:00 3.64 C 4.78 g/m*3 3.64 C 0 km/h
1888 03-02-2011 15:00:00 3.42 C 4.76 g/m*3 3.42 C 0 km/h
1889 03-02-2011 16:00:00 3.22 C 4.71 g/m*3 3.22 C 0 km/h
1890 03-02-2011 17:00:00 2.76 C 4.68 g/m*3 2.76 C 0 km/h
1891 03-02-2011 18:00:00 2.64 C 4.57 g/m*3 2.64 C 0 km/h
1892 03-02-2011 19:00:00 1.8 C 4.46 g/m*3 1.8 C 0 km/h
1893 03-02-2011 20:00:00 1.62 C 4.41 g/m*3 1.62 C 0 km/h
1894 03-02-2011 21:00:00 1.68 C 4.35 g/m*3 1.68 C 0 km/h
1895 03-02-2011 22:00:00 2.15 C 4.34 g/m*3 2.15 C 0 km/h
1896 03-02-2011 23:00:00 2.4 C 4.43 g/m*3 2.4 C 0 km/h
1897 04-02-2011 00:00:00 3.02 C 4.36 g/m*3 3.02 C 0 km/h
1898 04-02-2011 01:00:00 3.12 C 4.32 g/m*3 3.12 C 0 km/h
1899 04-02-2011 02:00:00 2.64 C 4.42 g/m*3 2.64 C 0 km/h
1900 04-02-2011 03:00:00 2.68 C 4.39 g/m*3 2.68 C 0 km/h
Sensor: Nr:Datum:Temp:Abs-Feuchte:Windchill:Wind:
Aussen-T/F 1901 04-02-2011 04:00:00 2.86 C 4.5 g/m*3 2.86 C 0 km/h
1902 04-02-2011 05:00:00 3.34 C 4.77 g/m*3 3.34 C 0 km/h
1903 04-02-2011 06:00:00 4.08 C 4.92 g/m*3 4.08 C 0 km/h
1904 04-02-2011 07:00:00 4.66 C 5 g/m*3 4.66 C 0 km/h
1905 04-02-2011 08:00:00 5.46 C 5.11 g/m*3 5.46 C 0 km/h
1906 04-02-2011 09:00:00 6.12 C 5.05 g/m*3 6.12 C 0 km/h
1907 04-02-2011 10:00:00 6.6 C 5.07 g/m*3 6.6 C 0 km/h
1908 04-02-2011 11:00:00 7.26 C 5.09 g/m*3 7.26 C 0 km/h
1909 04-02-2011 12:00:00 7.5 C 5.22 g/m*3 7.5 C 0 km/h
1910 04-02-2011 13:00:00 7.46 C 5.3 g/m*3 7.46 C 0 km/h
1911 04-02-2011 14:00:00 7.52 C 5.4 g/m*3 7.52 C 0 km/h
1912 04-02-2011 15:00:00 7.82 C 5.48 g/m*3 7.82 C 0 km/h
1913 04-02-2011 16:00:00 7.82 C 5.56 g/m*3 7.82 C 0 km/h
1914 04-02-2011 17:00:00 7.8 C 5.6 g/m*3 7.8 C 0 km/h
1915 04-02-2011 18:00:00 8.08 C 5.58 g/m*3 8.08 C 0 km/h
1916 04-02-2011 19:00:00 8.32 C 5.65 g/m*3 8.32 C 0 km/h
1917 04-02-2011 20:00:00 8.42 C 5.74 g/m*3 8.42 C 0 km/h
1918 04-02-2011 21:00:00 8.44 C 5.73 g/m*3 8.44 C 0 km/h
1919 04-02-2011 22:00:00 8.6 C 5.72 g/m*3 8.6 C 0 km/h
1920 04-02-2011 23:00:00 8.84 C 5.72 g/m*3 8.84 C 0 km/h
1921 05-02-2011 00:00:00 8.76 C 5.64 g/m*3 8.76 C 0 km/h
1922 05-02-2011 01:00:00 8.56 C 5.69 g/m*3 8.56 C 0 km/h
1923 05-02-2011 02:00:00 8.8 C 5.61 g/m*3 8.8 C 0 km/h
1924 05-02-2011 03:00:00 9.1 C 5.45 g/m*3 9.1 C 0 km/h
1925 05-02-2011 04:00:00 8.92 C 5.47 g/m*3 8.92 C 0 km/h
Sensor: Nr:Datum:Temp:Abs-Feuchte:Windchill:Wind:
Aussen-T/F 1926 05-02-2011 05:00:00 8.72 C 5.49 g/m*3 8.72 C 0 km/h
1927 05-02-2011 06:00:00 8.7 C 5.5 g/m*3 8.7 C 0 km/h
1928 05-02-2011 07:00:00 8.96 C 5.5 g/m*3 8.96 C 0 km/h
1929 05-02-2011 08:00:00 8.84 C 5.55 g/m*3 8.84 C 0 km/h
1930 05-02-2011 09:00:00 9.2 C 5.46 g/m*3 9.2 C 0 km/h
1931 05-02-2011 10:00:00 9.66 C 5.43 g/m*3 9.66 C 0 km/h
1932 05-02-2011 11:00:00 10.04 C 5.37 g/m*3 10.04 C 0 km/h
1933 05-02-2011 12:00:00 10.16 C 5.39 g/m*3 10.16 C 0 km/h
1934 05-02-2011 13:00:00 10.22 C 5.41 g/m*3 10.22 C 0 km/h
1935 05-02-2011 14:00:00 10.02 C 5.36 g/m*3 10.02 C 0 km/h
1936 05-02-2011 15:00:00 9.74 C 5.36 g/m*3 9.74 C 0 km/h
1937 05-02-2011 16:00:00 9.44 C 5.44 g/m*3 9.44 C 0 km/h
1938 05-02-2011 17:00:00 9.16 C 5.54 g/m*3 9.16 C 0 km/h
1939 05-02-2011 18:00:00 9.18 C 5.62 g/m*3 9.18 C 0 km/h
1940 05-02-2011 19:00:00 9.1 C 5.61 g/m*3 9.1 C 0 km/h
1941 05-02-2011 20:00:00 9.22 C 5.74 g/m*3 9.22 C 0 km/h
1942 05-02-2011 21:00:00 9.18 C 5.8 g/m*3 9.18 C 0 km/h
1943 05-02-2011 22:00:00 9.18 C 5.9 g/m*3 9.18 C 0 km/h
1944 05-02-2011 23:00:00 9.34 C 5.91 g/m*3 9.34 C 0 km/h
1945 06-02-2011 00:00:00 9.54 C 5.95 g/m*3 9.54 C 0 km/h
1946 06-02-2011 01:00:00 9.52 C 6 g/m*3 9.52 C 0 km/h
1947 06-02-2011 02:00:00 9.4 C 5.97 g/m*3 9.4 C 0 km/h
1948 06-02-2011 03:00:00 9.44 C 5.88 g/m*3 9.44 C 0 km/h
1949 06-02-2011 04:00:00 9.58 C 5.82 g/m*3 9.58 C 0 km/h
1950 06-02-2011 05:00:00 9.5 C 5.63 g/m*3 9.5 C 0 km/h
Sensor: Nr:Datum:Temp:Abs-Feuchte:Windchill:Wind:
Aussen-T/F 1951 06-02-2011 06:00:00 9.42 C 5.54 g/m*3 9.42 C 0 km/h
1952 06-02-2011 07:00:00 9.3 C 5.43 g/m*3 9.3 C 0 km/h
1953 06-02-2011 08:00:00 9.14 C 5.36 g/m*3 9.14 C 0 km/h
1954 06-02-2011 09:00:00 9.22 C 5.33 g/m*3 9.22 C 0 km/h
1955 06-02-2011 10:00:00 9.5 C 5.19 g/m*3 9.5 C 0 km/h
1956 06-02-2011 11:00:00 9.72 C 5.11 g/m*3 9.72 C 0 km/h
1957 06-02-2011 12:00:00 9.82 C 5.02 g/m*3 9.82 C 0 km/h
1958 06-02-2011 13:00:00 9.86 C 4.86 g/m*3 9.86 C 0 km/h
1959 06-02-2011 14:00:00 10.42 C 4.84 g/m*3 10.42 C 0 km/h
1960 06-02-2011 15:00:00 9.7 C 4.72 g/m*3 9.7 C 0 km/h
1961 06-02-2011 16:00:00 8.44 C 4.66 g/m*3 8.44 C 0 km/h
1962 06-02-2011 17:00:00 7.5 C 4.72 g/m*3 7.5 C 0 km/h
1963 06-02-2011 18:00:00 6.86 C 4.64 g/m*3 6.86 C 0 km/h
1964 06-02-2011 19:00:00 6.88 C 4.61 g/m*3 6.88 C 0 km/h
1965 06-02-2011 20:00:00 6.52 C 4.6 g/m*3 6.52 C 0 km/h
1966 06-02-2011 21:00:00 6.14 C 4.63 g/m*3 6.14 C 0 km/h
1967 06-02-2011 22:00:00 5.8 C 4.74 g/m*3 5.8 C 0 km/h
1968 06-02-2011 23:00:00 5.66 C 4.74 g/m*3 5.66 C 0 km/h
1969 07-02-2011 00:00:00 5.28 C 4.79 g/m*3 5.28 C 0 km/h
1970 07-02-2011 01:00:00 5.48 C 4.7 g/m*3 5.48 C 0 km/h
1971 07-02-2011 02:00:00 5.7 C 4.5 g/m*3 5.7 C 0 km/h
1972 07-02-2011 03:00:00 5.56 C 4.44 g/m*3 5.56 C 0 km/h
1973 07-02-2011 04:00:00 5.34 C 4.43 g/m*3 5.34 C 0 km/h
1974 07-02-2011 05:00:00 5.12 C 4.37 g/m*3 5.12 C 0 km/h
1975 07-02-2011 06:00:00 4.8 C 4.37 g/m*3 4.8 C 0 km/h
Sensor: Nr:Datum:Temp:Abs-Feuchte:Windchill:Wind:
Aussen-T/F 1976 07-02-2011 07:00:00 4.48 C 4.31 g/m*3 4.48 C 0 km/h
1977 07-02-2011 08:00:00 4.42 C 4.29 g/m*3 4.42 C 0 km/h
1978 07-02-2011 09:00:00 3.92 C 4.29 g/m*3 3.92 C 0 km/h
1979 07-02-2011 10:00:00 3.2 C 4.47 g/m*3 3.2 C 0 km/h
1980 07-02-2011 11:00:00 4.52 C 4.62 g/m*3 4.52 C 0 km/h
1981 07-02-2011 12:00:00 6.06 C 4.62 g/m*3 6.06 C 0 km/h
1982 07-02-2011 13:00:00 7.18 C 4.78 g/m*3 7.18 C 0 km/h
1983 07-02-2011 14:00:00 9.68 C 4.12 g/m*3 9.68 C 0 km/h
1984 07-02-2011 15:00:00 11.94 C 2.78 g/m*3 11.94 C 0 km/h
1985 07-02-2011 16:00:00 12.1 C 2.53 g/m*3 12.1 C 0 km/h
1986 07-02-2011 17:00:00 8.82 C 3 g/m*3 8.82 C 0 km/h
1987 07-02-2011 18:00:00 8.3 C 3.15 g/m*3 8.3 C 0 km/h
1988 07-02-2011 19:00:00 7.06 C 3.38 g/m*3 7.06 C 0 km/h
1989 07-02-2011 20:00:00 6.06 C 3.47 g/m*3 6.06 C 0 km/h
1990 07-02-2011 21:00:00 6.06 C 3.67 g/m*3 6.06 C 0 km/h
1991 07-02-2011 22:00:00 6.6 C 3.73 g/m*3 6.6 C 0 km/h
1992 07-02-2011 23:00:00 7.86 C 3.59 g/m*3 7.86 C 0 km/h
1993 08-02-2011 00:00:00 7.66 C 3.75 g/m*3 7.66 C 0 km/h
1994 08-02-2011 01:00:00 7.8 C 4.34 g/m*3 7.8 C 0 km/h
1995 08-02-2011 02:00:00 8.04 C 4.39 g/m*3 8.04 C 0 km/h
1996 08-02-2011 03:00:00 7.96 C 4.55 g/m*3 7.96 C 0 km/h
1997 08-02-2011 04:00:00 7.3 C 4.85 g/m*3 7.3 C 0 km/h
1998 08-02-2011 05:00:00 7.46 C 5 g/m*3 7.46 C 0 km/h
1999 08-02-2011 06:00:00 6.86 C 5.05 g/m*3 6.86 C 0 km/h
2000 08-02-2011 07:00:00 6.04 C 5.37 g/m*3 6.04 C 0 km/h
Sensor: Nr:Datum:Temp:Abs-Feuchte:Windchill:Wind:
Aussen-T/F 2001 08-02-2011 08:00:00 4.52 C 5.11 g/m*3 4.52 C 0 km/h
2002 08-02-2011 09:00:00 4.2 C 5.05 g/m*3 4.2 C 0 km/h
2003 08-02-2011 10:00:00 5.66 C 5.18 g/m*3 5.66 C 0 km/h
2004 08-02-2011 11:00:00 7.28 C 4.96 g/m*3 7.28 C 0 km/h
2005 08-02-2011 12:00:00 8.38 C 4.61 g/m*3 8.38 C 0 km/h
2006 08-02-2011 13:00:00 9.5 C 4.42 g/m*3 9.5 C 0 km/h
2007 08-02-2011 14:00:00 9.42 C 4.49 g/m*3 9.42 C 0 km/h
2008 08-02-2011 15:00:00 9.24 C 4.4 g/m*3 9.24 C 0 km/h
2009 08-02-2011 16:00:00 10.18 C 4.37 g/m*3 10.18 C 0 km/h
2010 08-02-2011 17:00:00 4.78 C 4.42 g/m*3 4.78 C 0 km/h
2011 08-02-2011 18:00:00 3 C 4.26 g/m*3 3 C 0 km/h
2012 08-02-2011 19:00:00 1.48 C 4.16 g/m*3 1.48 C 0 km/h
2013 08-02-2011 20:00:00 -0.02 C 3.97 g/m*3 -0.02 C 0 km/h
2014 08-02-2011 21:00:00 -0.9 C 3.8 g/m*3 -0.9 C 0 km/h
2015 08-02-2011 22:00:00 -1.78 C 3.61 g/m*3 -1.78 C 0 km/h
2016 08-02-2011 23:00:00 -2.34 C 3.5 g/m*3 -2.34 C 0 km/h
2017 09-02-2011 00:00:00 -2.74 C 3.43 g/m*3 -2.74 C 0 km/h
2018 09-02-2011 01:00:00 -3.2 C 3.33 g/m*3 -3.2 C 0 km/h
2019 09-02-2011 02:00:00 -3.38 C 3.31 g/m*3 -3.38 C 0 km/h
2020 09-02-2011 03:00:00 -3.78 C 3.23 g/m*3 -3.78 C 0 km/h
2021 09-02-2011 04:00:00 -4.04 C 3.18 g/m*3 -4.04 C 0 km/h
2022 09-02-2011 05:00:00 -4.26 C 3.12 g/m*3 -4.26 C 0 km/h
2023 09-02-2011 06:00:00 -4.06 C 3.17 g/m*3 -4.06 C 0 km/h
2024 09-02-2011 07:00:00 -3.42 C 3.32 g/m*3 -3.42 C 0 km/h
2025 09-02-2011 08:00:00 -3.2 C 3.41 g/m*3 -3.2 C 0 km/h
Sensor: Nr:Datum:Temp:Abs-Feuchte:Windchill:Wind:
Aussen-T/F 2026 09-02-2011 09:00:00 -2.76 C 3.52 g/m*3 -2.76 C 0 km/h
2027 09-02-2011 10:00:00 -2 C 3.71 g/m*3 -2 C 0 km/h
2028 09-02-2011 11:00:00 -0.58 C 4.05 g/m*3 -0.58 C 0 km/h
2029 09-02-2011 12:00:00 0.9 C 4.34 g/m*3 0.9 C 0 km/h
2030 09-02-2011 13:00:00 2.48 C 4.5 g/m*3 2.48 C 0 km/h
2031 09-02-2011 14:00:00 3.6 C 4.87 g/m*3 3.6 C 0 km/h
2032 09-02-2011 15:00:00 5.22 C 4.87 g/m*3 5.22 C 0 km/h
2033 09-02-2011 16:00:00 8.16 C 4.38 g/m*3 8.16 C 0 km/h
2034 09-02-2011 17:00:00 3.66 C 4.41 g/m*3 3.66 C 0 km/h
2035 09-02-2011 18:00:00 3.04 C 4.61 g/m*3 3.04 C 0 km/h
2036 09-02-2011 19:00:00 2.4 C 4.61 g/m*3 2.4 C 0 km/h
2037 09-02-2011 20:00:00 1.5 C 4.55 g/m*3 1.5 C 0 km/h
2038 09-02-2011 21:00:00 0.92 C 4.51 g/m*3 0.92 C 0 km/h
2039 09-02-2011 22:00:00 0.08 C 4.29 g/m*3 0.08 C 0 km/h
2040 09-02-2011 23:00:00 -0.14 C 4.26 g/m*3 -0.14 C 0 km/h
2041 10-02-2011 00:00:00 -0.28 C 4.24 g/m*3 -0.28 C 0 km/h
2042 10-02-2011 01:00:00 -0.82 C 4.11 g/m*3 -0.82 C 0 km/h
2043 10-02-2011 02:00:00 -1.22 C 4.01 g/m*3 -1.22 C 0 km/h
2044 10-02-2011 03:00:00 -1.26 C 4 g/m*3 -1.26 C 0 km/h
2045 10-02-2011 04:00:00 -0.22 C 4.34 g/m*3 -0.22 C 0 km/h
2046 10-02-2011 05:00:00 0.56 C 4.63 g/m*3 0.56 C 0 km/h
2047 10-02-2011 06:00:00 0.96 C 4.76 g/m*3 0.96 C 0 km/h
2048 10-02-2011 07:00:00 1.1 C 4.81 g/m*3 1.1 C 0 km/h
2049 10-02-2011 08:00:00 1.34 C 4.89 g/m*3 1.34 C 0 km/h
2050 10-02-2011 09:00:00 1.64 C 4.88 g/m*3 1.64 C 0 km/h
Sensor: Nr:Datum:Temp:Abs-Feuchte:Windchill:Wind:
Aussen-T/F 2051 10-02-2011 10:00:00 3.02 C 4.8 g/m*3 3.02 C 0 km/h
2052 10-02-2011 11:00:00 4.78 C 4.54 g/m*3 4.78 C 0 km/h
2053 10-02-2011 12:00:00 5.76 C 4.5 g/m*3 5.76 C 0 km/h
2054 10-02-2011 13:00:00 6.26 C 4.46 g/m*3 6.26 C 0 km/h
2055 10-02-2011 14:00:00 7.64 C 4.6 g/m*3 7.64 C 0 km/h
2056 10-02-2011 15:00:00 7.72 C 4.81 g/m*3 7.72 C 0 km/h
2057 10-02-2011 16:00:00 6.88 C 5.03 g/m*3 6.88 C 0 km/h
2058 10-02-2011 17:00:00 6 C 5.4 g/m*3 6 C 0 km/h
2059 10-02-2011 18:00:00 5.58 C 5.79 g/m*3 5.58 C 0 km/h
2060 10-02-2011 19:00:00 5.72 C 5.89 g/m*3 5.72 C 0 km/h
2061 10-02-2011 20:00:00 7.28 C 5.87 g/m*3 7.28 C 0 km/h
2062 10-02-2011 21:00:00 8.32 C 6.03 g/m*3 8.32 C 0 km/h
2063 10-02-2011 22:00:00 8.52 C 6.24 g/m*3 8.52 C 0 km/h
2064 10-02-2011 23:00:00 9.34 C 6.29 g/m*3 9.34 C 0 km/h
2065 11-02-2011 00:00:00 9.46 C 6.39 g/m*3 9.46 C 0 km/h
2066 11-02-2011 01:00:00 9.44 C 6.53 g/m*3 9.44 C 0 km/h
2067 11-02-2011 02:00:00 9.46 C 6.63 g/m*3 9.46 C 0 km/h
2068 11-02-2011 03:00:00 9 C 6.82 g/m*3 9 C 0 km/h
2069 11-02-2011 04:00:00 9.16 C 6.79 g/m*3 9.16 C 0 km/h
2070 11-02-2011 05:00:00 9.3 C 6.69 g/m*3 9.3 C 0 km/h
2071 11-02-2011 06:00:00 9.1 C 6.9 g/m*3 9.1 C 0 km/h
2072 11-02-2011 07:00:00 9.14 C 6.94 g/m*3 9.14 C 0 km/h
2073 11-02-2011 08:00:00 9.28 C 6.93 g/m*3 9.28 C 0 km/h
2074 11-02-2011 09:00:00 9.92 C 6.88 g/m*3 9.92 C 0 km/h
2075 11-02-2011 10:00:00 10.82 C 6.95 g/m*3 10.82 C 0 km/h
Sensor: Nr:Datum:Temp:Abs-Feuchte:Windchill:Wind:
Aussen-T/F 2076 11-02-2011 11:00:00 11.28 C 6.99 g/m*3 11.28 C 0 km/h
2077 11-02-2011 12:00:00 12.42 C 7.02 g/m*3 12.42 C 0 km/h
2078 11-02-2011 13:00:00 11.28 C 7.27 g/m*3 11.28 C 0 km/h
2079 11-02-2011 14:00:00 10.88 C 7.49 g/m*3 10.88 C 0 km/h
2080 11-02-2011 15:00:00 11.12 C 7.52 g/m*3 11.12 C 0 km/h
2081 11-02-2011 16:00:00 11.44 C 7.47 g/m*3 11.44 C 0 km/h
2082 11-02-2011 17:00:00 11.24 C 7.36 g/m*3 11.24 C 0 km/h
2083 11-02-2011 18:00:00 10.38 C 7.62 g/m*3 10.38 C 0 km/h
2084 11-02-2011 19:00:00 10.52 C 7.57 g/m*3 10.52 C 0 km/h
2085 11-02-2011 20:00:00 10.58 C 7.43 g/m*3 10.58 C 0 km/h
2086 11-02-2011 21:00:00 10.72 C 7.28 g/m*3 10.72 C 0 km/h
2087 11-02-2011 22:00:00 10.06 C 7.13 g/m*3 10.06 C 0 km/h
2088 11-02-2011 23:00:00 9.74 C 7.23 g/m*3 9.74 C 0 km/h
2089 12-02-2011 00:00:00 9.96 C 7.29 g/m*3 9.96 C 0 km/h
2090 12-02-2011 01:00:00 9.02 C 7.5 g/m*3 9.02 C 0 km/h
2091 12-02-2011 02:00:00 8.6 C 7.53 g/m*3 8.6 C 0 km/h
2092 12-02-2011 03:00:00 8.28 C 7.46 g/m*3 8.28 C 0 km/h
2093 12-02-2011 04:00:00 7.66 C 7.26 g/m*3 7.66 C 0 km/h
2094 12-02-2011 05:00:00 7.6 C 7.27 g/m*3 7.6 C 0 km/h
2095 12-02-2011 06:00:00 6.82 C 6.83 g/m*3 6.82 C 0 km/h
2096 12-02-2011 07:00:00 5.72 C 5.77 g/m*3 5.72 C 0 km/h
2097 12-02-2011 08:00:00 5.52 C 5.64 g/m*3 5.52 C 0 km/h
2098 12-02-2011 09:00:00 6.1 C 5.65 g/m*3 6.1 C 0 km/h
2099 12-02-2011 10:00:00 7.32 C 5.71 g/m*3 7.32 C 0 km/h
2100 12-02-2011 11:00:00 8.3 C 5.83 g/m*3 8.3 C 0 km/h
Sensor: Nr:Datum:Temp:Abs-Feuchte:Windchill:Wind:
Aussen-T/F 2101 12-02-2011 12:00:00 9.1 C 5.91 g/m*3 9.1 C 0 km/h
2102 12-02-2011 13:00:00 7.96 C 6 g/m*3 7.96 C 0 km/h
2103 12-02-2011 14:00:00 8.04 C 6.08 g/m*3 8.04 C 0 km/h
2104 12-02-2011 15:00:00 8.56 C 5.93 g/m*3 8.56 C 0 km/h
2105 12-02-2011 16:00:00 7.48 C 5.84 g/m*3 7.48 C 0 km/h
2106 12-02-2011 17:00:00 6.3 C 5.79 g/m*3 6.3 C 0 km/h
2107 12-02-2011 18:00:00 4.26 C 5.47 g/m*3 4.26 C 0 km/h
2108 12-02-2011 19:00:00 3.64 C 5.47 g/m*3 3.64 C 0 km/h
2109 12-02-2011 20:00:00 4.42 C 5.86 g/m*3 4.42 C 0 km/h
2110 12-02-2011 21:00:00 4.68 C 5.99 g/m*3 4.68 C 0 km/h
2111 12-02-2011 22:00:00 4.72 C 6.03 g/m*3 4.72 C 0 km/h
2112 12-02-2011 23:00:00 5.06 C 6.15 g/m*3 5.06 C 0 km/h
2113 13-02-2011 00:00:00 5.24 C 6.17 g/m*3 5.24 C 0 km/h
2114 13-02-2011 01:00:00 5.06 C 6.11 g/m*3 5.06 C 0 km/h
2115 13-02-2011 02:00:00 4.74 C 6.08 g/m*3 4.74 C 0 km/h
2116 13-02-2011 03:00:00 4.92 C 6.15 g/m*3 4.92 C 0 km/h
2117 13-02-2011 04:00:00 4.92 C 6.18 g/m*3 4.92 C 0 km/h
2118 13-02-2011 05:00:00 4.24 C 5.94 g/m*3 4.24 C 0 km/h
2119 13-02-2011 06:00:00 3.88 C 5.8 g/m*3 3.88 C 0 km/h
2120 13-02-2011 07:00:00 2.66 C 5.36 g/m*3 2.66 C 0 km/h
2121 13-02-2011 08:00:00 1.74 C 5.06 g/m*3 1.74 C 0 km/h
2122 13-02-2011 09:00:00 2.76 C 5.41 g/m*3 2.76 C 0 km/h
2123 13-02-2011 10:00:00 4.74 C 5.97 g/m*3 4.74 C 0 km/h
2124 13-02-2011 11:00:00 6.14 C 5.79 g/m*3 6.14 C 0 km/h
2125 13-02-2011 12:00:00 7.56 C 5.64 g/m*3 7.56 C 0 km/h
Sensor: Nr:Datum:Temp:Abs-Feuchte:Windchill:Wind:
Aussen-T/F 2126 13-02-2011 13:00:00 7.56 C 5.13 g/m*3 7.56 C 0 km/h
2127 13-02-2011 14:00:00 8.78 C 5.11 g/m*3 8.78 C 0 km/h
2128 13-02-2011 15:00:00 8.9 C 4.92 g/m*3 8.9 C 0 km/h
2129 13-02-2011 16:00:00 8.16 C 5.03 g/m*3 8.16 C 0 km/h
2130 13-02-2011 17:00:00 5.96 C 5.47 g/m*3 5.96 C 0 km/h
2131 13-02-2011 18:00:00 4.48 C 5.44 g/m*3 4.48 C 0 km/h
2132 13-02-2011 19:00:00 4.36 C 5.55 g/m*3 4.36 C 0 km/h
2133 13-02-2011 20:00:00 4.28 C 5.54 g/m*3 4.28 C 0 km/h
2134 13-02-2011 21:00:00 4.22 C 5.55 g/m*3 4.22 C 0 km/h
2135 13-02-2011 22:00:00 4.06 C 5.52 g/m*3 4.06 C 0 km/h
2136 13-02-2011 23:00:00 3.86 C 5.53 g/m*3 3.86 C 0 km/h
2137 14-02-2011 00:00:00 3.36 C 5.4 g/m*3 3.36 C 0 km/h
2138 14-02-2011 01:00:00 2.96 C 5.3 g/m*3 2.96 C 0 km/h
2139 14-02-2011 02:00:00 2.62 C 5.22 g/m*3 2.62 C 0 km/h
2140 14-02-2011 03:00:00 2.26 C 5.15 g/m*3 2.26 C 0 km/h
2141 14-02-2011 04:00:00 1.74 C 4.97 g/m*3 1.74 C 0 km/h
2142 14-02-2011 05:00:00 1.86 C 5.04 g/m*3 1.86 C 0 km/h
2143 14-02-2011 06:00:00 1.6 C 4.97 g/m*3 1.6 C 0 km/h
2144 14-02-2011 07:00:00 0.96 C 4.76 g/m*3 0.96 C 0 km/h
2145 14-02-2011 08:00:00 1.28 C 4.88 g/m*3 1.28 C 0 km/h
2146 14-02-2011 09:00:00 3.22 C 5.55 g/m*3 3.22 C 0 km/h
2147 14-02-2011 10:00:00 4.8 C 5.93 g/m*3 4.8 C 0 km/h
2148 14-02-2011 11:00:00 6.92 C 5.81 g/m*3 6.92 C 0 km/h
2149 14-02-2011 12:00:00 8.52 C 5.47 g/m*3 8.52 C 0 km/h
2150 14-02-2011 13:00:00 10.08 C 5.46 g/m*3 10.08 C 0 km/h
Sensor: Nr:Datum:Temp:Abs-Feuchte:Windchill:Wind:
Aussen-T/F 2151 14-02-2011 14:00:00 9.92 C 5.35 g/m*3 9.92 C 0 km/h
2152 14-02-2011 15:00:00 10.34 C 5.51 g/m*3 10.34 C 0 km/h
2153 14-02-2011 16:00:00 8.8 C 5.59 g/m*3 8.8 C 0 km/h
2154 14-02-2011 17:00:00 6.46 C 5.83 g/m*3 6.46 C 0 km/h
2155 14-02-2011 18:00:00 6.32 C 6.12 g/m*3 6.32 C 0 km/h
2156 14-02-2011 19:00:00 6.48 C 6.23 g/m*3 6.48 C 0 km/h
2157 14-02-2011 20:00:00 6.36 C 6.39 g/m*3 6.36 C 0 km/h
2158 14-02-2011 21:00:00 6.26 C 6.35 g/m*3 6.26 C 0 km/h
2159 14-02-2011 22:00:00 6.12 C 6.25 g/m*3 6.12 C 0 km/h
2160 14-02-2011 23:00:00 5.92 C 6.21 g/m*3 5.92 C 0 km/h
2161 15-02-2011 00:00:00 5.92 C 6.3 g/m*3 5.92 C 0 km/h
2162 15-02-2011 01:00:00 5.88 C 6.39 g/m*3 5.88 C 0 km/h
2163 15-02-2011 02:00:00 5.56 C 6.35 g/m*3 5.56 C 0 km/h
2164 15-02-2011 03:00:00 4.62 C 5.96 g/m*3 4.62 C 0 km/h
2165 15-02-2011 04:00:00 4.5 C 5.93 g/m*3 4.5 C 0 km/h
2166 15-02-2011 05:00:00 4.28 C 5.86 g/m*3 4.28 C 0 km/h
2167 15-02-2011 06:00:00 4.24 C 5.88 g/m*3 4.24 C 0 km/h
2168 15-02-2011 07:00:00 3.74 C 5.7 g/m*3 3.74 C 0 km/h
2169 15-02-2011 08:00:00 3.84 C 5.75 g/m*3 3.84 C 0 km/h
2170 15-02-2011 09:00:00 4.6 C 5.97 g/m*3 4.6 C 0 km/h
2171 15-02-2011 10:00:00 5.66 C 6.05 g/m*3 5.66 C 0 km/h
2172 15-02-2011 11:00:00 6.98 C 5.74 g/m*3 6.98 C 0 km/h
2173 15-02-2011 12:00:00 7.64 C 5.49 g/m*3 7.64 C 0 km/h
2174 15-02-2011 13:00:00 7.38 C 5.4 g/m*3 7.38 C 0 km/h
2175 15-02-2011 14:00:00 6.72 C 5.39 g/m*3 6.72 C 0 km/h
Sensor: Nr:Datum:Temp:Abs-Feuchte:Windchill:Wind:
Aussen-T/F 2176 15-02-2011 15:00:00 6.32 C 5.37 g/m*3 6.32 C 0 km/h
2177 15-02-2011 16:00:00 5.48 C 5.4 g/m*3 5.48 C 0 km/h
2178 15-02-2011 17:00:00 4.98 C 5.29 g/m*3 4.98 C 0 km/h
2179 15-02-2011 18:00:00 4.62 C 5.26 g/m*3 4.62 C 0 km/h
2180 15-02-2011 19:00:00 4.18 C 5.19 g/m*3 4.18 C 0 km/h
2181 15-02-2011 20:00:00 3.42 C 5.25 g/m*3 3.42 C 0 km/h
2182 15-02-2011 21:00:00 4.24 C 5.57 g/m*3 4.24 C 0 km/h
2183 15-02-2011 22:00:00 4.25 C 5.46 g/m*3 4.25 C 0 km/h
2184 15-02-2011 23:00:00 4.36 C 5.65 g/m*3 4.36 C 0 km/h
2185 16-02-2011 00:00:00 4.78 C 5.69 g/m*3 4.78 C 0 km/h
2186 16-02-2011 01:00:00 3.52 C 5.33 g/m*3 3.52 C 0 km/h
2187 16-02-2011 02:00:00 4.22 C 5.74 g/m*3 4.22 C 0 km/h
2188 16-02-2011 03:00:00 4.42 C 5.82 g/m*3 4.42 C 0 km/h
2189 16-02-2011 04:00:00 3.78 C 5.51 g/m*3 3.78 C 0 km/h
2190 16-02-2011 05:00:00 2.58 C 5.16 g/m*3 2.58 C 0 km/h
2191 16-02-2011 06:00:00 3.74 C 5.61 g/m*3 3.74 C 0 km/h
2192 16-02-2011 07:00:00 4.1 C 5.56 g/m*3 4.1 C 0 km/h
2193 16-02-2011 08:00:00 4.2 C 5.49 g/m*3 4.2 C 0 km/h
2194 16-02-2011 09:00:00 5.44 C 5.69 g/m*3 5.44 C 0 km/h
2195 16-02-2011 10:00:00 6.98 C 5.43 g/m*3 6.98 C 0 km/h
2196 16-02-2011 11:00:00 7.66 C 5.37 g/m*3 7.66 C 0 km/h
2197 16-02-2011 12:00:00 7.92 C 5.33 g/m*3 7.92 C 0 km/h
2198 16-02-2011 13:00:00 9.06 C 5.29 g/m*3 9.06 C 0 km/h
2199 16-02-2011 14:00:00 9.04 C 5.29 g/m*3 9.04 C 0 km/h
2200 16-02-2011 15:00:00 9.02 C 5.37 g/m*3 9.02 C 0 km/h
Sensor: Nr:Datum:Temp:Abs-Feuchte:Windchill:Wind:
Aussen-T/F 2201 16-02-2011 16:00:00 10.1 C 5.35 g/m*3 10.1 C 0 km/h
2202 16-02-2011 17:00:00 6.42 C 5.46 g/m*3 6.42 C 0 km/h
2203 16-02-2011 18:00:00 3.88 C 5.3 g/m*3 3.88 C 0 km/h
2204 16-02-2011 19:00:00 2.9 C 5.16 g/m*3 2.9 C 0 km/h
2205 16-02-2011 20:00:00 2.04 C 4.94 g/m*3 2.04 C 0 km/h
2206 16-02-2011 21:00:00 1.5 C 4.82 g/m*3 1.5 C 0 km/h
2207 16-02-2011 22:00:00 0.66 C 4.6 g/m*3 0.66 C 0 km/h
2208 16-02-2011 23:00:00 -0.26 C 4.33 g/m*3 -0.26 C 0 km/h
2209 17-02-2011 00:00:00 -0.94 C 4.09 g/m*3 -0.94 C 0 km/h
2210 17-02-2011 01:00:00 -0.72 C 4.19 g/m*3 -0.72 C 0 km/h
2211 17-02-2011 02:00:00 -0.44 C 4.29 g/m*3 -0.44 C 0 km/h
2212 17-02-2011 03:00:00 -0.24 C 4.38 g/m*3 -0.24 C 0 km/h
2213 17-02-2011 04:00:00 0.12 C 4.5 g/m*3 0.12 C 0 km/h
2214 17-02-2011 05:00:00 0.52 C 4.67 g/m*3 0.52 C 0 km/h
2215 17-02-2011 06:00:00 0.94 C 4.81 g/m*3 0.94 C 0 km/h
2216 17-02-2011 07:00:00 1.22 C 4.9 g/m*3 1.22 C 0 km/h
2217 17-02-2011 08:00:00 1.52 C 5 g/m*3 1.52 C 0 km/h
2218 17-02-2011 09:00:00 2.32 C 5.26 g/m*3 2.32 C 0 km/h
2219 17-02-2011 10:00:00 3.78 C 5.15 g/m*3 3.78 C 0 km/h
2220 17-02-2011 11:00:00 4 C 4.23 g/m*3 4 C 0 km/h
2221 17-02-2011 12:00:00 6.12 C 3.95 g/m*3 6.12 C 0 km/h
2222 17-02-2011 13:00:00 6.42 C 3.76 g/m*3 6.42 C 0 km/h
2223 17-02-2011 14:00:00 5.5 C 3.86 g/m*3 5.5 C 0 km/h
2224 17-02-2011 15:00:00 5.8 C 3.8 g/m*3 5.8 C 0 km/h
2225 17-02-2011 16:00:00 4.16 C 3.78 g/m*3 4.16 C 0 km/h
Sensor: Nr:Datum:Temp:Abs-Feuchte:Windchill:Wind:
Aussen-T/F 2226 17-02-2011 17:00:00 2.78 C 3.7 g/m*3 2.78 C 0 km/h
2227 17-02-2011 18:00:00 0.96 C 3.72 g/m*3 0.96 C 0 km/h
2228 17-02-2011 19:00:00 -0.5 C 3.68 g/m*3 -0.5 C 0 km/h
2229 17-02-2011 20:00:00 0.2 C 4.05 g/m*3 0.2 C 0 km/h
2230 17-02-2011 21:00:00 0.94 C 4.02 g/m*3 0.94 C 0 km/h
2231 17-02-2011 22:00:00 1.3 C 3.83 g/m*3 1.3 C 0 km/h
2232 17-02-2011 23:00:00 1.36 C 3.81 g/m*3 1.36 C 0 km/h
2233 18-02-2011 00:00:00 1.28 C 3.83 g/m*3 1.28 C 0 km/h
2234 18-02-2011 01:00:00 1.22 C 3.8 g/m*3 1.22 C 0 km/h
2235 18-02-2011 02:00:00 1.22 C 3.89 g/m*3 1.22 C 0 km/h
2236 18-02-2011 03:00:00 1.26 C 3.87 g/m*3 1.26 C 0 km/h
2237 18-02-2011 04:00:00 1.3 C 3.84 g/m*3 1.3 C 0 km/h
2238 18-02-2011 05:00:00 1.18 C 3.83 g/m*3 1.18 C 0 km/h
2239 18-02-2011 06:00:00 1.18 C 3.9 g/m*3 1.18 C 0 km/h
2240 18-02-2011 07:00:00 1.24 C 3.93 g/m*3 1.24 C 0 km/h
2241 18-02-2011 08:00:00 1.52 C 3.99 g/m*3 1.52 C 0 km/h
2242 18-02-2011 09:00:00 2.12 C 3.96 g/m*3 2.12 C 0 km/h
2243 18-02-2011 10:00:00 2.52 C 3.95 g/m*3 2.52 C 0 km/h
2244 18-02-2011 11:00:00 2.92 C 4 g/m*3 2.92 C 0 km/h
2245 18-02-2011 12:00:00 3.18 C 4.03 g/m*3 3.18 C 0 km/h
2246 18-02-2011 13:00:00 3.38 C 4.1 g/m*3 3.38 C 0 km/h
2247 18-02-2011 14:00:00 3.56 C 4.15 g/m*3 3.56 C 0 km/h
2248 18-02-2011 15:00:00 3.66 C 4.15 g/m*3 3.66 C 0 km/h
2249 18-02-2011 16:00:00 3.36 C 4.17 g/m*3 3.36 C 0 km/h
2250 18-02-2011 17:00:00 2.9 C 4.28 g/m*3 2.9 C 0 km/h
Sensor: Nr:Datum:Temp:Abs-Feuchte:Windchill:Wind:
Aussen-T/F 2251 18-02-2011 18:00:00 2.72 C 4.38 g/m*3 2.72 C 0 km/h
2252 18-02-2011 19:00:00 2.64 C 4.43 g/m*3 2.64 C 0 km/h
2253 18-02-2011 20:00:00 2.48 C 4.44 g/m*3 2.48 C 0 km/h
2254 18-02-2011 21:00:00 2.38 C 4.5 g/m*3 2.38 C 0 km/h
2255 18-02-2011 22:00:00 2.24 C 4.48 g/m*3 2.24 C 0 km/h
2256 18-02-2011 23:00:00 2.22 C 4.56 g/m*3 2.22 C 0 km/h
2257 19-02-2011 00:00:00 2.16 C 4.57 g/m*3 2.16 C 0 km/h
2258 19-02-2011 01:00:00 2.08 C 4.58 g/m*3 2.08 C 0 km/h
2259 19-02-2011 02:00:00 1.98 C 4.56 g/m*3 1.98 C 0 km/h
2260 19-02-2011 03:00:00 1.94 C 4.59 g/m*3 1.94 C 0 km/h
2261 19-02-2011 04:00:00 1.86 C 4.62 g/m*3 1.86 C 0 km/h
2262 19-02-2011 05:00:00 1.88 C 4.54 g/m*3 1.88 C 0 km/h
2263 19-02-2011 06:00:00 1.8 C 4.39 g/m*3 1.8 C 0 km/h
2264 19-02-2011 07:00:00 1.68 C 4.36 g/m*3 1.68 C 0 km/h
2265 19-02-2011 08:00:00 1.78 C 4.28 g/m*3 1.78 C 0 km/h
2266 19-02-2011 09:00:00 2.08 C 4.11 g/m*3 2.08 C 0 km/h
2267 19-02-2011 10:00:00 2.82 C 4.15 g/m*3 2.82 C 0 km/h
2268 19-02-2011 11:00:00 3.82 C 4.05 g/m*3 3.82 C 0 km/h
2269 19-02-2011 12:00:00 4.94 C 3.98 g/m*3 4.94 C 0 km/h
2270 19-02-2011 13:00:00 5.14 C 4.06 g/m*3 5.14 C 0 km/h
2271 19-02-2011 14:00:00 4.74 C 4.01 g/m*3 4.74 C 0 km/h
2272 19-02-2011 15:00:00 4.66 C 4.07 g/m*3 4.66 C 0 km/h
2273 19-02-2011 16:00:00 4.4 C 4.14 g/m*3 4.4 C 0 km/h
2274 19-02-2011 17:00:00 3.74 C 4.27 g/m*3 3.74 C 0 km/h
2275 19-02-2011 18:00:00 3.02 C 4.31 g/m*3 3.02 C 0 km/h
Sensor: Nr:Datum:Temp:Abs-Feuchte:Windchill:Wind:
Aussen-T/F 2276 19-02-2011 19:00:00 2.9 C 4.37 g/m*3 2.9 C 0 km/h
2277 19-02-2011 20:00:00 2.14 C 4.23 g/m*3 2.14 C 0 km/h
2278 19-02-2011 21:00:00 2.36 C 4.4 g/m*3 2.36 C 0 km/h
2279 19-02-2011 22:00:00 2.16 C 4.16 g/m*3 2.16 C 0 km/h
2280 19-02-2011 23:00:00 1.8 C 4.12 g/m*3 1.8 C 0 km/h
2281 20-02-2011 00:00:00 1.58 C 3.92 g/m*3 1.58 C 0 km/h
2282 20-02-2011 01:00:00 0.9 C 3.79 g/m*3 0.9 C 0 km/h
2283 20-02-2011 02:00:00 0.56 C 3.82 g/m*3 0.56 C 0 km/h
2284 20-02-2011 03:00:00 0.7 C 3.7 g/m*3 0.7 C 0 km/h
2285 20-02-2011 04:00:00 0.52 C 3.62 g/m*3 0.52 C 0 km/h
2286 20-02-2011 05:00:00 0.34 C 3.56 g/m*3 0.34 C 0 km/h
2287 20-02-2011 06:00:00 0.36 C 3.53 g/m*3 0.36 C 0 km/h
2288 20-02-2011 07:00:00 0.42 C 3.47 g/m*3 0.42 C 0 km/h
2289 20-02-2011 08:00:00 0.54 C 3.38 g/m*3 0.54 C 0 km/h
2290 20-02-2011 09:00:00 1.1 C 3.31 g/m*3 1.1 C 0 km/h
2291 20-02-2011 10:00:00 1.62 C 3.21 g/m*3 1.62 C 0 km/h
2292 20-02-2011 11:00:00 2.14 C 3.15 g/m*3 2.14 C 0 km/h
2293 20-02-2011 12:00:00 2.42 C 3.1 g/m*3 2.42 C 0 km/h
2294 20-02-2011 13:00:00 2.22 C 3.05 g/m*3 2.22 C 0 km/h
2295 20-02-2011 14:00:00 2.14 C 2.98 g/m*3 2.14 C 0 km/h
2296 20-02-2011 15:00:00 2.48 C 2.88 g/m*3 2.48 C 0 km/h
2297 20-02-2011 16:00:00 1.34 C 2.89 g/m*3 1.34 C 0 km/h
2298 20-02-2011 17:00:00 0.6 C 2.91 g/m*3 0.6 C 0 km/h
2299 20-02-2011 18:00:00 0 C 2.81 g/m*3 0 C 0 km/h
2300 20-02-2011 19:00:00 -0.32 C 2.75 g/m*3 -0.32 C 0 km/h
Sensor: Nr:Datum:Temp:Abs-Feuchte:Windchill:Wind:
Aussen-T/F 2301 20-02-2011 20:00:00 -0.78 C 2.63 g/m*3 -0.78 C 0 km/h
2302 20-02-2011 21:00:00 -1.04 C 2.55 g/m*3 -1.04 C 0 km/h
2303 20-02-2011 22:00:00 -1.4 C 2.51 g/m*3 -1.4 C 0 km/h
2304 20-02-2011 23:00:00 -1.64 C 2.46 g/m*3 -1.64 C 0 km/h
2305 21-02-2011 00:00:00 -1.84 C 2.4 g/m*3 -1.84 C 0 km/h
2306 21-02-2011 01:00:00 -2.02 C 2.35 g/m*3 -2.02 C 0 km/h
2307 21-02-2011 02:00:00 -2.24 C 2.32 g/m*3 -2.24 C 0 km/h
2308 21-02-2011 03:00:00 -2.4 C 2.28 g/m*3 -2.4 C 0 km/h
2309 21-02-2011 04:00:00 -2.64 C 2.21 g/m*3 -2.64 C 0 km/h
2310 21-02-2011 05:00:00 -2.72 C 2.2 g/m*3 -2.72 C 0 km/h
2311 21-02-2011 06:00:00 -2.92 C 2.17 g/m*3 -2.92 C 0 km/h
2312 21-02-2011 07:00:00 -3.22 C 2.11 g/m*3 -3.22 C 0 km/h
2313 21-02-2011 08:00:00 -3.32 C 2.07 g/m*3 -3.32 C 0 km/h
2314 21-02-2011 09:00:00 -2.92 C 2.07 g/m*3 -2.92 C 0 km/h
2315 21-02-2011 10:00:00 -2.04 C 2.08 g/m*3 -2.04 C 0 km/h
2316 21-02-2011 11:00:00 -1.52 C 2.04 g/m*3 -1.52 C 0 km/h
2317 21-02-2011 12:00:00 -1.14 C 2.05 g/m*3 -1.14 C 0 km/h
2318 21-02-2011 13:00:00 -0.88 C 2.12 g/m*3 -0.88 C 0 km/h
2319 21-02-2011 14:00:00 -0.46 C 2.17 g/m*3 -0.46 C 0 km/h
2320 21-02-2011 15:00:00 -0.16 C 2.22 g/m*3 -0.16 C 0 km/h
2321 21-02-2011 16:00:00 -0.64 C 2.25 g/m*3 -0.64 C 0 km/h
2322 21-02-2011 17:00:00 -1 C 2.29 g/m*3 -1 C 0 km/h
2323 21-02-2011 18:00:00 -1.16 C 2.3 g/m*3 -1.16 C 0 km/h
2324 21-02-2011 19:00:00 -1.14 C 2.28 g/m*3 -1.14 C 0 km/h
2325 21-02-2011 20:00:00 -1.12 C 2.3 g/m*3 -1.12 C 0 km/h
Sensor: Nr:Datum:Temp:Abs-Feuchte:Windchill:Wind:
Aussen-T/F 2326 21-02-2011 21:00:00 -1.3 C 2.29 g/m*3 -1.3 C 0 km/h
2327 21-02-2011 22:00:00 -1.72 C 2.14 g/m*3 -1.72 C 0 km/h
2328 21-02-2011 23:00:00 -2.98 C 2.09 g/m*3 -2.98 C 0 km/h
2329 22-02-2011 00:00:00 -3.56 C 2.11 g/m*3 -3.56 C 0 km/h
2330 22-02-2011 01:00:00 -3.18 C 2.06 g/m*3 -3.18 C 0 km/h
2331 22-02-2011 02:00:00 -3.34 C 2.02 g/m*3 -3.34 C 0 km/h
2332 22-02-2011 03:00:00 -4.02 C 1.96 g/m*3 -4.02 C 0 km/h
2333 22-02-2011 04:00:00 -4.96 C 1.89 g/m*3 -4.96 C 0 km/h
2334 22-02-2011 05:00:00 -6.06 C 1.85 g/m*3 -6.06 C 0 km/h
2335 22-02-2011 06:00:00 -7.78 C 1.83 g/m*3 -7.78 C 0 km/h
2336 22-02-2011 07:00:00 -8.32 C 1.86 g/m*3 -8.32 C 0 km/h
2337 22-02-2011 08:00:00 -7.72 C 1.89 g/m*3 -7.72 C 0 km/h
2338 22-02-2011 09:00:00 -6.96 C 1.86 g/m*3 -6.96 C 0 km/h
2339 22-02-2011 10:00:00 -5.72 C 1.87 g/m*3 -5.72 C 0 km/h
2340 22-02-2011 11:00:00 -3.54 C 1.84 g/m*3 -3.54 C 0 km/h
2341 22-02-2011 12:00:00 -0.04 C 1.9 g/m*3 -0.04 C 0 km/h
2342 22-02-2011 13:00:00 1.94 C 1.59 g/m*3 1.94 C 0 km/h
2343 22-02-2011 14:00:00 1.62 C 1.84 g/m*3 1.62 C 0 km/h
2344 22-02-2011 15:00:00 3.48 C 1.62 g/m*3 3.48 C 0 km/h
2345 22-02-2011 16:00:00 5.9 C 1.44 g/m*3 5.9 C 0 km/h
2346 22-02-2011 17:00:00 1.3 C 1.74 g/m*3 1.3 C 0 km/h
2347 22-02-2011 18:00:00 -3.76 C 2.08 g/m*3 -3.76 C 0 km/h
2348 22-02-2011 19:00:00 -4.52 C 2.11 g/m*3 -4.52 C 0 km/h
2349 22-02-2011 20:00:00 -5.14 C 2.1 g/m*3 -5.14 C 0 km/h
2350 22-02-2011 21:00:00 -5.36 C 2.07 g/m*3 -5.36 C 0 km/h
Sensor: Nr:Datum:Temp:Abs-Feuchte:Windchill:Wind:
Aussen-T/F 2351 22-02-2011 22:00:00 -5.56 C 2.04 g/m*3 -5.56 C 0 km/h
2352 22-02-2011 23:00:00 -6.1 C 1.91 g/m*3 -6.1 C 0 km/h
2353 23-02-2011 00:00:00 -6.7 C 1.91 g/m*3 -6.7 C 0 km/h
2354 23-02-2011 01:00:00 -7.2 C 1.89 g/m*3 -7.2 C 0 km/h
2355 23-02-2011 02:00:00 -7.9 C 1.81 g/m*3 -7.9 C 0 km/h
2356 23-02-2011 03:00:00 -8.14 C 1.84 g/m*3 -8.14 C 0 km/h
2357 23-02-2011 04:00:00 -8.76 C 1.82 g/m*3 -8.76 C 0 km/h
2358 23-02-2011 05:00:00 -8.8 C 1.87 g/m*3 -8.8 C 0 km/h
2359 23-02-2011 06:00:00 -9.36 C 1.78 g/m*3 -9.36 C 0 km/h
2360 23-02-2011 07:00:00 -9.18 C 1.83 g/m*3 -9.18 C 0 km/h
2361 23-02-2011 08:00:00 -7.5 C 2.12 g/m*3 -7.5 C 0 km/h
2362 23-02-2011 09:00:00 -4.84 C 2.31 g/m*3 -4.84 C 0 km/h
2363 23-02-2011 10:00:00 -2.28 C 2.3 g/m*3 -2.28 C 0 km/h
2364 23-02-2011 11:00:00 -0.3 C 1.97 g/m*3 -0.3 C 0 km/h
2365 23-02-2011 12:00:00 1.72 C 1.54 g/m*3 1.72 C 0 km/h
2366 23-02-2011 13:00:00 3.66 C 1.24 g/m*3 3.66 C 0 km/h
2367 23-02-2011 14:00:00 3.96 C 1.27 g/m*3 3.96 C 0 km/h
2368 23-02-2011 15:00:00 3.74 C 1.25 g/m*3 3.74 C 0 km/h
2369 23-02-2011 16:00:00 3 C 1.19 g/m*3 3 C 0 km/h
2370 23-02-2011 17:00:00 1.26 C 1.65 g/m*3 1.26 C 0 km/h
2371 23-02-2011 18:00:00 -0.3 C 2.17 g/m*3 -0.3 C 0 km/h
2372 23-02-2011 19:00:00 0.26 C 2.09 g/m*3 0.26 C 0 km/h
2373 23-02-2011 20:00:00 0.08 C 2.09 g/m*3 0.08 C 0 km/h
2374 23-02-2011 21:00:00 -0.06 C 2.25 g/m*3 -0.06 C 0 km/h
2375 23-02-2011 22:00:00 -0.08 C 2.32 g/m*3 -0.08 C 0 km/h
Sensor: Nr:Datum:Temp:Abs-Feuchte:Windchill:Wind:
Aussen-T/F 2376 23-02-2011 23:00:00 -0.26 C 2.51 g/m*3 -0.26 C 0 km/h
2377 24-02-2011 00:00:00 -0.44 C 2.58 g/m*3 -0.44 C 0 km/h
2378 24-02-2011 01:00:00 -0.74 C 2.68 g/m*3 -0.74 C 0 km/h
2379 24-02-2011 02:00:00 -0.48 C 2.61 g/m*3 -0.48 C 0 km/h
2380 24-02-2011 03:00:00 -0.12 C 2.72 g/m*3 -0.12 C 0 km/h
2381 24-02-2011 04:00:00 0.12 C 2.88 g/m*3 0.12 C 0 km/h
2382 24-02-2011 05:00:00 -0.84 C 3.4 g/m*3 -0.84 C 0 km/h
2383 24-02-2011 06:00:00 -0.88 C 3.58 g/m*3 -0.88 C 0 km/h
2384 24-02-2011 07:00:00 -0.76 C 3.66 g/m*3 -0.76 C 0 km/h
2385 24-02-2011 08:00:00 -0.4 C 3.87 g/m*3 -0.4 C 0 km/h
2386 24-02-2011 09:00:00 0.12 C 4.01 g/m*3 0.12 C 0 km/h
2387 24-02-2011 10:00:00 0.76 C 4.15 g/m*3 0.76 C 0 km/h
2388 24-02-2011 11:00:00 1.58 C 4.19 g/m*3 1.58 C 0 km/h
2389 24-02-2011 12:00:00 2.66 C 4.29 g/m*3 2.66 C 0 km/h
2390 24-02-2011 13:00:00 3.38 C 4.17 g/m*3 3.38 C 0 km/h
2391 24-02-2011 14:00:00 2.62 C 4.3 g/m*3 2.62 C 0 km/h
2392 24-02-2011 15:00:00 3.18 C 4.33 g/m*3 3.18 C 0 km/h
2393 24-02-2011 16:00:00 2.52 C 4.34 g/m*3 2.52 C 0 km/h
2394 24-02-2011 17:00:00 1.64 C 4.45 g/m*3 1.64 C 0 km/h
2395 24-02-2011 18:00:00 1.28 C 4.52 g/m*3 1.28 C 0 km/h
2396 24-02-2011 19:00:00 1.26 C 4.61 g/m*3 1.26 C 0 km/h
2397 24-02-2011 20:00:00 1.28 C 4.66 g/m*3 1.28 C 0 km/h
2398 24-02-2011 21:00:00 1.32 C 4.7 g/m*3 1.32 C 0 km/h
2399 24-02-2011 22:00:00 1.4 C 4.75 g/m*3 1.4 C 0 km/h
2400 24-02-2011 23:00:00 1.4 C 4.75 g/m*3 1.4 C 0 km/h
Sensor: Nr:Datum:Temp:Abs-Feuchte:Windchill:Wind:
Aussen-T/F 2401 25-02-2011 00:00:00 1.44 C 4.76 g/m*3 1.44 C 0 km/h
2402 25-02-2011 01:00:00 1.44 C 4.79 g/m*3 1.44 C 0 km/h
2403 25-02-2011 02:00:00 1.42 C 4.81 g/m*3 1.42 C 0 km/h
2404 25-02-2011 03:00:00 1.5 C 4.83 g/m*3 1.5 C 0 km/h
2405 25-02-2011 04:00:00 1.48 C 4.83 g/m*3 1.48 C 0 km/h
2406 25-02-2011 05:00:00 1.64 C 4.93 g/m*3 1.64 C 0 km/h
2407 25-02-2011 06:00:00 1.7 C 4.95 g/m*3 1.7 C 0 km/h
2408 25-02-2011 07:00:00 1.82 C 5 g/m*3 1.82 C 0 km/h
2409 25-02-2011 08:00:00 2.2 C 5.1 g/m*3 2.2 C 0 km/h
2410 25-02-2011 09:00:00 2.92 C 5.31 g/m*3 2.92 C 0 km/h
2411 25-02-2011 10:00:00 3.68 C 5.38 g/m*3 3.68 C 0 km/h
2412 25-02-2011 11:00:00 4.56 C 5.35 g/m*3 4.56 C 0 km/h
2413 25-02-2011 12:00:00 5.32 C 5.16 g/m*3 5.32 C 0 km/h
2414 25-02-2011 13:00:00 6.12 C 5.22 g/m*3 6.12 C 0 km/h
2415 25-02-2011 14:00:00 6.06 C 5.2 g/m*3 6.06 C 0 km/h
2416 25-02-2011 15:00:00 6.14 C 5.24 g/m*3 6.14 C 0 km/h
2417 25-02-2011 16:00:00 5.38 C 5.39 g/m*3 5.38 C 0 km/h
2418 25-02-2011 17:00:00 4.66 C 5.31 g/m*3 4.66 C 0 km/h
2419 25-02-2011 18:00:00 4.22 C 5.28 g/m*3 4.22 C 0 km/h
2420 25-02-2011 19:00:00 3.94 C 5.26 g/m*3 3.94 C 0 km/h
2421 25-02-2011 20:00:00 3.82 C 5.3 g/m*3 3.82 C 0 km/h
2422 25-02-2011 21:00:00 3.64 C 5.3 g/m*3 3.64 C 0 km/h
2423 25-02-2011 22:00:00 3.78 C 5.4 g/m*3 3.78 C 0 km/h
2424 25-02-2011 23:00:00 3.8 C 5.38 g/m*3 3.8 C 0 km/h
2425 26-02-2011 00:00:00 3.6 C 5.34 g/m*3 3.6 C 0 km/h
Sensor: Nr:Datum:Temp:Abs-Feuchte:Windchill:Wind:
Aussen-T/F 2426 26-02-2011 01:00:00 3.52 C 5.36 g/m*3 3.52 C 0 km/h
2427 26-02-2011 02:00:00 3.5 C 5.35 g/m*3 3.5 C 0 km/h
2428 26-02-2011 03:00:00 3.42 C 5.26 g/m*3 3.42 C 0 km/h
2429 26-02-2011 04:00:00 3.38 C 5.25 g/m*3 3.38 C 0 km/h
2430 26-02-2011 05:00:00 3.74 C 5.22 g/m*3 3.74 C 0 km/h
2431 26-02-2011 06:00:00 3.62 C 4.87 g/m*3 3.62 C 0 km/h
2432 26-02-2011 07:00:00 2.9 C 4.96 g/m*3 2.9 C 0 km/h
2433 26-02-2011 08:00:00 3.94 C 4.89 g/m*3 3.94 C 0 km/h
2434 26-02-2011 09:00:00 4.1 C 4.67 g/m*3 4.1 C 0 km/h
2435 26-02-2011 10:00:00 4.8 C 4.61 g/m*3 4.8 C 0 km/h
2436 26-02-2011 11:00:00 5.88 C 4.45 g/m*3 5.88 C 0 km/h
2437 26-02-2011 12:00:00 7.6 C 4.5 g/m*3 7.6 C 0 km/h
2438 26-02-2011 13:00:00 8.4 C 4.55 g/m*3 8.4 C 0 km/h
2439 26-02-2011 14:00:00 8.76 C 4.62 g/m*3 8.76 C 0 km/h
2440 26-02-2011 15:00:00 7.98 C 4.71 g/m*3 7.98 C 0 km/h
2441 26-02-2011 16:00:00 7.14 C 4.83 g/m*3 7.14 C 0 km/h
2442 26-02-2011 17:00:00 6.4 C 5.08 g/m*3 6.4 C 0 km/h
2443 26-02-2011 18:00:00 5.56 C 5.39 g/m*3 5.56 C 0 km/h
2444 26-02-2011 19:00:00 4.96 C 5.73 g/m*3 4.96 C 0 km/h
2445 26-02-2011 20:00:00 4.74 C 5.78 g/m*3 4.74 C 0 km/h
2446 26-02-2011 21:00:00 4.6 C 5.82 g/m*3 4.6 C 0 km/h
2447 26-02-2011 22:00:00 4.48 C 5.83 g/m*3 4.48 C 0 km/h
2448 26-02-2011 23:00:00 4.7 C 5.94 g/m*3 4.7 C 0 km/h
2449 27-02-2011 00:00:00 4.68 C 5.99 g/m*3 4.68 C 0 km/h
2450 27-02-2011 01:00:00 4.54 C 5.97 g/m*3 4.54 C 0 km/h
Sensor: Nr:Datum:Temp:Abs-Feuchte:Windchill:Wind:
Aussen-T/F 2451 27-02-2011 02:00:00 4.66 C 6.05 g/m*3 4.66 C 0 km/h
2452 27-02-2011 03:00:00 4.78 C 6.03 g/m*3 4.78 C 0 km/h
2453 27-02-2011 04:00:00 4.62 C 5.96 g/m*3 4.62 C 0 km/h
2454 27-02-2011 05:00:00 4.46 C 5.9 g/m*3 4.46 C 0 km/h
2455 27-02-2011 06:00:00 4.3 C 5.84 g/m*3 4.3 C 0 km/h
2456 27-02-2011 07:00:00 4.3 C 5.86 g/m*3 4.3 C 0 km/h
2457 27-02-2011 08:00:00 4.62 C 5.78 g/m*3 4.62 C 0 km/h
2458 27-02-2011 09:00:00 5.42 C 5.6 g/m*3 5.42 C 0 km/h
2459 27-02-2011 10:00:00 6.32 C 5.53 g/m*3 6.32 C 0 km/h
2460 27-02-2011 11:00:00 7.24 C 5.04 g/m*3 7.24 C 0 km/h
2461 27-02-2011 12:00:00 7.54 C 4.59 g/m*3 7.54 C 0 km/h
2462 27-02-2011 13:00:00 7.5 C 4.45 g/m*3 7.5 C 0 km/h
2463 27-02-2011 14:00:00 7.4 C 4.36 g/m*3 7.4 C 0 km/h
2464 27-02-2011 15:00:00 7.3 C 4.35 g/m*3 7.3 C 0 km/h
2465 27-02-2011 16:00:00 6.78 C 4.46 g/m*3 6.78 C 0 km/h
2466 27-02-2011 17:00:00 6.52 C 4.28 g/m*3 6.52 C 0 km/h
2467 27-02-2011 18:00:00 5.78 C 4.36 g/m*3 5.78 C 0 km/h
2468 27-02-2011 19:00:00 5.2 C 4.63 g/m*3 5.2 C 0 km/h
2469 27-02-2011 20:00:00 4.5 C 4.75 g/m*3 4.5 C 0 km/h
2470 27-02-2011 21:00:00 4.7 C 4.36 g/m*3 4.7 C 0 km/h
2471 27-02-2011 22:00:00 4.25 C 4.36 g/m*3 4.25 C 0 km/h
2472 27-02-2011 23:00:00 3.8 C 4.25 g/m*3 3.8 C 0 km/h
2473 28-02-2011 00:00:00 3.14 C 4.31 g/m*3 3.14 C 0 km/h
2474 28-02-2011 01:00:00 2.12 C 4.37 g/m*3 2.12 C 0 km/h
2475 28-02-2011 02:00:00 1.16 C 4.38 g/m*3 1.16 C 0 km/h
Sensor: Nr:Datum:Temp:Abs-Feuchte:Windchill:Wind:
Aussen-T/F 2476 28-02-2011 03:00:00 1.82 C 4.61 g/m*3 1.82 C 0 km/h
2477 28-02-2011 04:00:00 2.26 C 4.52 g/m*3 2.26 C 0 km/h
2478 28-02-2011 05:00:00 2.68 C 4.47 g/m*3 2.68 C 0 km/h
2479 28-02-2011 06:00:00 2.74 C 4.51 g/m*3 2.74 C 0 km/h
2480 28-02-2011 07:00:00 2.6 C 4.57 g/m*3 2.6 C 0 km/h
2481 28-02-2011 08:00:00 3.24 C 4.59 g/m*3 3.24 C 0 km/h
2482 28-02-2011 09:00:00 4.22 C 4.52 g/m*3 4.22 C 0 km/h
2483 28-02-2011 10:00:00 4.14 C 4.63 g/m*3 4.14 C 0 km/h
2484 28-02-2011 11:00:00 7.46 C 4.22 g/m*3 7.46 C 0 km/h
2485 28-02-2011 12:00:00 8.46 C 3.93 g/m*3 8.46 C 0 km/h
2486 28-02-2011 13:00:00 9.02 C 3.8 g/m*3 9.02 C 0 km/h
2487 28-02-2011 14:00:00 10.34 C 3.86 g/m*3 10.34 C 0 km/h
2488 28-02-2011 15:00:00 10.34 C 3.82 g/m*3 10.34 C 0 km/h
2489 28-02-2011 16:00:00 11.96 C 3.72 g/m*3 11.96 C 0 km/h
2490 28-02-2011 17:00:00 7.84 C 3.86 g/m*3 7.84 C 0 km/h
2491 28-02-2011 18:00:00 5.12 C 4.21 g/m*3 5.12 C 0 km/h
2492 28-02-2011 19:00:00 2.82 C 4.39 g/m*3 2.82 C 0 km/h
2493 28-02-2011 20:00:00 1.8 C 4.48 g/m*3 1.8 C 0 km/h
2494 28-02-2011 21:00:00 1.32 C 4.52 g/m*3 1.32 C 0 km/h
2495 28-02-2011 22:00:00 1.04 C 4.5 g/m*3 1.04 C 0 km/h
2496 28-02-2011 23:00:00 0.92 C 4.52 g/m*3 0.92 C 0 km/h
2497 01-03-2011 00:00:00 0.54 C 4.43 g/m*3 0.54 C 0 km/h
2498 01-03-2011 01:00:00 -0.1 C 4.21 g/m*3 -0.1 C 0 km/h
2499 01-03-2011 02:00:00 -0.1 C 4.25 g/m*3 -0.1 C 0 km/h
2500 01-03-2011 03:00:00 -0.76 C 4.09 g/m*3 -0.76 C 0 km/h
Sensor: Nr:Datum:Temp:Abs-Feuchte:Windchill:Wind:
Aussen-T/F 2501 01-03-2011 04:00:00 -1.04 C 4.01 g/m*3 -1.04 C 0 km/h
2502 01-03-2011 05:00:00 0.34 C 4.5 g/m*3 0.34 C 0 km/h
2503 01-03-2011 06:00:00 0.52 C 4.57 g/m*3 0.52 C 0 km/h
2504 01-03-2011 07:00:00 0.62 C 4.64 g/m*3 0.62 C 0 km/h
2505 01-03-2011 08:00:00 1.08 C 4.76 g/m*3 1.08 C 0 km/h
2506 01-03-2011 09:00:00 1.84 C 4.94 g/m*3 1.84 C 0 km/h
2507 01-03-2011 10:00:00 2.44 C 4.76 g/m*3 2.44 C 0 km/h
2508 01-03-2011 11:00:00 4.54 C 4.84 g/m*3 4.54 C 0 km/h
2509 01-03-2011 12:00:00 7.7 C 4.93 g/m*3 7.7 C 0 km/h
2510 01-03-2011 13:00:00 9.98 C 4.65 g/m*3 9.98 C 0 km/h
2511 01-03-2011 14:00:00 10.64 C 4.76 g/m*3 10.64 C 0 km/h
2512 01-03-2011 15:00:00 12.7 C 4.63 g/m*3 12.7 C 0 km/h
2513 01-03-2011 16:00:00 15.02 C 3.36 g/m*3 15.02 C 0 km/h
2514 01-03-2011 17:00:00 11.82 C 3.52 g/m*3 11.82 C 0 km/h
2515 01-03-2011 18:00:00 6.96 C 3.97 g/m*3 6.96 C 0 km/h
2516 01-03-2011 19:00:00 5.64 C 4.18 g/m*3 5.64 C 0 km/h
2517 01-03-2011 20:00:00 4.34 C 4.11 g/m*3 4.34 C 0 km/h
2518 01-03-2011 21:00:00 2.82 C 4.01 g/m*3 2.82 C 0 km/h
2519 01-03-2011 22:00:00 3.12 C 3.76 g/m*3 3.12 C 0 km/h
2520 01-03-2011 23:00:00 2.82 C 3.49 g/m*3 2.82 C 0 km/h
2521 02-03-2011 00:00:00 1.34 C 3.55 g/m*3 1.34 C 0 km/h
2522 02-03-2011 01:00:00 0.68 C 3.57 g/m*3 0.68 C 0 km/h
2523 02-03-2011 02:00:00 -0.36 C 3.58 g/m*3 -0.36 C 0 km/h
2524 02-03-2011 03:00:00 -1 C 3.5 g/m*3 -1 C 0 km/h
2525 02-03-2011 04:00:00 -1.02 C 3.34 g/m*3 -1.02 C 0 km/h
Sensor: Nr:Datum:Temp:Abs-Feuchte:Windchill:Wind:
Aussen-T/F 2526 02-03-2011 05:00:00 -1.5 C 3.21 g/m*3 -1.5 C 0 km/h
2527 02-03-2011 06:00:00 -2.08 C 3.21 g/m*3 -2.08 C 0 km/h
2528 02-03-2011 07:00:00 -2.22 C 3.1 g/m*3 -2.22 C 0 km/h
2529 02-03-2011 08:00:00 -2 C 3.2 g/m*3 -2 C 0 km/h
2530 02-03-2011 09:00:00 -0.84 C 3.26 g/m*3 -0.84 C 0 km/h
2531 02-03-2011 10:00:00 1.44 C 3.26 g/m*3 1.44 C 0 km/h
2532 02-03-2011 11:00:00 5.68 C 2.66 g/m*3 5.68 C 0 km/h
2533 02-03-2011 12:00:00 9.78 C 1.87 g/m*3 9.78 C 0 km/h
2534 02-03-2011 13:00:00 11.64 C 2.08 g/m*3 11.64 C 0 km/h
2535 02-03-2011 14:00:00 10.84 C 1.98 g/m*3 10.84 C 0 km/h
2536 02-03-2011 15:00:00 11.68 C 2.09 g/m*3 11.68 C 0 km/h
2537 02-03-2011 16:00:00 13.18 C 2.29 g/m*3 13.18 C 0 km/h
2538 02-03-2011 17:00:00 10.36 C 1.92 g/m*3 10.36 C 0 km/h
2539 02-03-2011 18:00:00 4.78 C 2.2 g/m*3 4.78 C 0 km/h
2540 02-03-2011 19:00:00 2.5 C 2.64 g/m*3 2.5 C 0 km/h
2541 02-03-2011 20:00:00 2.9 C 2.44 g/m*3 2.9 C 0 km/h
2542 02-03-2011 21:00:00 2.84 C 2.34 g/m*3 2.84 C 0 km/h
2543 02-03-2011 22:00:00 2.44 C 2.34 g/m*3 2.44 C 0 km/h
2544 02-03-2011 23:00:00 0.78 C 2.6 g/m*3 0.78 C 0 km/h
2545 03-03-2011 00:00:00 -0.84 C 2.68 g/m*3 -0.84 C 0 km/h
2546 03-03-2011 01:00:00 -1.58 C 2.71 g/m*3 -1.58 C 0 km/h
2547 03-03-2011 02:00:00 -1.94 C 2.59 g/m*3 -1.94 C 0 km/h
2548 03-03-2011 03:00:00 -2.12 C 2.58 g/m*3 -2.12 C 0 km/h
2549 03-03-2011 04:00:00 -1.76 C 2.42 g/m*3 -1.76 C 0 km/h
2550 03-03-2011 05:00:00 -2.82 C 2.51 g/m*3 -2.82 C 0 km/h
Sensor: Nr:Datum:Temp:Abs-Feuchte:Windchill:Wind:
Aussen-T/F 2551 03-03-2011 06:00:00 -3.42 C 2.46 g/m*3 -3.42 C 0 km/h
2552 03-03-2011 07:00:00 -3.2 C 2.54 g/m*3 -3.2 C 0 km/h
2553 03-03-2011 08:00:00 -2.64 C 2.55 g/m*3 -2.64 C 0 km/h
2554 03-03-2011 09:00:00 -1.68 C 2.63 g/m*3 -1.68 C 0 km/h
2555 03-03-2011 10:00:00 0.84 C 2.72 g/m*3 0.84 C 0 km/h
2556 03-03-2011 11:00:00 4.24 C 2.13 g/m*3 4.24 C 0 km/h
2557 03-03-2011 12:00:00 6.94 C 1.85 g/m*3 6.94 C 0 km/h
2558 03-03-2011 13:00:00 8.44 C 1.7 g/m*3 8.44 C 0 km/h
2559 03-03-2011 14:00:00 8.7 C 1.73 g/m*3 8.7 C 0 km/h
2560 03-03-2011 15:00:00 9.52 C 1.82 g/m*3 9.52 C 0 km/h
2561 03-03-2011 16:00:00 10.76 C 1.97 g/m*3 10.76 C 0 km/h
2562 03-03-2011 17:00:00 8.1 C 1.83 g/m*3 8.1 C 0 km/h
2563 03-03-2011 18:00:00 3.18 C 2.47 g/m*3 3.18 C 0 km/h
2564 03-03-2011 19:00:00 1.08 C 2.82 g/m*3 1.08 C 0 km/h
2565 03-03-2011 20:00:00 0.5 C 2.94 g/m*3 0.5 C 0 km/h
2566 03-03-2011 21:00:00 -0.28 C 3.04 g/m*3 -0.28 C 0 km/h
2567 03-03-2011 22:00:00 -0.68 C 3.08 g/m*3 -0.68 C 0 km/h
2568 03-03-2011 23:00:00 -1.3 C 3.05 g/m*3 -1.3 C 0 km/h
2569 04-03-2011 00:00:00 -1.62 C 2.96 g/m*3 -1.62 C 0 km/h
2570 04-03-2011 01:00:00 -1.88 C 2.98 g/m*3 -1.88 C 0 km/h
2571 04-03-2011 02:00:00 -2.24 C 2.91 g/m*3 -2.24 C 0 km/h
2572 04-03-2011 03:00:00 -2.78 C 2.87 g/m*3 -2.78 C 0 km/h
2573 04-03-2011 04:00:00 -3.54 C 2.8 g/m*3 -3.54 C 0 km/h
2574 04-03-2011 05:00:00 -4.36 C 2.75 g/m*3 -4.36 C 0 km/h
2575 04-03-2011 06:00:00 -4.64 C 2.75 g/m*3 -4.64 C 0 km/h
Sensor: Nr:Datum:Temp:Abs-Feuchte:Windchill:Wind:
Aussen-T/F 2576 04-03-2011 07:00:00 -4.7 C 2.74 g/m*3 -4.7 C 0 km/h
2577 04-03-2011 08:00:00 -3.98 C 2.91 g/m*3 -3.98 C 0 km/h
2578 04-03-2011 09:00:00 -2.78 C 3.14 g/m*3 -2.78 C 0 km/h
2579 04-03-2011 10:00:00 -0.1 C 3.45 g/m*3 -0.1 C 0 km/h
2580 04-03-2011 11:00:00 3.6 C 3.16 g/m*3 3.6 C 0 km/h
2581 04-03-2011 12:00:00 7.46 C 3 g/m*3 7.46 C 0 km/h
2582 04-03-2011 13:00:00 10.32 C 2.76 g/m*3 10.32 C 0 km/h
2583 04-03-2011 14:00:00 9.66 C 2.94 g/m*3 9.66 C 0 km/h
2584 04-03-2011 15:00:00 11.96 C 3.02 g/m*3 11.96 C 0 km/h
2585 04-03-2011 16:00:00 15.74 C 2.87 g/m*3 15.74 C 0 km/h
2586 04-03-2011 17:00:00 10.92 C 3.39 g/m*3 10.92 C 0 km/h
2587 04-03-2011 18:00:00 5.38 C 3.67 g/m*3 5.38 C 0 km/h
2588 04-03-2011 19:00:00 4.46 C 3.57 g/m*3 4.46 C 0 km/h
2589 04-03-2011 20:00:00 2.72 C 3.83 g/m*3 2.72 C 0 km/h
2590 04-03-2011 21:00:00 1.82 C 3.88 g/m*3 1.82 C 0 km/h
2591 04-03-2011 22:00:00 1.02 C 3.88 g/m*3 1.02 C 0 km/h
2592 04-03-2011 23:00:00 -0.06 C 3.84 g/m*3 -0.06 C 0 km/h
2593 05-03-2011 00:00:00 -1.04 C 3.74 g/m*3 -1.04 C 0 km/h
2594 05-03-2011 01:00:00 -1.88 C 3.61 g/m*3 -1.88 C 0 km/h
2595 05-03-2011 02:00:00 -3.04 C 3.33 g/m*3 -3.04 C 0 km/h
2596 05-03-2011 03:00:00 -3.58 C 3.22 g/m*3 -3.58 C 0 km/h
2597 05-03-2011 04:00:00 -3.74 C 3.22 g/m*3 -3.74 C 0 km/h
2598 05-03-2011 05:00:00 -3.84 C 3.22 g/m*3 -3.84 C 0 km/h
2599 05-03-2011 06:00:00 -2.78 C 3.48 g/m*3 -2.78 C 0 km/h
2600 05-03-2011 07:00:00 -2.4 C 3.59 g/m*3 -2.4 C 0 km/h
Sensor: Nr:Datum:Temp:Abs-Feuchte:Windchill:Wind:
Aussen-T/F 2601 05-03-2011 08:00:00 -1.56 C 3.79 g/m*3 -1.56 C 0 km/h
2602 05-03-2011 09:00:00 -0.54 C 3.92 g/m*3 -0.54 C 0 km/h
2603 05-03-2011 10:00:00 1.56 C 4.09 g/m*3 1.56 C 0 km/h
2604 05-03-2011 11:00:00 2.82 C 3.79 g/m*3 2.82 C 0 km/h
2605 05-03-2011 12:00:00 4.48 C 3.72 g/m*3 4.48 C 0 km/h
2606 05-03-2011 13:00:00 5.68 C 3.44 g/m*3 5.68 C 0 km/h
2607 05-03-2011 14:00:00 4 C 3.34 g/m*3 4 C 0 km/h
2608 05-03-2011 15:00:00 3.98 C 3.37 g/m*3 3.98 C 0 km/h
2609 05-03-2011 16:00:00 3.38 C 3.39 g/m*3 3.38 C 0 km/h
2610 05-03-2011 17:00:00 2.62 C 3.57 g/m*3 2.62 C 0 km/h
2611 05-03-2011 18:00:00 1.36 C 3.83 g/m*3 1.36 C 0 km/h
2612 05-03-2011 19:00:00 1.14 C 4.07 g/m*3 1.14 C 0 km/h
2613 05-03-2011 20:00:00 1.48 C 4.14 g/m*3 1.48 C 0 km/h
2614 05-03-2011 21:00:00 -0.5 C 3.8 g/m*3 -0.5 C 0 km/h
2615 05-03-2011 22:00:00 -1.22 C 3.73 g/m*3 -1.22 C 0 km/h
2616 05-03-2011 23:00:00 -1.62 C 3.67 g/m*3 -1.62 C 0 km/h
2617 06-03-2011 00:00:00 -1.62 C 3.74 g/m*3 -1.62 C 0 km/h
2618 06-03-2011 01:00:00 -1.94 C 3.69 g/m*3 -1.94 C 0 km/h
2619 06-03-2011 02:00:00 -0.48 C 4.15 g/m*3 -0.48 C 0 km/h
2620 06-03-2011 03:00:00 -0.02 C 4.23 g/m*3 -0.02 C 0 km/h
2621 06-03-2011 04:00:00 -0.08 C 3.97 g/m*3 -0.08 C 0 km/h
2622 06-03-2011 05:00:00 -1.52 C 3.31 g/m*3 -1.52 C 0 km/h
2623 06-03-2011 06:00:00 -2.82 C 3.22 g/m*3 -2.82 C 0 km/h
2624 06-03-2011 07:00:00 -1.94 C 3.38 g/m*3 -1.94 C 0 km/h
2625 06-03-2011 08:00:00 -0.34 C 3.48 g/m*3 -0.34 C 0 km/h
Sensor: Nr:Datum:Temp:Abs-Feuchte:Windchill:Wind:
Aussen-T/F 2626 06-03-2011 09:00:00 1.24 C 3.13 g/m*3 1.24 C 0 km/h
2627 06-03-2011 10:00:00 2.14 C 2.82 g/m*3 2.14 C 0 km/h
2628 06-03-2011 11:00:00 3.76 C 2.69 g/m*3 3.76 C 0 km/h
2629 06-03-2011 12:00:00 5.26 C 2.6 g/m*3 5.26 C 0 km/h
2630 06-03-2011 13:00:00 5.92 C 2.43 g/m*3 5.92 C 0 km/h
2631 06-03-2011 14:00:00 6.66 C 2.3 g/m*3 6.66 C 0 km/h
2632 06-03-2011 15:00:00 9.1 C 2.16 g/m*3 9.1 C 0 km/h
2633 06-03-2011 16:00:00 12.66 C 2.22 g/m*3 12.66 C 0 km/h
2634 06-03-2011 17:00:00 8.86 C 2.36 g/m*3 8.86 C 0 km/h
2635 06-03-2011 18:00:00 2.02 C 2.92 g/m*3 2.02 C 0 km/h
2636 06-03-2011 19:00:00 0.04 C 3.02 g/m*3 0.04 C 0 km/h
2637 06-03-2011 20:00:00 -0.52 C 3.02 g/m*3 -0.52 C 0 km/h
2638 06-03-2011 21:00:00 -1.1 C 2.95 g/m*3 -1.1 C 0 km/h
2639 06-03-2011 22:00:00 -1.6 C 2.88 g/m*3 -1.6 C 0 km/h
2640 06-03-2011 23:00:00 -2.1 C 2.75 g/m*3 -2.1 C 0 km/h
2641 07-03-2011 00:00:00 -2.42 C 2.7 g/m*3 -2.42 C 0 km/h
2642 07-03-2011 01:00:00 -3.02 C 2.69 g/m*3 -3.02 C 0 km/h
2643 07-03-2011 02:00:00 -3.62 C 2.62 g/m*3 -3.62 C 0 km/h
2644 07-03-2011 03:00:00 -4.18 C 2.56 g/m*3 -4.18 C 0 km/h
2645 07-03-2011 04:00:00 -4.64 C 2.51 g/m*3 -4.64 C 0 km/h
2646 07-03-2011 05:00:00 -4.64 C 2.5 g/m*3 -4.64 C 0 km/h
2647 07-03-2011 06:00:00 -4.6 C 2.44 g/m*3 -4.6 C 0 km/h
2648 07-03-2011 07:00:00 -4.62 C 2.39 g/m*3 -4.62 C 0 km/h
2649 07-03-2011 08:00:00 -3.76 C 2.34 g/m*3 -3.76 C 0 km/h
2650 07-03-2011 09:00:00 -2.92 C 2.38 g/m*3 -2.92 C 0 km/h
Sensor: Nr:Datum:Temp:Abs-Feuchte:Windchill:Wind:
Aussen-T/F 2651 07-03-2011 10:00:00 1.04 C 2.09 g/m*3 1.04 C 0 km/h
2652 07-03-2011 11:00:00 4.28 C 1.3 g/m*3 4.28 C 0 km/h
2653 07-03-2011 12:00:00 7.74 C 1.63 g/m*3 7.74 C 0 km/h
2654 07-03-2011 13:00:00 8.3 C 1.69 g/m*3 8.3 C 0 km/h
2655 07-03-2011 14:00:00 8.36 C 1.69 g/m*3 8.36 C 0 km/h
2656 07-03-2011 15:00:00 11 C 2 g/m*3 11 C 0 km/h
2657 07-03-2011 16:00:00 13.64 C 2.36 g/m*3 13.64 C 0 km/h
2658 07-03-2011 17:00:00 10.42 C 1.93 g/m*3 10.42 C 0 km/h
2659 07-03-2011 18:00:00 2.44 C 1.96 g/m*3 2.44 C 0 km/h
2660 07-03-2011 19:00:00 0.4 C 2.18 g/m*3 0.4 C 0 km/h
2661 07-03-2011 20:00:00 -0.44 C 2.15 g/m*3 -0.44 C 0 km/h
2662 07-03-2011 21:00:00 -0.38 C 2.14 g/m*3 -0.38 C 0 km/h
2663 07-03-2011 22:00:00 -1.28 C 2.12 g/m*3 -1.28 C 0 km/h
2664 07-03-2011 23:00:00 -1.74 C 2.14 g/m*3 -1.74 C 0 km/h
2665 08-03-2011 00:00:00 -3.42 C 2.09 g/m*3 -3.42 C 0 km/h
2666 08-03-2011 01:00:00 -4.4 C 2.1 g/m*3 -4.4 C 0 km/h
2667 08-03-2011 02:00:00 -5.04 C 2.01 g/m*3 -5.04 C 0 km/h
2668 08-03-2011 03:00:00 -5.9 C 2 g/m*3 -5.9 C 0 km/h
2669 08-03-2011 04:00:00 -6.24 C 2.07 g/m*3 -6.24 C 0 km/h
2670 08-03-2011 05:00:00 -5.76 C 2.04 g/m*3 -5.76 C 0 km/h
2671 08-03-2011 06:00:00 -6.36 C 1.97 g/m*3 -6.36 C 0 km/h
2672 08-03-2011 07:00:00 -5.98 C 2.1 g/m*3 -5.98 C 0 km/h
2673 08-03-2011 08:00:00 -5.08 C 2.2 g/m*3 -5.08 C 0 km/h
2674 08-03-2011 09:00:00 -3.56 C 2.34 g/m*3 -3.56 C 0 km/h
2675 08-03-2011 10:00:00 0.34 C 2.46 g/m*3 0.34 C 0 km/h
Sensor: Nr:Datum:Temp:Abs-Feuchte:Windchill:Wind:
Aussen-T/F 2676 08-03-2011 11:00:00 4.5 C 2.34 g/m*3 4.5 C 0 km/h
2677 08-03-2011 12:00:00 9.08 C 2.04 g/m*3 9.08 C 0 km/h
2678 08-03-2011 13:00:00 10.82 C 2 g/m*3 10.82 C 0 km/h
2679 08-03-2011 14:00:00 12.28 C 2.34 g/m*3 12.28 C 0 km/h
2680 08-03-2011 15:00:00 13.96 C 2.5 g/m*3 13.96 C 0 km/h
2681 08-03-2011 16:00:00 15.04 C 2.57 g/m*3 15.04 C 0 km/h
2682 08-03-2011 17:00:00 11.96 C 3.08 g/m*3 11.96 C 0 km/h
2683 08-03-2011 18:00:00 7.16 C 3.55 g/m*3 7.16 C 0 km/h
2684 08-03-2011 19:00:00 5.48 C 3.83 g/m*3 5.48 C 0 km/h
2685 08-03-2011 20:00:00 3.3 C 4.3 g/m*3 3.3 C 0 km/h
2686 08-03-2011 21:00:00 1.9 C 4.24 g/m*3 1.9 C 0 km/h
2687 08-03-2011 22:00:00 1.36 C 4.33 g/m*3 1.36 C 0 km/h
2688 08-03-2011 23:00:00 0.78 C 4.27 g/m*3 0.78 C 0 km/h
2689 09-03-2011 00:00:00 -0.46 C 4 g/m*3 -0.46 C 0 km/h
2690 09-03-2011 01:00:00 -0.68 C 4.02 g/m*3 -0.68 C 0 km/h
2691 09-03-2011 02:00:00 0.74 C 4.53 g/m*3 0.74 C 0 km/h
2692 09-03-2011 03:00:00 2.78 C 4.98 g/m*3 2.78 C 0 km/h
2693 09-03-2011 04:00:00 3.26 C 4.47 g/m*3 3.26 C 0 km/h
2694 09-03-2011 05:00:00 2.44 C 4.37 g/m*3 2.44 C 0 km/h
2695 09-03-2011 06:00:00 2.36 C 4.45 g/m*3 2.36 C 0 km/h
2696 09-03-2011 07:00:00 3 C 4.44 g/m*3 3 C 0 km/h
2697 09-03-2011 08:00:00 3.76 C 4.43 g/m*3 3.76 C 0 km/h
2698 09-03-2011 09:00:00 7.96 C 4.24 g/m*3 7.96 C 0 km/h
2699 09-03-2011 10:00:00 9.2 C 4.14 g/m*3 9.2 C 0 km/h
2700 09-03-2011 11:00:00 10.02 C 4.53 g/m*3 10.02 C 0 km/h
Sensor: Nr:Datum:Temp:Abs-Feuchte:Windchill:Wind:
Aussen-T/F 2701 09-03-2011 12:00:00 9.98 C 4.62 g/m*3 9.98 C 0 km/h
2702 09-03-2011 13:00:00 11.38 C 4.47 g/m*3 11.38 C 0 km/h
2703 09-03-2011 14:00:00 11.8 C 4.04 g/m*3 11.8 C 0 km/h
2704 09-03-2011 15:00:00 11.32 C 3.72 g/m*3 11.32 C 0 km/h
2705 09-03-2011 16:00:00 10.8 C 3.8 g/m*3 10.8 C 0 km/h
2706 09-03-2011 17:00:00 10.12 C 4.34 g/m*3 10.12 C 0 km/h
2707 09-03-2011 18:00:00 9.28 C 4.67 g/m*3 9.28 C 0 km/h
2708 09-03-2011 19:00:00 8.76 C 4.79 g/m*3 8.76 C 0 km/h
2709 09-03-2011 20:00:00 8.08 C 4.89 g/m*3 8.08 C 0 km/h
2710 09-03-2011 21:00:00 7.66 C 4.88 g/m*3 7.66 C 0 km/h
2711 09-03-2011 22:00:00 6.64 C 5.03 g/m*3 6.64 C 0 km/h
2712 09-03-2011 23:00:00 5.4 C 5.08 g/m*3 5.4 C 0 km/h
2713 10-03-2011 00:00:00 5.56 C 4.85 g/m*3 5.56 C 0 km/h
2714 10-03-2011 01:00:00 5.28 C 4.85 g/m*3 5.28 C 0 km/h
2715 10-03-2011 02:00:00 4.42 C 4.81 g/m*3 4.42 C 0 km/h
2716 10-03-2011 03:00:00 5.16 C 4.61 g/m*3 5.16 C 0 km/h
2717 10-03-2011 04:00:00 4.62 C 4.64 g/m*3 4.62 C 0 km/h
2718 10-03-2011 05:00:00 4.94 C 4.6 g/m*3 4.94 C 0 km/h
2719 10-03-2011 06:00:00 4.6 C 4.72 g/m*3 4.6 C 0 km/h
2720 10-03-2011 07:00:00 4.66 C 4.69 g/m*3 4.66 C 0 km/h
2721 10-03-2011 08:00:00 5.88 C 4.59 g/m*3 5.88 C 0 km/h
2722 10-03-2011 09:00:00 6.94 C 4.43 g/m*3 6.94 C 0 km/h
2723 10-03-2011 10:00:00 8.06 C 4.3 g/m*3 8.06 C 0 km/h
2724 10-03-2011 11:00:00 8.92 C 4.26 g/m*3 8.92 C 0 km/h
2725 10-03-2011 12:00:00 9.68 C 4.18 g/m*3 9.68 C 0 km/h
Sensor: Nr:Datum:Temp:Abs-Feuchte:Windchill:Wind:
Aussen-T/F 2726 10-03-2011 13:00:00 9.9 C 3.88 g/m*3 9.9 C 0 km/h
2727 10-03-2011 14:00:00 9.22 C 4.01 g/m*3 9.22 C 0 km/h
2728 10-03-2011 15:00:00 8.52 C 4.05 g/m*3 8.52 C 0 km/h
2729 10-03-2011 16:00:00 8.3 C 4.18 g/m*3 8.3 C 0 km/h
2730 10-03-2011 17:00:00 8.18 C 4.3 g/m*3 8.18 C 0 km/h
2731 10-03-2011 18:00:00 8.4 C 4.41 g/m*3 8.4 C 0 km/h
2732 10-03-2011 19:00:00 8.84 C 4.45 g/m*3 8.84 C 0 km/h
2733 10-03-2011 20:00:00 8.86 C 4.54 g/m*3 8.86 C 0 km/h
2734 10-03-2011 21:00:00 8.54 C 4.79 g/m*3 8.54 C 0 km/h
2735 10-03-2011 22:00:00 8.78 C 4.83 g/m*3 8.78 C 0 km/h
2736 10-03-2011 23:00:00 8.94 C 4.81 g/m*3 8.94 C 0 km/h
2737 11-03-2011 00:00:00 8.82 C 4.92 g/m*3 8.82 C 0 km/h
2738 11-03-2011 01:00:00 8.68 C 4.98 g/m*3 8.68 C 0 km/h
2739 11-03-2011 02:00:00 8.6 C 5.05 g/m*3 8.6 C 0 km/h
2740 11-03-2011 03:00:00 8.48 C 5.15 g/m*3 8.48 C 0 km/h
2741 11-03-2011 04:00:00 8.22 C 5.3 g/m*3 8.22 C 0 km/h
2742 11-03-2011 05:00:00 8.4 C 5.21 g/m*3 8.4 C 0 km/h
2743 11-03-2011 06:00:00 8.18 C 5.24 g/m*3 8.18 C 0 km/h
2744 11-03-2011 07:00:00 8.64 C 5.1 g/m*3 8.64 C 0 km/h
2745 11-03-2011 08:00:00 8.84 C 5.11 g/m*3 8.84 C 0 km/h
2746 11-03-2011 09:00:00 9.34 C 4.96 g/m*3 9.34 C 0 km/h
2747 11-03-2011 10:00:00 10.46 C 4.8 g/m*3 10.46 C 0 km/h
2748 11-03-2011 11:00:00 10.92 C 4.52 g/m*3 10.92 C 0 km/h
2749 11-03-2011 12:00:00 11.24 C 4.15 g/m*3 11.24 C 0 km/h
2750 11-03-2011 13:00:00 11.5 C 3.88 g/m*3 11.5 C 0 km/h
Sensor: Nr:Datum:Temp:Abs-Feuchte:Windchill:Wind:
Aussen-T/F 2751 11-03-2011 14:00:00 11.14 C 3.92 g/m*3 11.14 C 0 km/h
2752 11-03-2011 15:00:00 11.14 C 3.86 g/m*3 11.14 C 0 km/h
2753 11-03-2011 16:00:00 11.12 C 3.77 g/m*3 11.12 C 0 km/h
2754 11-03-2011 17:00:00 10.8 C 3.64 g/m*3 10.8 C 0 km/h
2755 11-03-2011 18:00:00 9.64 C 3.78 g/m*3 9.64 C 0 km/h
2756 11-03-2011 19:00:00 8.2 C 4.34 g/m*3 8.2 C 0 km/h
2757 11-03-2011 20:00:00 6.82 C 4.35 g/m*3 6.82 C 0 km/h
2758 11-03-2011 21:00:00 4.88 C 4.49 g/m*3 4.88 C 0 km/h
2759 11-03-2011 22:00:00 3.5 C 4.57 g/m*3 3.5 C 0 km/h
2760 11-03-2011 23:00:00 2.24 C 4.47 g/m*3 2.24 C 0 km/h
2761 12-03-2011 00:00:00 0.92 C 4.27 g/m*3 0.92 C 0 km/h
2762 12-03-2011 01:00:00 0.22 C 4.16 g/m*3 0.22 C 0 km/h
2763 12-03-2011 02:00:00 -0.32 C 4.09 g/m*3 -0.32 C 0 km/h
2764 12-03-2011 03:00:00 -0.74 C 4.01 g/m*3 -0.74 C 0 km/h
2765 12-03-2011 04:00:00 -1.24 C 3.9 g/m*3 -1.24 C 0 km/h
2766 12-03-2011 05:00:00 -1.62 C 3.81 g/m*3 -1.62 C 0 km/h
2767 12-03-2011 06:00:00 -1.96 C 3.73 g/m*3 -1.96 C 0 km/h
2768 12-03-2011 07:00:00 -2 C 3.75 g/m*3 -2 C 0 km/h
2769 12-03-2011 08:00:00 -0.32 C 4.26 g/m*3 -0.32 C 0 km/h
2770 12-03-2011 09:00:00 1.76 C 4.83 g/m*3 1.76 C 0 km/h
2771 12-03-2011 10:00:00 5.72 C 5.3 g/m*3 5.72 C 0 km/h
2772 12-03-2011 11:00:00 10.74 C 4.88 g/m*3 10.74 C 0 km/h
2773 12-03-2011 12:00:00 14.6 C 4.45 g/m*3 14.6 C 0 km/h
2774 12-03-2011 13:00:00 16.16 C 4.46 g/m*3 16.16 C 0 km/h
2775 12-03-2011 14:00:00 16.58 C 4.32 g/m*3 16.58 C 0 km/h
Sensor: Nr:Datum:Temp:Abs-Feuchte:Windchill:Wind:
Aussen-T/F 2776 12-03-2011 15:00:00 16.3 C 4.38 g/m*3 16.3 C 0 km/h
2777 12-03-2011 16:00:00 18.02 C 4.37 g/m*3 18.02 C 0 km/h
2778 12-03-2011 17:00:00 14.98 C 4.87 g/m*3 14.98 C 0 km/h
2779 12-03-2011 18:00:00 10.98 C 5.2 g/m*3 10.98 C 0 km/h
2780 12-03-2011 19:00:00 10.88 C 4.63 g/m*3 10.88 C 0 km/h
2781 12-03-2011 20:00:00 11.34 C 4.29 g/m*3 11.34 C 0 km/h
2782 12-03-2011 21:00:00 12.22 C 4.3 g/m*3 12.22 C 0 km/h
2783 12-03-2011 22:00:00 12.1 C 4.55 g/m*3 12.1 C 0 km/h
2784 12-03-2011 23:00:00 11.14 C 4.79 g/m*3 11.14 C 0 km/h
2785 13-03-2011 00:00:00 10.1 C 5.48 g/m*3 10.1 C 0 km/h
2786 13-03-2011 01:00:00 10.22 C 5.62 g/m*3 10.22 C 0 km/h
2787 13-03-2011 02:00:00 10.6 C 5.8 g/m*3 10.6 C 0 km/h
2788 13-03-2011 03:00:00 9.98 C 5.86 g/m*3 9.98 C 0 km/h
2789 13-03-2011 04:00:00 9.06 C 6.21 g/m*3 9.06 C 0 km/h
2790 13-03-2011 05:00:00 7.9 C 6.9 g/m*3 7.9 C 0 km/h
2791 13-03-2011 06:00:00 7.7 C 6.96 g/m*3 7.7 C 0 km/h
2792 13-03-2011 07:00:00 7.82 C 6.9 g/m*3 7.82 C 0 km/h
2793 13-03-2011 08:00:00 8.72 C 6.89 g/m*3 8.72 C 0 km/h
2794 13-03-2011 09:00:00 10.86 C 6.55 g/m*3 10.86 C 0 km/h
2795 13-03-2011 10:00:00 12.64 C 6.1 g/m*3 12.64 C 0 km/h
2796 13-03-2011 11:00:00 14.34 C 5.76 g/m*3 14.34 C 0 km/h
2797 13-03-2011 12:00:00 14.74 C 5.53 g/m*3 14.74 C 0 km/h
2798 13-03-2011 13:00:00 14.7 C 5.34 g/m*3 14.7 C 0 km/h
2799 13-03-2011 14:00:00 15.12 C 5.4 g/m*3 15.12 C 0 km/h
2800 13-03-2011 15:00:00 15.36 C 5.32 g/m*3 15.36 C 0 km/h
Sensor: Nr:Datum:Temp:Abs-Feuchte:Windchill:Wind:
Aussen-T/F 2801 13-03-2011 16:00:00 14.5 C 5.47 g/m*3 14.5 C 0 km/h
2802 13-03-2011 17:00:00 12.9 C 6.04 g/m*3 12.9 C 0 km/h
2803 13-03-2011 18:00:00 11.52 C 6.33 g/m*3 11.52 C 0 km/h
2804 13-03-2011 19:00:00 10.76 C 6.65 g/m*3 10.76 C 0 km/h
2805 13-03-2011 20:00:00 9.62 C 7.69 g/m*3 9.62 C 0 km/h
2806 13-03-2011 21:00:00 9.22 C 7.74 g/m*3 9.22 C 0 km/h
2807 13-03-2011 22:00:00 8.86 C 7.72 g/m*3 8.86 C 0 km/h
2808 13-03-2011 23:00:00 8.66 C 7.68 g/m*3 8.66 C 0 km/h
2809 14-03-2011 00:00:00 8.6 C 7.66 g/m*3 8.6 C 0 km/h
2810 14-03-2011 01:00:00 8.56 C 7.71 g/m*3 8.56 C 0 km/h
2811 14-03-2011 02:00:00 8.48 C 7.67 g/m*3 8.48 C 0 km/h
2812 14-03-2011 03:00:00 8.22 C 7.55 g/m*3 8.22 C 0 km/h
2813 14-03-2011 04:00:00 8.34 C 7.61 g/m*3 8.34 C 0 km/h
2814 14-03-2011 05:00:00 8.34 C 7.67 g/m*3 8.34 C 0 km/h
2815 14-03-2011 06:00:00 7.8 C 7.43 g/m*3 7.8 C 0 km/h
2816 14-03-2011 07:00:00 8.04 C 7.59 g/m*3 8.04 C 0 km/h
2817 14-03-2011 08:00:00 8.6 C 7.82 g/m*3 8.6 C 0 km/h
2818 14-03-2011 09:00:00 9.34 C 8.14 g/m*3 9.34 C 0 km/h
2819 14-03-2011 10:00:00 11.32 C 7.97 g/m*3 11.32 C 0 km/h
2820 14-03-2011 11:00:00 12.72 C 7.27 g/m*3 12.72 C 0 km/h
2821 14-03-2011 12:00:00 13.12 C 7.04 g/m*3 13.12 C 0 km/h
2822 14-03-2011 13:00:00 14.26 C 6.74 g/m*3 14.26 C 0 km/h
2823 14-03-2011 14:00:00 14 C 6.59 g/m*3 14 C 0 km/h
2824 14-03-2011 15:00:00 13.68 C 6.5 g/m*3 13.68 C 0 km/h
2825 14-03-2011 16:00:00 15.14 C 6.05 g/m*3 15.14 C 0 km/h
Sensor: Nr:Datum:Temp:Abs-Feuchte:Windchill:Wind:
Aussen-T/F 2826 14-03-2011 17:00:00 13.08 C 6.38 g/m*3 13.08 C 0 km/h
2827 14-03-2011 18:00:00 11.2 C 6.95 g/m*3 11.2 C 0 km/h
2828 14-03-2011 19:00:00 10.04 C 7.03 g/m*3 10.04 C 0 km/h
2829 14-03-2011 20:00:00 8.4 C 6.94 g/m*3 8.4 C 0 km/h
2830 14-03-2011 21:00:00 7.98 C 6.92 g/m*3 7.98 C 0 km/h
2831 14-03-2011 22:00:00 7.26 C 6.86 g/m*3 7.26 C 0 km/h
2832 14-03-2011 23:00:00 5.86 C 6.37 g/m*3 5.86 C 0 km/h
2833 15-03-2011 00:00:00 5.2 C 6.17 g/m*3 5.2 C 0 km/h
2834 15-03-2011 01:00:00 4.88 C 6.13 g/m*3 4.88 C 0 km/h
2835 15-03-2011 02:00:00 5.96 C 6.59 g/m*3 5.96 C 0 km/h
2836 15-03-2011 03:00:00 5.7 C 6.55 g/m*3 5.7 C 0 km/h
2837 15-03-2011 04:00:00 5.78 C 6.57 g/m*3 5.78 C 0 km/h
2838 15-03-2011 05:00:00 5.3 C 6.38 g/m*3 5.3 C 0 km/h
2839 15-03-2011 06:00:00 4.58 C 6.08 g/m*3 4.58 C 0 km/h
2840 15-03-2011 07:00:00 5 C 6.25 g/m*3 5 C 0 km/h
2841 15-03-2011 08:00:00 5.34 C 6.39 g/m*3 5.34 C 0 km/h
2842 15-03-2011 09:00:00 6.6 C 6.9 g/m*3 6.6 C 0 km/h
2843 15-03-2011 10:00:00 9.5 C 7.97 g/m*3 9.5 C 0 km/h
2844 15-03-2011 11:00:00 13.04 C 7.34 g/m*3 13.04 C 0 km/h
2845 15-03-2011 12:00:00 17.82 C 5.99 g/m*3 17.82 C 0 km/h
2846 15-03-2011 13:00:00 19.16 C 5.72 g/m*3 19.16 C 0 km/h
2847 15-03-2011 14:00:00 18.9 C 5.48 g/m*3 18.9 C 0 km/h
2848 15-03-2011 15:00:00 21.06 C 5.18 g/m*3 21.06 C 0 km/h
2849 15-03-2011 16:00:00 20.7 C 4.93 g/m*3 20.7 C 0 km/h
2850 15-03-2011 17:00:00 18.1 C 5.47 g/m*3 18.1 C 0 km/h
Sensor: Nr:Datum:Temp:Abs-Feuchte:Windchill:Wind:
Aussen-T/F 2851 15-03-2011 18:00:00 13.78 C 6.16 g/m*3 13.78 C 0 km/h
2852 15-03-2011 19:00:00 12.1 C 6.39 g/m*3 12.1 C 0 km/h
2853 15-03-2011 20:00:00 11.02 C 6.47 g/m*3 11.02 C 0 km/h
2854 15-03-2011 21:00:00 9.78 C 6.58 g/m*3 9.78 C 0 km/h
2855 15-03-2011 22:00:00 9.24 C 6.46 g/m*3 9.24 C 0 km/h
2856 15-03-2011 23:00:00 9.2 C 6.16 g/m*3 9.2 C 0 km/h
2857 16-03-2011 00:00:00 8.6 C 6.14 g/m*3 8.6 C 0 km/h
2858 16-03-2011 01:00:00 6.88 C 6.09 g/m*3 6.88 C 0 km/h
2859 16-03-2011 02:00:00 6.64 C 6.27 g/m*3 6.64 C 0 km/h
2860 16-03-2011 03:00:00 6.86 C 6.17 g/m*3 6.86 C 0 km/h
2861 16-03-2011 04:00:00 7.2 C 6 g/m*3 7.2 C 0 km/h
2862 16-03-2011 05:00:00 7.04 C 5.86 g/m*3 7.04 C 0 km/h
2863 16-03-2011 06:00:00 7.14 C 5.96 g/m*3 7.14 C 0 km/h
2864 16-03-2011 07:00:00 7.78 C 5.98 g/m*3 7.78 C 0 km/h
2865 16-03-2011 08:00:00 9.1 C 5.87 g/m*3 9.1 C 0 km/h
2866 16-03-2011 09:00:00 9.88 C 5.74 g/m*3 9.88 C 0 km/h
2867 16-03-2011 10:00:00 10.28 C 5.62 g/m*3 10.28 C 0 km/h
2868 16-03-2011 11:00:00 11.34 C 5.5 g/m*3 11.34 C 0 km/h
2869 16-03-2011 12:00:00 11.2 C 5.45 g/m*3 11.2 C 0 km/h
2870 16-03-2011 13:00:00 11.58 C 5.48 g/m*3 11.58 C 0 km/h
2871 16-03-2011 14:00:00 11.58 C 5.48 g/m*3 11.58 C 0 km/h
2872 16-03-2011 15:00:00 10.76 C 5.5 g/m*3 10.76 C 0 km/h
2873 16-03-2011 16:00:00 10.06 C 5.41 g/m*3 10.06 C 0 km/h
2874 16-03-2011 17:00:00 9.52 C 5.47 g/m*3 9.52 C 0 km/h
2875 16-03-2011 18:00:00 8.68 C 5.44 g/m*3 8.68 C 0 km/h
Sensor: Nr:Datum:Temp:Abs-Feuchte:Windchill:Wind:
Aussen-T/F 2876 16-03-2011 19:00:00 8.16 C 5.4 g/m*3 8.16 C 0 km/h
2877 16-03-2011 20:00:00 7.9 C 5.4 g/m*3 7.9 C 0 km/h
2878 16-03-2011 21:00:00 7.4 C 5.34 g/m*3 7.4 C 0 km/h
2879 16-03-2011 22:00:00 7.12 C 5.36 g/m*3 7.12 C 0 km/h
2880 16-03-2011 23:00:00 6.96 C 5.46 g/m*3 6.96 C 0 km/h
2881 17-03-2011 00:00:00 6.84 C 5.52 g/m*3 6.84 C 0 km/h
2882 17-03-2011 01:00:00 6.8 C 5.52 g/m*3 6.8 C 0 km/h
2883 17-03-2011 02:00:00 6.78 C 5.59 g/m*3 6.78 C 0 km/h
2884 17-03-2011 03:00:00 6.76 C 5.64 g/m*3 6.76 C 0 km/h
2885 17-03-2011 04:00:00 6.78 C 5.65 g/m*3 6.78 C 0 km/h
2886 17-03-2011 05:00:00 6.76 C 5.69 g/m*3 6.76 C 0 km/h
2887 17-03-2011 06:00:00 6.78 C 5.7 g/m*3 6.78 C 0 km/h
2888 17-03-2011 07:00:00 6.44 C 5.78 g/m*3 6.44 C 0 km/h
2889 17-03-2011 08:00:00 6.32 C 5.65 g/m*3 6.32 C 0 km/h
2890 17-03-2011 09:00:00 5.94 C 5.71 g/m*3 5.94 C 0 km/h
2891 17-03-2011 10:00:00 5.84 C 5.99 g/m*3 5.84 C 0 km/h
2892 17-03-2011 11:00:00 5.98 C 5.96 g/m*3 5.98 C 0 km/h
2893 17-03-2011 12:00:00 6.12 C 5.98 g/m*3 6.12 C 0 km/h
2894 17-03-2011 13:00:00 6.1 C 6.01 g/m*3 6.1 C 0 km/h
2895 17-03-2011 14:00:00 5.94 C 6.04 g/m*3 5.94 C 0 km/h
2896 17-03-2011 15:00:00 5.92 C 6.09 g/m*3 5.92 C 0 km/h
2897 17-03-2011 16:00:00 6 C 6.01 g/m*3 6 C 0 km/h
2898 17-03-2011 17:00:00 5.94 C 6.03 g/m*3 5.94 C 0 km/h
2899 17-03-2011 18:00:00 5.98 C 6.1 g/m*3 5.98 C 0 km/h
2900 17-03-2011 19:00:00 6.22 C 6.11 g/m*3 6.22 C 0 km/h
Sensor: Nr:Datum:Temp:Abs-Feuchte:Windchill:Wind:
Aussen-T/F 2901 17-03-2011 20:00:00 6.32 C 6.12 g/m*3 6.32 C 0 km/h
2902 17-03-2011 21:00:00 6.32 C 6.06 g/m*3 6.32 C 0 km/h
2903 17-03-2011 22:00:00 6.22 C 5.94 g/m*3 6.22 C 0 km/h
2904 17-03-2011 23:00:00 5.98 C 5.83 g/m*3 5.98 C 0 km/h
2905 18-03-2011 00:00:00 5.98 C 5.62 g/m*3 5.98 C 0 km/h
2906 18-03-2011 01:00:00 5.7 C 5.62 g/m*3 5.7 C 0 km/h
2907 18-03-2011 02:00:00 5.44 C 5.71 g/m*3 5.44 C 0 km/h
2908 18-03-2011 03:00:00 5.12 C 5.79 g/m*3 5.12 C 0 km/h
2909 18-03-2011 04:00:00 5.16 C 5.69 g/m*3 5.16 C 0 km/h
2910 18-03-2011 05:00:00 5.04 C 5.64 g/m*3 5.04 C 0 km/h
2911 18-03-2011 06:00:00 4.84 C 5.54 g/m*3 4.84 C 0 km/h
2912 18-03-2011 07:00:00 4.82 C 5.36 g/m*3 4.82 C 0 km/h
2913 18-03-2011 08:00:00 5.2 C 5.04 g/m*3 5.2 C 0 km/h
2914 18-03-2011 09:00:00 5.72 C 4.79 g/m*3 5.72 C 0 km/h
2915 18-03-2011 10:00:00 6.3 C 4.53 g/m*3 6.3 C 0 km/h
2916 18-03-2011 11:00:00 6.78 C 4.75 g/m*3 6.78 C 0 km/h
2917 18-03-2011 12:00:00 7.5 C 4.67 g/m*3 7.5 C 0 km/h
2918 18-03-2011 13:00:00 8.76 C 4.58 g/m*3 8.76 C 0 km/h
2919 18-03-2011 14:00:00 8.78 C 4.52 g/m*3 8.78 C 0 km/h
2920 18-03-2011 15:00:00 8.9 C 4.49 g/m*3 8.9 C 0 km/h
2921 18-03-2011 16:00:00 8.74 C 4.49 g/m*3 8.74 C 0 km/h
2922 18-03-2011 17:00:00 7.94 C 4.83 g/m*3 7.94 C 0 km/h
2923 18-03-2011 18:00:00 7.34 C 5.1 g/m*3 7.34 C 0 km/h
2924 18-03-2011 19:00:00 6.86 C 5.22 g/m*3 6.86 C 0 km/h
2925 18-03-2011 20:00:00 6.4 C 5.31 g/m*3 6.4 C 0 km/h
Sensor: Nr:Datum:Temp:Abs-Feuchte:Windchill:Wind:
Aussen-T/F 2926 18-03-2011 21:00:00 6.2 C 5.34 g/m*3 6.2 C 0 km/h
2927 18-03-2011 22:00:00 5.44 C 5.76 g/m*3 5.44 C 0 km/h
2928 18-03-2011 23:00:00 5.08 C 5.97 g/m*3 5.08 C 0 km/h
2929 19-03-2011 00:00:00 4.72 C 5.98 g/m*3 4.72 C 0 km/h
2930 19-03-2011 01:00:00 4.52 C 5.95 g/m*3 4.52 C 0 km/h
2931 19-03-2011 02:00:00 4.38 C 5.93 g/m*3 4.38 C 0 km/h
2932 19-03-2011 03:00:00 4.48 C 5.97 g/m*3 4.48 C 0 km/h
2933 19-03-2011 04:00:00 4.68 C 6.11 g/m*3 4.68 C 0 km/h
2934 19-03-2011 05:00:00 4.68 C 6.12 g/m*3 4.68 C 0 km/h
2935 19-03-2011 06:00:00 4.54 C 6.06 g/m*3 4.54 C 0 km/h
2936 19-03-2011 07:00:00 4.38 C 6 g/m*3 4.38 C 0 km/h
2937 19-03-2011 08:00:00 4.74 C 6.05 g/m*3 4.74 C 0 km/h
2938 19-03-2011 09:00:00 5.78 C 5.74 g/m*3 5.78 C 0 km/h
2939 19-03-2011 10:00:00 6.8 C 5.29 g/m*3 6.8 C 0 km/h
2940 19-03-2011 11:00:00 7.36 C 4.95 g/m*3 7.36 C 0 km/h
2941 19-03-2011 12:00:00 11.32 C 3.55 g/m*3 11.32 C 0 km/h
2942 19-03-2011 13:00:00 12.08 C 2.93 g/m*3 12.08 C 0 km/h
2943 19-03-2011 14:00:00 12.6 C 2.61 g/m*3 12.6 C 0 km/h
2944 19-03-2011 15:00:00 16 C 2.72 g/m*3 16 C 0 km/h
2945 19-03-2011 16:00:00 17.46 C 2.97 g/m*3 17.46 C 0 km/h
2946 19-03-2011 17:00:00 15.38 C 2.62 g/m*3 15.38 C 0 km/h
2947 19-03-2011 18:00:00 8.5 C 3.33 g/m*3 8.5 C 0 km/h
2948 19-03-2011 19:00:00 3.86 C 3.46 g/m*3 3.86 C 0 km/h
2949 19-03-2011 20:00:00 2.58 C 3.68 g/m*3 2.58 C 0 km/h
2950 19-03-2011 21:00:00 0.88 C 3.68 g/m*3 0.88 C 0 km/h
Sensor: Nr:Datum:Temp:Abs-Feuchte:Windchill:Wind:
Aussen-T/F 2951 19-03-2011 22:00:00 -0.76 C 3.58 g/m*3 -0.76 C 0 km/h
2952 19-03-2011 23:00:00 -1.84 C 3.38 g/m*3 -1.84 C 0 km/h
2953 20-03-2011 00:00:00 -2.44 C 3.35 g/m*3 -2.44 C 0 km/h
2954 20-03-2011 01:00:00 -2.86 C 3.32 g/m*3 -2.86 C 0 km/h
2955 20-03-2011 02:00:00 -3.3 C 3.27 g/m*3 -3.3 C 0 km/h
2956 20-03-2011 03:00:00 -3.62 C 3.23 g/m*3 -3.62 C 0 km/h
2957 20-03-2011 04:00:00 -3.86 C 3.19 g/m*3 -3.86 C 0 km/h
2958 20-03-2011 05:00:00 -3.78 C 3.25 g/m*3 -3.78 C 0 km/h
2959 20-03-2011 06:00:00 -3.72 C 3.3 g/m*3 -3.72 C 0 km/h
2960 20-03-2011 07:00:00 -3.76 C 3.3 g/m*3 -3.76 C 0 km/h
2961 20-03-2011 08:00:00 -2.52 C 3.63 g/m*3 -2.52 C 0 km/h
2962 20-03-2011 09:00:00 -0.6 C 4.13 g/m*3 -0.6 C 0 km/h
2963 20-03-2011 10:00:00 2.66 C 4.37 g/m*3 2.66 C 0 km/h
2964 20-03-2011 11:00:00 5.52 C 3.8 g/m*3 5.52 C 0 km/h
2965 20-03-2011 12:00:00 11.74 C 2.66 g/m*3 11.74 C 0 km/h
2966 20-03-2011 13:00:00 12.58 C 2.21 g/m*3 12.58 C 0 km/h
2967 20-03-2011 14:00:00 13.02 C 2.27 g/m*3 13.02 C 0 km/h
2968 20-03-2011 15:00:00 17.44 C 2.97 g/m*3 17.44 C 0 km/h
2969 20-03-2011 16:00:00 18.98 C 3.26 g/m*3 18.98 C 0 km/h
2970 20-03-2011 17:00:00 15.94 C 2.72 g/m*3 15.94 C 0 km/h
2971 20-03-2011 18:00:00 7.92 C 3.54 g/m*3 7.92 C 0 km/h
2972 20-03-2011 19:00:00 4.36 C 3.65 g/m*3 4.36 C 0 km/h
2973 20-03-2011 20:00:00 2.64 C 3.49 g/m*3 2.64 C 0 km/h
2974 20-03-2011 21:00:00 0.76 C 3.35 g/m*3 0.76 C 0 km/h
2975 20-03-2011 22:00:00 -0.44 C 3.25 g/m*3 -0.44 C 0 km/h
Sensor: Nr:Datum:Temp:Abs-Feuchte:Windchill:Wind:
Aussen-T/F 2976 20-03-2011 23:00:00 -1.26 C 3.18 g/m*3 -1.26 C 0 km/h
2977 21-03-2011 00:00:00 -1.64 C 3.21 g/m*3 -1.64 C 0 km/h
2978 21-03-2011 01:00:00 -2.5 C 3.15 g/m*3 -2.5 C 0 km/h
2979 21-03-2011 02:00:00 -2.62 C 3.28 g/m*3 -2.62 C 0 km/h
2980 21-03-2011 03:00:00 -3.08 C 3.25 g/m*3 -3.08 C 0 km/h
2981 21-03-2011 04:00:00 -3.5 C 3.2 g/m*3 -3.5 C 0 km/h
2982 21-03-2011 05:00:00 -3.86 C 3.15 g/m*3 -3.86 C 0 km/h
2983 21-03-2011 06:00:00 -3.94 C 3.16 g/m*3 -3.94 C 0 km/h
2984 21-03-2011 07:00:00 -3.22 C 3.36 g/m*3 -3.22 C 0 km/h
2985 21-03-2011 08:00:00 -2.12 C 3.63 g/m*3 -2.12 C 0 km/h
2986 21-03-2011 09:00:00 -0.64 C 3.87 g/m*3 -0.64 C 0 km/h
2987 21-03-2011 10:00:00 2.56 C 4.22 g/m*3 2.56 C 0 km/h
2988 21-03-2011 11:00:00 7.38 C 3.72 g/m*3 7.38 C 0 km/h
2989 21-03-2011 12:00:00 13.6 C 3.18 g/m*3 13.6 C 0 km/h
2990 21-03-2011 13:00:00 14.34 C 2.46 g/m*3 14.34 C 0 km/h
2991 21-03-2011 14:00:00 16.04 C 2.73 g/m*3 16.04 C 0 km/h
2992 21-03-2011 15:00:00 19.7 C 3.4 g/m*3 19.7 C 0 km/h
2993 21-03-2011 16:00:00 19.98 C 3.45 g/m*3 19.98 C 0 km/h
2994 21-03-2011 17:00:00 17.66 C 3.07 g/m*3 17.66 C 0 km/h
2995 21-03-2011 18:00:00 10.58 C 3.65 g/m*3 10.58 C 0 km/h
2996 21-03-2011 19:00:00 6.66 C 3.97 g/m*3 6.66 C 0 km/h
2997 21-03-2011 20:00:00 5.06 C 4.09 g/m*3 5.06 C 0 km/h
2998 21-03-2011 21:00:00 3.14 C 4.05 g/m*3 3.14 C 0 km/h
2999 21-03-2011 22:00:00 1.74 C 3.94 g/m*3 1.74 C 0 km/h
3000 21-03-2011 23:00:00 0.6 C 3.89 g/m*3 0.6 C 0 km/h
Sensor: Nr:Datum:Temp:Abs-Feuchte:Windchill:Wind:
Aussen-T/F 3001 22-03-2011 00:00:00 -0.16 C 3.78 g/m*3 -0.16 C 0 km/h
3002 22-03-2011 01:00:00 -0.86 C 3.75 g/m*3 -0.86 C 0 km/h
3003 22-03-2011 02:00:00 -1.36 C 3.72 g/m*3 -1.36 C 0 km/h
3004 22-03-2011 03:00:00 -1.86 C 3.62 g/m*3 -1.86 C 0 km/h
3005 22-03-2011 04:00:00 -2.24 C 3.55 g/m*3 -2.24 C 0 km/h
3006 22-03-2011 05:00:00 -2.56 C 3.53 g/m*3 -2.56 C 0 km/h
3007 22-03-2011 06:00:00 -2.22 C 3.67 g/m*3 -2.22 C 0 km/h
3008 22-03-2011 07:00:00 -2.12 C 3.72 g/m*3 -2.12 C 0 km/h
3009 22-03-2011 08:00:00 -0.94 C 4.08 g/m*3 -0.94 C 0 km/h
3010 22-03-2011 09:00:00 0.8 C 4.59 g/m*3 0.8 C 0 km/h
3011 22-03-2011 10:00:00 4.84 C 4.81 g/m*3 4.84 C 0 km/h
3012 22-03-2011 11:00:00 8.82 C 4.18 g/m*3 8.82 C 0 km/h
3013 22-03-2011 12:00:00 15.66 C 3.52 g/m*3 15.66 C 0 km/h
3014 22-03-2011 13:00:00 16.9 C 2.88 g/m*3 16.9 C 0 km/h
3015 22-03-2011 14:00:00 18.88 C 3.24 g/m*3 18.88 C 0 km/h
3016 22-03-2011 15:00:00 22.26 C 3.94 g/m*3 22.26 C 0 km/h
3017 22-03-2011 16:00:00 21.74 C 3.82 g/m*3 21.74 C 0 km/h
3018 22-03-2011 17:00:00 19.04 C 3.27 g/m*3 19.04 C 0 km/h
3019 22-03-2011 18:00:00 13.28 C 3.21 g/m*3 13.28 C 0 km/h
3020 22-03-2011 19:00:00 9.68 C 3.89 g/m*3 9.68 C 0 km/h
3021 22-03-2011 20:00:00 9.14 C 4.11 g/m*3 9.14 C 0 km/h
3022 22-03-2011 21:00:00 7.5 C 4.63 g/m*3 7.5 C 0 km/h
3023 22-03-2011 22:00:00 5.88 C 4.82 g/m*3 5.88 C 0 km/h
3024 22-03-2011 23:00:00 3.9 C 4.8 g/m*3 3.9 C 0 km/h
3025 23-03-2011 00:00:00 2.68 C 4.67 g/m*3 2.68 C 0 km/h
Sensor: Nr:Datum:Temp:Abs-Feuchte:Windchill:Wind:
Aussen-T/F 3026 23-03-2011 01:00:00 2.22 C 4.72 g/m*3 2.22 C 0 km/h
3027 23-03-2011 02:00:00 1.7 C 4.69 g/m*3 1.7 C 0 km/h
3028 23-03-2011 03:00:00 0.58 C 4.39 g/m*3 0.58 C 0 km/h
3029 23-03-2011 04:00:00 0.3 C 4.38 g/m*3 0.3 C 0 km/h
3030 23-03-2011 05:00:00 0.06 C 4.37 g/m*3 0.06 C 0 km/h
3031 23-03-2011 06:00:00 -0.1 C 4.37 g/m*3 -0.1 C 0 km/h
3032 23-03-2011 07:00:00 0.54 C 4.61 g/m*3 0.54 C 0 km/h
3033 23-03-2011 08:00:00 2.04 C 5.04 g/m*3 2.04 C 0 km/h
3034 23-03-2011 09:00:00 4.54 C 5.6 g/m*3 4.54 C 0 km/h
3035 23-03-2011 10:00:00 8.02 C 5.53 g/m*3 8.02 C 0 km/h
3036 23-03-2011 11:00:00 11.9 C 5.4 g/m*3 11.9 C 0 km/h
3037 23-03-2011 12:00:00 16.98 C 4.97 g/m*3 16.98 C 0 km/h
3038 23-03-2011 13:00:00 17.72 C 4.44 g/m*3 17.72 C 0 km/h
3039 23-03-2011 14:00:00 20.16 C 4.29 g/m*3 20.16 C 0 km/h
3040 23-03-2011 15:00:00 22.58 C 4.05 g/m*3 22.58 C 0 km/h
3041 23-03-2011 16:00:00 22.24 C 4.29 g/m*3 22.24 C 0 km/h
3042 23-03-2011 17:00:00 19.14 C 4.86 g/m*3 19.14 C 0 km/h
3043 23-03-2011 18:00:00 13.36 C 5.68 g/m*3 13.36 C 0 km/h
3044 23-03-2011 19:00:00 10.72 C 5.92 g/m*3 10.72 C 0 km/h
3045 23-03-2011 20:00:00 9.6 C 5.99 g/m*3 9.6 C 0 km/h
3046 23-03-2011 21:00:00 8.08 C 6 g/m*3 8.08 C 0 km/h
3047 23-03-2011 22:00:00 6.22 C 5.86 g/m*3 6.22 C 0 km/h
3048 23-03-2011 23:00:00 4.96 C 5.72 g/m*3 4.96 C 0 km/h
3049 24-03-2011 00:00:00 4.26 C 5.54 g/m*3 4.26 C 0 km/h
3050 24-03-2011 01:00:00 3.4 C 5.35 g/m*3 3.4 C 0 km/h
Sensor: Nr:Datum:Temp:Abs-Feuchte:Windchill:Wind:
Aussen-T/F 3051 24-03-2011 02:00:00 2.94 C 5.23 g/m*3 2.94 C 0 km/h
3052 24-03-2011 03:00:00 2.56 C 5.18 g/m*3 2.56 C 0 km/h
3053 24-03-2011 04:00:00 2.26 C 5.1 g/m*3 2.26 C 0 km/h
3054 24-03-2011 05:00:00 1.84 C 4.99 g/m*3 1.84 C 0 km/h
3055 24-03-2011 06:00:00 1.4 C 4.91 g/m*3 1.4 C 0 km/h
3056 24-03-2011 07:00:00 1.56 C 4.96 g/m*3 1.56 C 0 km/h
3057 24-03-2011 08:00:00 2.8 C 5.4 g/m*3 2.8 C 0 km/h
3058 24-03-2011 09:00:00 4.98 C 6.18 g/m*3 4.98 C 0 km/h
3059 24-03-2011 10:00:00 8.06 C 6.67 g/m*3 8.06 C 0 km/h
3060 24-03-2011 11:00:00 12.1 C 5.1 g/m*3 12.1 C 0 km/h
3061 24-03-2011 12:00:00 17.36 C 3.99 g/m*3 17.36 C 0 km/h
3062 24-03-2011 13:00:00 18.78 C 3.31 g/m*3 18.78 C 0 km/h
3063 24-03-2011 14:00:00 21.26 C 3.72 g/m*3 21.26 C 0 km/h
3064 24-03-2011 15:00:00 24.54 C 4.49 g/m*3 24.54 C 0 km/h
3065 24-03-2011 16:00:00 22.62 C 4.02 g/m*3 22.62 C 0 km/h
3066 24-03-2011 17:00:00 20.12 C 3.65 g/m*3 20.12 C 0 km/h
3067 24-03-2011 18:00:00 13.84 C 3.65 g/m*3 13.84 C 0 km/h
3068 24-03-2011 19:00:00 9.84 C 4.15 g/m*3 9.84 C 0 km/h
3069 24-03-2011 20:00:00 8 C 4.43 g/m*3 8 C 0 km/h
3070 24-03-2011 21:00:00 6.08 C 4.01 g/m*3 6.08 C 0 km/h
3071 24-03-2011 22:00:00 4.72 C 4 g/m*3 4.72 C 0 km/h
3072 24-03-2011 23:00:00 4.14 C 3.95 g/m*3 4.14 C 0 km/h
3073 25-03-2011 00:00:00 3.32 C 3.99 g/m*3 3.32 C 0 km/h
3074 25-03-2011 01:00:00 1.92 C 3.98 g/m*3 1.92 C 0 km/h
3075 25-03-2011 02:00:00 2.02 C 4.12 g/m*3 2.02 C 0 km/h
Sensor: Nr:Datum:Temp:Abs-Feuchte:Windchill:Wind:
Aussen-T/F 3076 25-03-2011 03:00:00 1.04 C 4.07 g/m*3 1.04 C 0 km/h
3077 25-03-2011 04:00:00 0.7 C 4.12 g/m*3 0.7 C 0 km/h
3078 25-03-2011 05:00:00 0.08 C 4.04 g/m*3 0.08 C 0 km/h
3079 25-03-2011 06:00:00 0.12 C 4.17 g/m*3 0.12 C 0 km/h
3080 25-03-2011 07:00:00 1 C 4.42 g/m*3 1 C 0 km/h
3081 25-03-2011 08:00:00 3.58 C 4.62 g/m*3 3.58 C 0 km/h
3082 25-03-2011 09:00:00 6.64 C 4.36 g/m*3 6.64 C 0 km/h
3083 25-03-2011 10:00:00 10.02 C 4.18 g/m*3 10.02 C 0 km/h
3084 25-03-2011 11:00:00 13.34 C 4.22 g/m*3 13.34 C 0 km/h
3085 25-03-2011 12:00:00 18.02 C 3.91 g/m*3 18.02 C 0 km/h
3086 25-03-2011 13:00:00 20.04 C 4.16 g/m*3 20.04 C 0 km/h
3087 25-03-2011 14:00:00 22.9 C 4.37 g/m*3 22.9 C 0 km/h
3088 25-03-2011 15:00:00 24.52 C 4.48 g/m*3 24.52 C 0 km/h
3089 25-03-2011 16:00:00 22.02 C 4.27 g/m*3 22.02 C 0 km/h
3090 25-03-2011 17:00:00 18.94 C 4.9 g/m*3 18.94 C 0 km/h
3091 25-03-2011 18:00:00 14.78 C 5.36 g/m*3 14.78 C 0 km/h
3092 25-03-2011 19:00:00 11.5 C 5.6 g/m*3 11.5 C 0 km/h
3093 25-03-2011 20:00:00 10.06 C 5.85 g/m*3 10.06 C 0 km/h
3094 25-03-2011 21:00:00 9.08 C 5.72 g/m*3 9.08 C 0 km/h
3095 25-03-2011 22:00:00 8.55 C 5.78 g/m*3 8.55 C 0 km/h
3096 25-03-2011 23:00:00 7.38 C 5.75 g/m*3 7.38 C 0 km/h
3097 26-03-2011 00:00:00 5.56 C 5.58 g/m*3 5.56 C 0 km/h
3098 26-03-2011 01:00:00 5.24 C 5.8 g/m*3 5.24 C 0 km/h
3099 26-03-2011 02:00:00 4.62 C 5.59 g/m*3 4.62 C 0 km/h
3100 26-03-2011 03:00:00 3.94 C 5.52 g/m*3 3.94 C 0 km/h
Sensor: Nr:Datum:Temp:Abs-Feuchte:Windchill:Wind:
Aussen-T/F 3101 26-03-2011 04:00:00 4.44 C 5.75 g/m*3 4.44 C 0 km/h
3102 26-03-2011 05:00:00 4.86 C 5.6 g/m*3 4.86 C 0 km/h
3103 26-03-2011 06:00:00 4.86 C 5.51 g/m*3 4.86 C 0 km/h
3104 26-03-2011 07:00:00 5.64 C 5.54 g/m*3 5.64 C 0 km/h
3105 26-03-2011 08:00:00 6.32 C 5.66 g/m*3 6.32 C 0 km/h
3106 26-03-2011 09:00:00 8.88 C 5.32 g/m*3 8.88 C 0 km/h
3107 26-03-2011 10:00:00 9.16 C 4.6 g/m*3 9.16 C 0 km/h
3108 26-03-2011 11:00:00 10.56 C 3.91 g/m*3 10.56 C 0 km/h
3109 26-03-2011 12:00:00 12.56 C 3.42 g/m*3 12.56 C 0 km/h
3110 26-03-2011 13:00:00 13.34 C 3.24 g/m*3 13.34 C 0 km/h
3111 26-03-2011 14:00:00 14.58 C 3.1 g/m*3 14.58 C 0 km/h
3112 26-03-2011 15:00:00 15.32 C 2.95 g/m*3 15.32 C 0 km/h
3113 26-03-2011 16:00:00 12.66 C 3.46 g/m*3 12.66 C 0 km/h
3114 26-03-2011 17:00:00 11.1 C 3.87 g/m*3 11.1 C 0 km/h
3115 26-03-2011 18:00:00 9.4 C 4.12 g/m*3 9.4 C 0 km/h
3116 26-03-2011 19:00:00 8 C 4.45 g/m*3 8 C 0 km/h
3117 26-03-2011 20:00:00 6.74 C 4.54 g/m*3 6.74 C 0 km/h
3118 26-03-2011 21:00:00 6.12 C 4.73 g/m*3 6.12 C 0 km/h
3119 26-03-2011 22:00:00 5.64 C 4.83 g/m*3 5.64 C 0 km/h
3120 26-03-2011 23:00:00 5.32 C 4.84 g/m*3 5.32 C 0 km/h
3121 27-03-2011 00:00:00 5.06 C 4.91 g/m*3 5.06 C 0 km/h
3122 27-03-2011 01:00:00 4.98 C 4.94 g/m*3 4.98 C 0 km/h
3123 27-03-2011 02:00:00 4.82 C 4.87 g/m*3 4.82 C 0 km/h
3124 27-03-2011 04:00:00 4.88 C 4.81 g/m*3 4.88 C 0 km/h
3125 27-03-2011 05:00:00 4.68 C 4.86 g/m*3 4.68 C 0 km/h
Sensor: Nr:Datum:Temp:Abs-Feuchte:Windchill:Wind:
Aussen-T/F 3126 27-03-2011 06:00:00 4.4 C 4.75 g/m*3 4.4 C 0 km/h
3127 27-03-2011 07:00:00 4.4 C 4.78 g/m*3 4.4 C 0 km/h
3128 27-03-2011 08:00:00 5.56 C 4.78 g/m*3 5.56 C 0 km/h
3129 27-03-2011 09:00:00 7.16 C 4.62 g/m*3 7.16 C 0 km/h
3130 27-03-2011 10:00:00 8.34 C 4.48 g/m*3 8.34 C 0 km/h
3131 27-03-2011 11:00:00 10.02 C 4.42 g/m*3 10.02 C 0 km/h
3132 27-03-2011 12:00:00 11.32 C 4.39 g/m*3 11.32 C 0 km/h
3133 27-03-2011 13:00:00 14.1 C 4.59 g/m*3 14.1 C 0 km/h
3134 27-03-2011 14:00:00 15.86 C 4.16 g/m*3 15.86 C 0 km/h
3135 27-03-2011 15:00:00 18.86 C 3.78 g/m*3 18.86 C 0 km/h
3136 27-03-2011 16:00:00 19.96 C 3.45 g/m*3 19.96 C 0 km/h
3137 27-03-2011 17:00:00 17.8 C 3.52 g/m*3 17.8 C 0 km/h
3138 27-03-2011 18:00:00 15.46 C 3.98 g/m*3 15.46 C 0 km/h
3139 27-03-2011 19:00:00 12.36 C 4.69 g/m*3 12.36 C 0 km/h
3140 27-03-2011 20:00:00 9.06 C 4.81 g/m*3 9.06 C 0 km/h
3141 27-03-2011 21:00:00 7.78 C 4.96 g/m*3 7.78 C 0 km/h
3142 27-03-2011 22:00:00 7.74 C 4.99 g/m*3 7.74 C 0 km/h
3143 27-03-2011 23:00:00 6.7 C 5.11 g/m*3 6.7 C 0 km/h
3144 28-03-2011 00:00:00 5.46 C 5.13 g/m*3 5.46 C 0 km/h
3145 28-03-2011 01:00:00 4 C 5 g/m*3 4 C 0 km/h
3146 28-03-2011 02:00:00 2.8 C 4.89 g/m*3 2.8 C 0 km/h
3147 28-03-2011 03:00:00 2.14 C 4.81 g/m*3 2.14 C 0 km/h
3148 28-03-2011 04:00:00 2.68 C 5.1 g/m*3 2.68 C 0 km/h
3149 28-03-2011 05:00:00 1.84 C 4.85 g/m*3 1.84 C 0 km/h
3150 28-03-2011 06:00:00 1.14 C 4.67 g/m*3 1.14 C 0 km/h
Sensor: Nr:Datum:Temp:Abs-Feuchte:Windchill:Wind:
Aussen-T/F 3151 28-03-2011 07:00:00 0.62 C 4.58 g/m*3 0.62 C 0 km/h
3152 28-03-2011 08:00:00 1.14 C 4.77 g/m*3 1.14 C 0 km/h
3153 28-03-2011 09:00:00 2.42 C 5.15 g/m*3 2.42 C 0 km/h
3154 28-03-2011 10:00:00 4.66 C 5.49 g/m*3 4.66 C 0 km/h
3155 28-03-2011 11:00:00 8.6 C 4.35 g/m*3 8.6 C 0 km/h
3156 28-03-2011 12:00:00 11.28 C 3.44 g/m*3 11.28 C 0 km/h
3157 28-03-2011 13:00:00 13.88 C 3.07 g/m*3 13.88 C 0 km/h
3158 28-03-2011 14:00:00 14.58 C 2.5 g/m*3 14.58 C 0 km/h
3159 28-03-2011 15:00:00 17.22 C 2.93 g/m*3 17.22 C 0 km/h
3160 28-03-2011 16:00:00 18.94 C 3.25 g/m*3 18.94 C 0 km/h
3161 28-03-2011 17:00:00 17.94 C 3.06 g/m*3 17.94 C 0 km/h
3162 28-03-2011 18:00:00 16.12 C 2.74 g/m*3 16.12 C 0 km/h
3163 28-03-2011 19:00:00 12.38 C 2.88 g/m*3 12.38 C 0 km/h
3164 28-03-2011 20:00:00 9.38 C 3.22 g/m*3 9.38 C 0 km/h
3165 28-03-2011 21:00:00 6.9 C 3.68 g/m*3 6.9 C 0 km/h
3166 28-03-2011 22:00:00 5.7 C 3.8 g/m*3 5.7 C 0 km/h
3167 28-03-2011 23:00:00 3.52 C 3.97 g/m*3 3.52 C 0 km/h
3168 29-03-2011 00:00:00 1.3 C 3.86 g/m*3 1.3 C 0 km/h
3169 29-03-2011 01:00:00 0.46 C 3.81 g/m*3 0.46 C 0 km/h
3170 29-03-2011 02:00:00 -0.34 C 3.7 g/m*3 -0.34 C 0 km/h
3171 29-03-2011 03:00:00 -0.84 C 3.72 g/m*3 -0.84 C 0 km/h
3172 29-03-2011 04:00:00 -1.46 C 3.67 g/m*3 -1.46 C 0 km/h
3173 29-03-2011 05:00:00 -2 C 3.58 g/m*3 -2 C 0 km/h
3174 29-03-2011 06:00:00 -2 C 3.66 g/m*3 -2 C 0 km/h
3175 29-03-2011 07:00:00 -2.22 C 3.64 g/m*3 -2.22 C 0 km/h
Sensor: Nr:Datum:Temp:Abs-Feuchte:Windchill:Wind:
Aussen-T/F 3176 29-03-2011 08:00:00 -1.64 C 3.8 g/m*3 -1.64 C 0 km/h
3177 29-03-2011 09:00:00 -0.24 C 4.21 g/m*3 -0.24 C 0 km/h
3178 29-03-2011 10:00:00 2.38 C 4.69 g/m*3 2.38 C 0 km/h
3179 29-03-2011 11:00:00 6.68 C 4.34 g/m*3 6.68 C 0 km/h
3180 29-03-2011 12:00:00 10.4 C 4.12 g/m*3 10.4 C 0 km/h
3181 29-03-2011 13:00:00 16.1 C 3.73 g/m*3 16.1 C 0 km/h
3182 29-03-2011 14:00:00 18.2 C 3.17 g/m*3 18.2 C 0 km/h
3183 29-03-2011 15:00:00 20.6 C 3.58 g/m*3 20.6 C 0 km/h
3184 29-03-2011 16:00:00 23.64 C 4.26 g/m*3 23.64 C 0 km/h
3185 29-03-2011 17:00:00 21.6 C 3.79 g/m*3 21.6 C 0 km/h
3186 29-03-2011 18:00:00 20.18 C 3.49 g/m*3 20.18 C 0 km/h
3187 29-03-2011 19:00:00 14.96 C 4.3 g/m*3 14.96 C 0 km/h
3188 29-03-2011 20:00:00 10.66 C 4.68 g/m*3 10.66 C 0 km/h
3189 29-03-2011 21:00:00 8.56 C 4.78 g/m*3 8.56 C 0 km/h
3190 29-03-2011 22:00:00 7.52 C 4.78 g/m*3 7.52 C 0 km/h
3191 29-03-2011 23:00:00 5.6 C 4.71 g/m*3 5.6 C 0 km/h
3192 30-03-2011 00:00:00 4.12 C 4.54 g/m*3 4.12 C 0 km/h
3193 30-03-2011 01:00:00 3.08 C 4.57 g/m*3 3.08 C 0 km/h
3194 30-03-2011 02:00:00 3.06 C 4.79 g/m*3 3.06 C 0 km/h
3195 30-03-2011 03:00:00 1.82 C 4.53 g/m*3 1.82 C 0 km/h
3196 30-03-2011 04:00:00 1.02 C 4.42 g/m*3 1.02 C 0 km/h
3197 30-03-2011 05:00:00 0.64 C 4.44 g/m*3 0.64 C 0 km/h
3198 30-03-2011 06:00:00 0.14 C 4.32 g/m*3 0.14 C 0 km/h
3199 30-03-2011 07:00:00 0.62 C 4.53 g/m*3 0.62 C 0 km/h
3200 30-03-2011 08:00:00 2.94 C 5.09 g/m*3 2.94 C 0 km/h
Sensor: Nr:Datum:Temp:Abs-Feuchte:Windchill:Wind:
Aussen-T/F 3201 30-03-2011 09:00:00 5.08 C 4.66 g/m*3 5.08 C 0 km/h
3202 30-03-2011 10:00:00 8.5 C 4.78 g/m*3 8.5 C 0 km/h
3203 30-03-2011 11:00:00 11.28 C 4.65 g/m*3 11.28 C 0 km/h
3204 30-03-2011 12:00:00 12.7 C 5.41 g/m*3 12.7 C 0 km/h
3205 30-03-2011 13:00:00 14.46 C 5.83 g/m*3 14.46 C 0 km/h
3206 30-03-2011 14:00:00 16.16 C 5.67 g/m*3 16.16 C 0 km/h
3207 30-03-2011 15:00:00 17.16 C 5.55 g/m*3 17.16 C 0 km/h
3208 30-03-2011 16:00:00 15.96 C 5.49 g/m*3 15.96 C 0 km/h
3209 30-03-2011 17:00:00 13.94 C 7.16 g/m*3 13.94 C 0 km/h
3210 30-03-2011 18:00:00 14.16 C 7.24 g/m*3 14.16 C 0 km/h
3211 30-03-2011 19:00:00 12.7 C 6.35 g/m*3 12.7 C 0 km/h
3212 30-03-2011 20:00:00 11.5 C